Provisional Data: Driftwood Branch Sinnemahoning Creek


Please select a monitoring station.
Please select start date.
Please select start date.

Toggle Unit: C/F Toggle Unit: C/F
Sample Time Temperature (C) Temperature (F) Specific Conductivity (mS/cm) pH   Turbidity (NTU+) DO (mg/L)
3/23/2021 12:00:00 AM 6.02 42.836 0.047 6.55 3.4 11.84
3/23/2021 12:15:00 AM 5.93 42.674 0.047 6.55 3.38 11.87
3/23/2021 12:30:00 AM 5.83 42.494 0.047 6.56 3.35 11.91
3/23/2021 12:45:00 AM 5.74 42.332 0.047 6.55 3.47 11.93
3/23/2021 1:00:00 AM 5.65 42.17 0.047 6.56 3.29 11.97
3/23/2021 1:15:00 AM 5.56 42.008 0.047 6.57 3.46 12
3/23/2021 1:30:00 AM 5.47 41.846 0.047 6.55 3.36 12.03
3/23/2021 1:45:00 AM 5.38 41.684 0.047 6.56 3.38 12.06
3/23/2021 2:00:00 AM 5.29 41.522 0.047 6.55 3.24 12.09
3/23/2021 2:15:00 AM 5.19 41.342 0.047 6.55 3.28 12.12
3/23/2021 2:30:00 AM 5.1 41.18 0.047 6.55 3.34 12.14
3/23/2021 2:45:00 AM 5.01 41.018 0.047 6.55 3.29 12.18
3/23/2021 3:00:00 AM 4.92 40.856 0.047 6.54 3.27 12.21
3/23/2021 3:15:00 AM 4.83 40.694 0.047 6.54 3.24 12.24
3/23/2021 3:30:00 AM 4.74 40.532 0.047 6.53 3.22 12.27
3/23/2021 3:45:00 AM 4.66 40.388 0.047 6.54 3.37 12.29
3/23/2021 4:00:00 AM 4.57 40.226 0.047 6.53 3.27 12.33
3/23/2021 4:15:00 AM 4.49 40.082 0.047 6.55 3.25 12.36
3/23/2021 4:30:00 AM 4.4 39.92 0.047 6.54 3.26 12.38
3/23/2021 4:45:00 AM 4.32 39.776 0.047 6.53 3.11 12.41
3/23/2021 5:00:00 AM 4.25 39.65 0.047 6.53 3.2 12.43
3/23/2021 5:15:00 AM 4.17 39.506 0.047 6.53 3.11 12.46
3/23/2021 5:30:00 AM 4.09 39.362 0.047 6.53 3.11 12.49
3/23/2021 5:45:00 AM 4.02 39.236 0.047 6.54 3.11 12.52
3/23/2021 6:00:00 AM 3.95 39.11 0.047 6.54 3.1 12.54
3/23/2021 6:15:00 AM 3.87 38.966 0.047 6.55 3.18 12.57
3/23/2021 6:30:00 AM 3.8 38.84 0.047 6.52 3.08 12.6
3/23/2021 6:45:00 AM 3.74 38.732 0.047 6.55 3.17 12.62
3/23/2021 7:00:00 AM 3.67 38.606 0.047 6.54 3.14 12.64
3/23/2021 7:15:00 AM 3.6 38.48 0.047 6.55 3.05 12.67
3/23/2021 7:30:00 AM 3.55 38.39 0.048 6.55 3.01 12.7
3/23/2021 7:45:00 AM 3.5 38.3 0.047 6.55 3.06 12.75
3/23/2021 8:00:00 AM 3.46 38.228 0.047 6.56 3.02 12.8
3/23/2021 8:15:00 AM 3.43 38.174 0.047 6.58 3.06 12.84
3/23/2021 8:30:00 AM 3.41 38.138 0.047 6.59 3.01 12.89
3/23/2021 8:45:00 AM 3.41 38.138 0.047 6.6 3.03 12.93
3/23/2021 9:00:00 AM 3.41 38.138 0.047 6.62 3.05 12.97
3/23/2021 9:15:00 AM 3.45 38.21 0.047 6.62 2.89 12.99
3/23/2021 9:30:00 AM 3.5 38.3 0.047 6.63 2.93 13.01
3/23/2021 9:45:00 AM 3.55 38.39 0.047 6.63 2.9 13.02
3/23/2021 10:00:00 AM 3.64 38.552 0.047 6.66 2.93 13.03
3/23/2021 10:15:00 AM 3.73 38.714 0.047 6.68 2.86 13.01
3/23/2021 10:30:00 AM 3.86 38.948 0.047 6.69 2.82 13
3/23/2021 10:45:00 AM 4.01 39.218 0.047 6.71 2.8 12.98
3/23/2021 11:00:00 AM 4.16 39.488 0.047 6.73 2.82 12.95
3/23/2021 11:15:00 AM 4.36 39.848 0.047 6.75 2.87 12.91
3/23/2021 11:30:00 AM 4.58 40.244 0.047 6.76 2.78 12.86
3/23/2021 11:45:00 AM 4.82 40.676 0.047 6.77 2.79 12.81
3/23/2021 12:00:00 PM 5.07 41.126 0.047 6.78 2.8 12.74
3/23/2021 12:15:00 PM 5.32 41.576 0.046 6.79 2.81 12.68
3/23/2021 12:30:00 PM 5.59 42.062 0.046 6.8 2.71 12.61
3/23/2021 12:45:00 PM 5.86 42.548 0.046 6.81 2.77 12.53
3/23/2021 1:00:00 PM 6.11 42.998 0.046 6.81 2.71 12.46
3/23/2021 1:15:00 PM 6.38 43.484 0.046 6.84 2.75 12.38
3/23/2021 1:30:00 PM 6.61 43.898 0.046 6.83 2.77 12.3
3/23/2021 1:45:00 PM 6.83 44.294 0.046 6.84 2.72 12.23
3/23/2021 2:00:00 PM 6.97 44.546 0.046 6.83 2.67 12.15
3/23/2021 2:15:00 PM 7.12 44.816 0.046 6.82 2.67 12.1
3/23/2021 2:30:00 PM 7.3 45.14 0.046 6.84 2.71 12.04
3/23/2021 2:45:00 PM 7.44 45.392 0.046 6.84 2.71 11.98
3/23/2021 3:00:00 PM 7.54 45.572 0.046 6.84 2.79 11.94
3/23/2021 3:15:00 PM 7.7 45.86 0.046 6.84 2.75 11.89
3/23/2021 3:30:00 PM 7.81 46.058 0.046 6.83 2.7 11.84
3/23/2021 3:45:00 PM 7.9 46.22 0.046 6.84 2.75 11.8
3/23/2021 4:00:00 PM 8 46.4 0.046 6.84 2.76 11.77
3/23/2021 4:15:00 PM 8.08 46.544 0.046 6.83 2.79 11.73
3/23/2021 4:30:00 PM 8.17 46.706 0.046 6.84 2.93 11.71
3/23/2021 4:45:00 PM 8.19 46.742 0.046 6.81 2.77 11.68
3/23/2021 5:00:00 PM 8.19 46.742 0.046 6.81 2.82 11.65
3/23/2021 5:15:00 PM 8.22 46.796 0.046 6.81 2.86 11.63
3/23/2021 5:30:00 PM 8.26 46.868 0.046 6.81 2.8 11.62
3/23/2021 5:45:00 PM 8.26 46.868 0.046 6.8 2.98 11.6
3/23/2021 6:00:00 PM 8.25 46.85 0.046 6.8 2.9 11.58
3/23/2021 6:15:00 PM 8.23 46.814 0.046 6.78 2.9 11.56
3/23/2021 6:30:00 PM 8.21 46.778 0.046 6.78 3.03 11.55
3/23/2021 6:45:00 PM 8.18 46.724 0.046 6.76 2.92 11.52
3/23/2021 7:00:00 PM 8.14 46.652 0.046 6.75 3.02 11.47
3/23/2021 7:15:00 PM 8.09 46.562 0.046 6.74 3.13 11.43
3/23/2021 7:30:00 PM 8.04 46.472 0.046 6.71 3.07 11.39
3/23/2021 7:45:00 PM 8 46.4 0.046 6.69 3.06 11.36
3/23/2021 8:00:00 PM 7.96 46.328 0.046 6.69 3.11 11.34
3/23/2021 8:15:00 PM 7.92 46.256 0.046 6.67 3.09 11.33
3/23/2021 8:30:00 PM 7.88 46.184 0.047 6.67 3.24 11.32
3/23/2021 8:45:00 PM 7.84 46.112 0.047 6.66 3.28 11.32
3/23/2021 9:00:00 PM 7.8 46.04 0.047 6.65 3.2 11.33
3/23/2021 9:15:00 PM 7.75 45.95 0.047 6.65 3.21 11.32
3/23/2021 9:30:00 PM 7.69 45.842 0.047 6.65 3.26 11.34
3/23/2021 9:45:00 PM 7.63 45.734 0.047 6.65 3.28 11.35
3/23/2021 10:00:00 PM 7.57 45.626 0.047 6.64 3.27 11.36
3/23/2021 10:15:00 PM 7.51 45.518 0.047 6.64 3.23 11.37
3/23/2021 10:30:00 PM 7.45 45.41 0.047 6.63 3.37 11.38
3/23/2021 10:45:00 PM 7.38 45.284 0.047 6.64 3.39 11.41
3/23/2021 11:00:00 PM 7.32 45.176 0.047 6.62 3.54 11.41
3/23/2021 11:15:00 PM 7.25 45.05 0.047 6.63 3.34 11.44
3/23/2021 11:30:00 PM 7.19 44.942 0.047 6.63 3.23 11.45
3/23/2021 11:45:00 PM 7.13 44.834 0.047 6.64 3.25 11.47
3/24/2021 12:00:00 AM 7.07 44.726 0.047 6.62 3.36 11.49
3/24/2021 12:15:00 AM 7.02 44.636 0.047 6.62 3.36 11.5
3/24/2021 12:30:00 AM 6.98 44.564 0.047 6.62 3.3 11.52
3/24/2021 12:45:00 AM 6.94 44.492 0.047 6.62 3.33 11.54
3/24/2021 1:00:00 AM 6.91 44.438 0.047 6.62 3.25 11.55
3/24/2021 1:15:00 AM 6.88 44.384 0.047 6.62 3.37 11.56
3/24/2021 1:30:00 AM 6.84 44.312 0.047 6.61 3.37 11.58
3/24/2021 1:45:00 AM 6.8 44.24 0.048 6.62 3.39 11.58
3/24/2021 2:00:00 AM 6.77 44.186 0.047 6.63 3.29 11.6
3/24/2021 2:15:00 AM 6.74 44.132 0.047 6.61 3.42 11.6
3/24/2021 2:30:00 AM 6.7 44.06 0.047 6.62 3.23 11.61
3/24/2021 2:45:00 AM 6.67 44.006 0.048 6.64 3.12 11.62
3/24/2021 3:00:00 AM 6.65 43.97 0.047 6.64 3.17 11.63
3/24/2021 3:15:00 AM 6.63 43.934 0.048 6.62 3.14 11.64
3/24/2021 3:30:00 AM 6.61 43.898 0.047 6.63 3.24 11.65
3/24/2021 3:45:00 AM 6.6 43.88 0.048 6.65 3.12 11.65
3/24/2021 4:00:00 AM 6.59 43.862 0.047 6.64 3.16 11.66
3/24/2021 4:15:00 AM 6.57 43.826 0.047 6.65 3.14 11.66
3/24/2021 4:30:00 AM 6.56 43.808 0.048 6.64 3.06 11.66
3/24/2021 4:45:00 AM 6.54 43.772 0.047 6.64 3.13 11.67
3/24/2021 5:00:00 AM 6.53 43.754 0.048 6.63 3.09 11.67
3/24/2021 5:15:00 AM 6.51 43.718 0.047 6.63 3.08 11.68
3/24/2021 5:30:00 AM 6.49 43.682 0.047 6.63 3.08 11.68
3/24/2021 5:45:00 AM 6.47 43.646 0.048 6.64 3.02 11.69
3/24/2021 6:00:00 AM 6.46 43.628 0.048 6.64 3.11 11.69
3/24/2021 6:15:00 AM 6.44 43.592 0.048 6.63 3.07 11.7
3/24/2021 6:30:00 AM 6.43 43.574 0.048 6.64 3.02 11.7
3/24/2021 6:45:00 AM 6.43 43.574 0.048 6.63 2.92 11.7
3/24/2021 7:00:00 AM 6.41 43.538 0.047 6.62 2.91 11.71
3/24/2021 7:15:00 AM 6.4 43.52 0.048 6.6 3 11.71
3/24/2021 7:30:00 AM 6.39 43.502 0.047 6.61 2.86 11.71
3/24/2021 7:45:00 AM 6.39 43.502 0.047 6.62 2.96 11.71
3/24/2021 8:00:00 AM 6.4 43.52 0.053 6.61 3.08 11.73
3/24/2021 8:15:00 AM 6.4 43.52 0.049 6.65 3.03 11.75
3/24/2021 8:30:00 AM 6.41 43.538 0.048 6.63 3.05 11.76
3/24/2021 8:45:00 AM 6.42 43.556 0.048 6.63 2.86 11.79
3/24/2021 9:00:00 AM 6.43 43.574 0.048 6.67 3.01 11.82
3/24/2021 9:15:00 AM 6.46 43.628 0.048 6.66 3.03 11.86
3/24/2021 9:30:00 AM 6.48 43.664 0.047 6.67 3.11 11.9
3/24/2021 9:45:00 AM 6.51 43.718 0.047 6.68 2.97 11.92
3/24/2021 10:00:00 AM 6.54 43.772 0.047 6.7 2.96 11.94
3/24/2021 10:15:00 AM 6.59 43.862 0.047 6.72 2.94 11.95
3/24/2021 10:30:00 AM 6.63 43.934 0.047 6.72 3.04 11.96
3/24/2021 10:45:00 AM 6.67 44.006 0.047 6.74 3 11.96
3/24/2021 11:00:00 AM 6.72 44.096 0.047 6.75 3.17 11.96
3/24/2021 11:15:00 AM 6.79 44.222 0.047 6.75 3.2 11.97
3/24/2021 11:30:00 AM 6.86 44.348 0.047 6.77 3.44 11.96
3/24/2021 11:45:00 AM 6.95 44.51 0.047 6.79 3.44 11.95
3/24/2021 12:00:00 PM 7.02 44.636 0.047 6.79 3.42 11.95
3/24/2021 12:15:00 PM 7.07 44.726 0.047 6.79 3.46 11.93
3/24/2021 12:30:00 PM 7.14 44.852 0.048 6.8 3.48 11.92
3/24/2021 12:45:00 PM 7.21 44.978 0.048 6.8 3.61 11.91
3/24/2021 1:00:00 PM 7.25 45.05 0.048 6.82 3.72 11.89
3/24/2021 1:15:00 PM 7.32 45.176 0.048 6.81 3.73 11.88
3/24/2021 1:30:00 PM 7.38 45.284 0.048 6.82 3.97 11.86
3/24/2021 1:45:00 PM 7.45 45.41 0.048 6.83 4.08 11.84
3/24/2021 2:00:00 PM 7.53 45.554 0.048 6.83 4.13 11.82
3/24/2021 2:15:00 PM 7.62 45.716 0.048 6.82 4.44 11.79
3/24/2021 2:30:00 PM 7.72 45.896 0.048 6.84 4.4 11.77
3/24/2021 2:45:00 PM 7.86 46.148 0.048 6.85 4.33 11.74
3/24/2021 3:00:00 PM 8 46.4 0.048 6.86 4.2 11.71
3/24/2021 3:15:00 PM 8.16 46.688 0.048 6.88 4.15 11.69
3/24/2021 3:30:00 PM 8.33 46.994 0.048 6.89 4.09 11.65
3/24/2021 3:45:00 PM 8.45 47.21 0.048 6.87 4 11.62
3/24/2021 4:00:00 PM 8.56 47.408 0.048 6.88 4.02 11.58
3/24/2021 4:15:00 PM 8.65 47.57 0.048 6.87 3.91 11.54
3/24/2021 4:30:00 PM 8.8 47.84 0.048 6.91 3.76 11.52
3/24/2021 4:45:00 PM 8.92 48.056 0.048 6.89 3.74 11.48
3/24/2021 5:00:00 PM 8.95 48.11 0.048 6.87 3.64 11.45
3/24/2021 5:15:00 PM 8.94 48.092 0.048 6.85 3.65 11.43
3/24/2021 5:30:00 PM 8.94 48.092 0.048 6.86 3.47 11.4
3/24/2021 5:45:00 PM 8.96 48.128 0.048 6.84 3.4 11.38
3/24/2021 6:00:00 PM 9.01 48.218 0.048 6.86 3.34 11.35
3/24/2021 6:15:00 PM 9.06 48.308 0.048 6.85 3.34 11.3
3/24/2021 6:30:00 PM 9.12 48.416 0.048 6.84 3.4 11.24
3/24/2021 6:45:00 PM 9.17 48.506 0.048 6.83 3.27 11.17
3/24/2021 7:00:00 PM 9.2 48.56 0.048 6.81 3.27 11.1
3/24/2021 7:15:00 PM 9.21 48.578 0.048 6.78 3.41 11.04
3/24/2021 7:30:00 PM 9.18 48.524 0.048 6.75 3.24 11.01
3/24/2021 7:45:00 PM 9.13 48.434 0.049 6.74 3.27 10.98
3/24/2021 8:00:00 PM 9.07 48.326 0.049 6.72 3.38 10.96
3/24/2021 8:15:00 PM 9 48.2 0.049 6.71 3.44 10.96
3/24/2021 8:30:00 PM 8.94 48.092 0.049 6.7 3.29 10.97
3/24/2021 8:45:00 PM 8.89 48.002 0.049 6.72 3.26 10.97
3/24/2021 9:00:00 PM 8.84 47.912 0.049 6.71 3.21 10.98
3/24/2021 9:15:00 PM 8.8 47.84 0.049 6.7 3.26 10.98
3/24/2021 9:30:00 PM 8.77 47.786 0.049 6.7 3.29 10.99
3/24/2021 9:45:00 PM 8.74 47.732 0.049 6.7 3.34 10.99
3/24/2021 10:00:00 PM 8.71 47.678 0.049 6.7 3.34 11
3/24/2021 10:15:00 PM 8.68 47.624 0.049 6.7 3.14 11.01
3/24/2021 10:30:00 PM 8.65 47.57 0.049 6.7 3.33 11.02
3/24/2021 10:45:00 PM 8.63 47.534 0.049 6.7 3.28 11.02
3/24/2021 11:00:00 PM 8.61 47.498 0.049 6.69 3.31 11.03
3/24/2021 11:15:00 PM 8.59 47.462 0.049 6.69 3.22 11.04
3/24/2021 11:30:00 PM 8.57 47.426 0.049 6.69 3.3 11.04
3/24/2021 11:45:00 PM 8.54 47.372 0.049 6.68 3.24 11.05
3/25/2021 12:00:00 AM 8.52 47.336 0.049 6.69 3.24 11.06
3/25/2021 12:15:00 AM 8.49 47.282 0.049 6.7 3.26 11.07
3/25/2021 12:30:00 AM 8.46 47.228 0.049 6.69 3.18 11.07
3/25/2021 12:45:00 AM 8.44 47.192 0.049 6.68 3.36 11.08
3/25/2021 1:00:00 AM 8.41 47.138 0.049 6.68 3.18 11.08
3/25/2021 1:15:00 AM 8.39 47.102 0.049 6.67 3.33 11.09
3/25/2021 1:30:00 AM 8.37 47.066 0.049 6.68 3.26 11.1
3/25/2021 1:45:00 AM 8.34 47.012 0.049 6.69 3.14 11.11
3/25/2021 2:00:00 AM 8.31 46.958 0.049 6.68 3.23 11.11
3/25/2021 2:15:00 AM 8.28 46.904 0.049 6.69 3.24 11.12
3/25/2021 2:30:00 AM 8.26 46.868 0.049 6.67 3.25 11.13
3/25/2021 2:45:00 AM 8.23 46.814 0.049 6.66 3.32 11.13
3/25/2021 3:00:00 AM 8.2 46.76 0.049 6.67 3.24 11.14
3/25/2021 3:15:00 AM 8.17 46.706 0.049 6.65 3.26 11.14
3/25/2021 3:30:00 AM 8.14 46.652 0.049 6.65 3.16 11.15
3/25/2021 3:45:00 AM 8.12 46.616 0.049 6.65 3.15 11.17
3/25/2021 4:00:00 AM 8.09 46.562 0.049 6.65 3.26 11.17
3/25/2021 4:15:00 AM 8.06 46.508 0.049 6.64 3.17 11.18
3/25/2021 4:30:00 AM 8.03 46.454 0.049 6.64 3.17 11.19
3/25/2021 4:45:00 AM 8 46.4 0.049 6.63 3.15 11.2
3/25/2021 5:00:00 AM 7.97 46.346 0.049 6.64 3.24 11.2
3/25/2021 5:15:00 AM 7.94 46.292 0.049 6.66 3.16 11.21
3/25/2021 5:30:00 AM 7.92 46.256 0.049 6.63 3.14 11.22
3/25/2021 5:45:00 AM 7.89 46.202 0.049 6.63 3.27 11.23
3/25/2021 6:00:00 AM 7.86 46.148 0.049 6.64 3.2 11.24
3/25/2021 6:15:00 AM 7.83 46.094 0.049 6.63 3.32 11.24
3/25/2021 6:30:00 AM 7.81 46.058 0.049 6.64 3.18 11.26
3/25/2021 6:45:00 AM 7.78 46.004 0.049 6.64 3.27 11.26
3/25/2021 7:00:00 AM 7.75 45.95 0.049 6.63 3.28 11.28
3/25/2021 7:15:00 AM 7.72 45.896 0.049 6.63 3.17 11.29
3/25/2021 7:30:00 AM 7.7 45.86 0.049 6.64 3.28 11.31
3/25/2021 7:45:00 AM 7.69 45.842 0.049 6.63 3.19 11.35
3/25/2021 8:00:00 AM 7.67 45.806 0.049 6.64 3.29 11.38
3/25/2021 8:15:00 AM 7.66 45.788 0.049 6.66 3.12 11.43
3/25/2021 8:30:00 AM 7.68 45.824 0.048 6.68 3.07 11.49
3/25/2021 8:45:00 AM 7.69 45.842 0.048 6.69 3.1 11.54
3/25/2021 9:00:00 AM 7.72 45.896 0.048 6.71 3.05 11.58
3/25/2021 9:15:00 AM 7.76 45.968 0.048 6.74 3.01 11.61
3/25/2021 9:30:00 AM 7.82 46.076 0.048 6.76 3.06 11.65
3/25/2021 9:45:00 AM 7.89 46.202 0.048 6.78 3.02 11.66
3/25/2021 10:00:00 AM 7.97 46.346 0.048 6.81 2.95 11.68
3/25/2021 10:15:00 AM 8.09 46.562 0.048 6.82 2.96 11.68
3/25/2021 10:30:00 AM 8.21 46.778 0.048 6.84 2.98 11.67
3/25/2021 10:45:00 AM 8.34 47.012 0.048 6.86 2.93 11.67
3/25/2021 11:00:00 AM 8.5 47.3 0.048 6.88 2.92 11.64
3/25/2021 11:15:00 AM 8.68 47.624 0.048 6.9 2.95 11.62
3/25/2021 11:30:00 AM 8.86 47.948 0.048 6.92 2.92 11.58
3/25/2021 11:45:00 AM 9.08 48.344 0.048 6.92 2.91 11.54
3/25/2021 12:00:00 PM 9.31 48.758 0.048 6.93 2.86 11.5
3/25/2021 12:15:00 PM 9.53 49.154 0.047 6.94 2.99 11.45
3/25/2021 12:30:00 PM 9.76 49.568 0.047 6.95 2.84 11.4
3/25/2021 12:45:00 PM 10 50 0.047 6.96 2.88 11.36
3/25/2021 1:00:00 PM 10.21 50.378 0.047 6.96 2.82 11.3
3/25/2021 1:15:00 PM 10.42 50.756 0.047 6.96 2.94 11.25
3/25/2021 1:30:00 PM 10.6 51.08 0.047 6.97 2.89 11.2
3/25/2021 1:45:00 PM 10.8 51.44 0.047 6.98 3.02 11.14
3/25/2021 2:00:00 PM 10.98 51.764 0.047 6.98 2.85 11.09
3/25/2021 2:15:00 PM 11.15 52.07 0.047 6.99 2.87 11.05
3/25/2021 2:30:00 PM 11.31 52.358 0.047 6.98 2.86 11
3/25/2021 2:45:00 PM 11.46 52.628 0.047 6.99 2.93 10.95
3/25/2021 3:00:00 PM 11.58 52.844 0.047 6.99 2.95 10.91
3/25/2021 3:15:00 PM 11.68 53.024 0.047 6.98 2.97 10.86
3/25/2021 3:30:00 PM 11.72 53.096 0.047 6.97 2.89 10.83
3/25/2021 3:45:00 PM 11.77 53.186 0.047 6.96 3.04 10.8
3/25/2021 4:00:00 PM 11.8 53.24 0.047 6.96 3.02 10.76
3/25/2021 4:15:00 PM 11.8 53.24 0.047 6.95 3.09 10.74
3/25/2021 4:30:00 PM 11.81 53.258 0.047 6.95 3.04 10.72
3/25/2021 4:45:00 PM 11.8 53.24 0.047 6.93 3 10.7
3/25/2021 5:00:00 PM 11.79 53.222 0.047 6.92 3.09 10.69
3/25/2021 5:15:00 PM 11.77 53.186 0.047 6.92 3.13 10.67
3/25/2021 5:30:00 PM 11.73 53.114 0.047 6.89 3 10.64
3/25/2021 5:45:00 PM 11.69 53.042 0.047 6.89 3.09 10.61
3/25/2021 6:00:00 PM 11.63 52.934 0.047 6.85 3.06 10.58
3/25/2021 6:15:00 PM 11.57 52.826 0.047 6.84 3.08 10.54
3/25/2021 6:30:00 PM 11.5 52.7 0.047 6.83 3.31 10.52
3/25/2021 6:45:00 PM 11.43 52.574 0.047 6.79 3.34 10.48
3/25/2021 7:00:00 PM 11.36 52.448 0.047 6.78 3.28 10.46
3/25/2021 7:15:00 PM 11.29 52.322 0.047 6.77 3.28 10.45
3/25/2021 7:30:00 PM 11.22 52.196 0.047 6.75 3.21 10.42
3/25/2021 7:45:00 PM 11.17 52.106 0.048 6.73 3.33 10.4
3/25/2021 8:00:00 PM 11.11 51.998 0.048 6.73 3.37 10.38
3/25/2021 8:15:00 PM 11.06 51.908 0.048 6.72 3.29 10.38
3/25/2021 8:30:00 PM 11 51.8 0.048 6.72 3.3 10.37
3/25/2021 8:45:00 PM 10.96 51.728 0.048 6.71 3.4 10.37
3/25/2021 9:00:00 PM 10.92 51.656 0.048 6.71 3.35 10.38
3/25/2021 9:15:00 PM 10.88 51.584 0.048 6.72 3.47 10.38
3/25/2021 9:30:00 PM 10.84 51.512 0.048 6.71 3.3 10.39
3/25/2021 9:45:00 PM 10.8 51.44 0.048 6.7 3.35 10.39
3/25/2021 10:00:00 PM 10.76 51.368 0.048 6.69 3.45 10.4
3/25/2021 10:15:00 PM 10.73 51.314 0.048 6.7 3.28 10.41
3/25/2021 10:30:00 PM 10.7 51.26 0.048 6.69 3.46 10.41
3/25/2021 10:45:00 PM 10.66 51.188 0.048 6.69 3.5 10.42
3/25/2021 11:00:00 PM 10.63 51.134 0.048 6.68 3.42 10.42
3/25/2021 11:15:00 PM 10.6 51.08 0.048 6.68 3.54 10.43
3/25/2021 11:30:00 PM 10.58 51.044 0.048 6.68 3.32 10.44
3/25/2021 11:45:00 PM 10.55 50.99 0.048 6.69 3.38 10.44
3/26/2021 12:00:00 AM 10.53 50.954 0.048 6.68 3.5 10.45
3/26/2021 12:15:00 AM 10.5 50.9 0.048 6.68 3.39 10.45
3/26/2021 12:30:00 AM 10.48 50.864 0.048 6.68 3.37 10.46
3/26/2021 12:45:00 AM 10.45 50.81 0.048 6.69 3.46 10.46
3/26/2021 1:00:00 AM 10.43 50.774 0.048 6.69 3.39 10.47
3/26/2021 1:15:00 AM 10.4 50.72 0.048 6.7 3.42 10.46
3/26/2021 1:30:00 AM 10.38 50.684 0.048 6.7 3.39 10.48
3/26/2021 1:45:00 AM 10.36 50.648 0.048 6.71 3.34 10.48
3/26/2021 2:00:00 AM 10.33 50.594 0.049 6.71 3.4 10.47
3/26/2021 2:15:00 AM 10.31 50.558 0.048 6.7 3.44 10.49
3/26/2021 2:30:00 AM 10.29 50.522 0.048 6.7 3.38 10.48
3/26/2021 2:45:00 AM 10.26 50.468 0.049 6.7 3.35 10.5
3/26/2021 3:00:00 AM 10.23 50.414 0.048 6.7 3.41 10.5
3/26/2021 3:15:00 AM 10.21 50.378 0.049 6.7 3.32 10.49
3/26/2021 3:30:00 AM 10.18 50.324 0.048 6.69 3.35 10.5
3/26/2021 3:45:00 AM 10.16 50.288 0.049 6.7 3.33 10.51
3/26/2021 4:00:00 AM 10.13 50.234 0.049 6.69 3.37 10.51
3/26/2021 4:15:00 AM 10.11 50.198 0.049 6.7 3.31 10.51
3/26/2021 4:30:00 AM 10.08 50.144 0.049 6.69 3.35 10.51
3/26/2021 4:45:00 AM 10.05 50.09 0.049 6.68 3.31 10.52
3/26/2021 5:00:00 AM 10.01 50.018 0.049 6.68 3.3 10.51
3/26/2021 5:15:00 AM 9.97 49.946 0.049 6.68 3.26 10.52
3/26/2021 5:30:00 AM 9.94 49.892 0.049 6.69 3.35 10.54
3/26/2021 5:45:00 AM 9.93 49.874 0.049 6.69 3.47 10.53
3/26/2021 6:00:00 AM 9.92 49.856 0.048 6.71 3.33 10.53
3/26/2021 6:15:00 AM 9.9 49.82 0.048 6.71 3.36 10.53
3/26/2021 6:30:00 AM 9.87 49.766 0.049 6.7 3.26 10.55
3/26/2021 6:45:00 AM 9.83 49.694 0.049 6.69 3.37 10.54
3/26/2021 7:00:00 AM 9.8 49.64 0.048 6.69 3.48 10.56
3/26/2021 7:15:00 AM 9.76 49.568 0.049 6.7 3.37 10.57
3/26/2021 7:30:00 AM 9.73 49.514 0.048 6.69 3.47 10.59
3/26/2021 7:45:00 AM 9.72 49.496 0.048 6.7 3.36 10.62
3/26/2021 8:00:00 AM 9.71 49.478 0.048 6.71 3.41 10.66
3/26/2021 8:15:00 AM 9.72 49.496 0.048 6.73 3.47 10.72
3/26/2021 8:30:00 AM 9.74 49.532 0.048 6.77 3.33 10.74
3/26/2021 8:45:00 AM 9.76 49.568 0.048 6.77 3.37 10.78
3/26/2021 9:00:00 AM 9.8 49.64 0.048 6.79 3.28 10.84
3/26/2021 9:15:00 AM 9.82 49.676 0.048 6.8 3.41 10.84
3/26/2021 9:30:00 AM 9.83 49.694 0.048 6.81 3.51 10.82
3/26/2021 9:45:00 AM 9.86 49.748 0.048 6.82 3.56 10.86
3/26/2021 10:00:00 AM 9.95 49.91 0.048 6.85 3.59 10.91
3/26/2021 10:15:00 AM 10 50 0.048 6.86 3.72 10.92
3/26/2021 10:30:00 AM 10.01 50.018 0.048 6.85 3.86 10.94
3/26/2021 10:45:00 AM 10.01 50.018 0.048 6.88 3.91 10.91
3/26/2021 11:00:00 AM 10.01 50.018 0.048 6.86 4.36 10.87
3/26/2021 11:15:00 AM 10.01 50.018 0.048 6.87 4.38 10.9
3/26/2021 11:30:00 AM 10.02 50.036 0.048 6.86 4.94 10.93
3/26/2021 11:45:00 AM 10.01 50.018 0.048 6.87 4.94 10.9
3/26/2021 12:00:00 PM 9.99 49.982 0.049 6.86 5.09 10.88
3/26/2021 12:15:00 PM 9.98 49.964 0.048 6.83 5.23 10.89
3/26/2021 12:30:00 PM 9.99 49.982 0.048 6.84 5.23 10.92
3/26/2021 12:45:00 PM 10.05 50.09 0.048 6.88 4.9 10.97
3/26/2021 1:00:00 PM 10.13 50.234 0.048 6.91 4.88 11
3/26/2021 1:15:00 PM 10.18 50.324 0.048 6.91 4.52 11
3/26/2021 1:30:00 PM 10.21 50.378 0.048 6.92 4.52 11.02
3/26/2021 1:45:00 PM 10.26 50.468 0.048 6.92 4.32 11.02
3/26/2021 2:00:00 PM 10.24 50.432 0.048 6.91 4.25 11
3/26/2021 2:15:00 PM 10.24 50.432 0.048 6.91 4.22 11.02
3/26/2021 2:30:00 PM 10.24 50.432 0.048 6.92 4.04 11.03
3/26/2021 2:45:00 PM 10.23 50.414 0.048 6.93 3.95 11.04
3/26/2021 3:00:00 PM 10.19 50.342 0.048 6.92 3.93 11.03
3/26/2021 3:15:00 PM 10.18 50.324 0.048 6.92 3.91 11.03
3/26/2021 3:30:00 PM 10.14 50.252 0.048 6.92 3.73 11.03
3/26/2021 3:45:00 PM 10.1 50.18 0.049 6.91 3.77 11.01
3/26/2021 4:00:00 PM 10.06 50.108 0.049 6.91 3.76 11.02
3/26/2021 4:15:00 PM 10.04 50.072 0.048 6.91 3.68 11.04
3/26/2021 4:30:00 PM 10.02 50.036 0.048 6.92 3.54 11.05
3/26/2021 4:45:00 PM 10 50 0.049 6.92 3.72 11.07
3/26/2021 5:00:00 PM 9.95 49.91 0.048 6.92 3.55 11.07
3/26/2021 5:15:00 PM 9.91 49.838 0.049 6.9 3.6 11.05
3/26/2021 5:30:00 PM 9.84 49.712 0.048 6.88 3.49 11.05
3/26/2021 5:45:00 PM 9.78 49.604 0.049 6.88 3.52 11.04
3/26/2021 6:00:00 PM 9.72 49.496 0.049 6.86 3.45 11.03
3/26/2021 6:15:00 PM 9.65 49.37 0.049 6.85 3.51 11.03
3/26/2021 6:30:00 PM 9.58 49.244 0.049 6.84 3.47 11.02
3/26/2021 6:45:00 PM 9.51 49.118 0.049 6.82 3.45 11.01
3/26/2021 7:00:00 PM 9.43 48.974 0.049 6.82 3.48 11
3/26/2021 7:15:00 PM 9.35 48.83 0.049 6.81 3.69 10.98
3/26/2021 7:30:00 PM 9.28 48.704 0.049 6.78 3.48 10.97
3/26/2021 7:45:00 PM 9.21 48.578 0.049 6.77 3.49 10.95
3/26/2021 8:00:00 PM 9.14 48.452 0.049 6.76 3.43 10.94
3/26/2021 8:15:00 PM 9.07 48.326 0.049 6.74 3.56 10.95
3/26/2021 8:30:00 PM 9 48.2 0.049 6.7 3.58 10.95
3/26/2021 8:45:00 PM 8.93 48.074 0.049 6.73 3.32 10.95
3/26/2021 9:00:00 PM 8.87 47.966 0.049 6.73 3.3 10.97
3/26/2021 9:15:00 PM 8.81 47.858 0.05 6.71 3.33 10.98
3/26/2021 9:30:00 PM 8.75 47.75 0.049 6.71 3.38 11
3/26/2021 9:45:00 PM 8.7 47.66 0.05 6.71 3.39 11.01
3/26/2021 10:00:00 PM 8.65 47.57 0.05 6.71 3.47 11.03
3/26/2021 10:15:00 PM 8.6 47.48 0.05 6.69 3.5 11.05
3/26/2021 10:30:00 PM 8.55 47.39 0.049 6.71 3.3 11.06
3/26/2021 10:45:00 PM 8.5 47.3 0.05 6.7 3.52 11.07
3/26/2021 11:00:00 PM 8.46 47.228 0.05 6.7 3.36 11.09
3/26/2021 11:15:00 PM 8.41 47.138 0.049 6.71 3.47 11.1
3/26/2021 11:30:00 PM 8.37 47.066 0.049 6.7 3.38 11.11
3/26/2021 11:45:00 PM 8.33 46.994 0.05 6.7 3.46 11.12
3/27/2021 12:00:00 AM 8.29 46.922 0.05 6.68 3.42 11.13
3/27/2021 12:15:00 AM 8.26 46.868 0.05 6.7 3.34 11.14
3/27/2021 12:30:00 AM 8.22 46.796 0.049 6.7 3.35 11.15
3/27/2021 12:45:00 AM 8.18 46.724 0.05 6.66 3.33 11.16
3/27/2021 1:00:00 AM 8.15 46.67 0.05 6.71 3.24 11.17
3/27/2021 1:15:00 AM 8.11 46.598 0.049 6.68 3.38 11.18
3/27/2021 1:30:00 AM 8.08 46.544 0.05 6.69 3.19 11.19
3/27/2021 1:45:00 AM 8.05 46.49 0.05 6.71 3.24 11.2
3/27/2021 2:00:00 AM 8.02 46.436 0.05 6.7 3.16 11.21
3/27/2021 2:15:00 AM 7.99 46.382 0.049 6.7 3.36 11.22
3/27/2021 2:30:00 AM 7.96 46.328 0.05 6.69 3.28 11.23
3/27/2021 2:45:00 AM 7.93 46.274 0.05 6.69 3.21 11.23
3/27/2021 3:00:00 AM 7.9 46.22 0.05 6.7 3.24 11.24
3/27/2021 3:15:00 AM 7.87 46.166 0.05 6.7 3.27 11.25
3/27/2021 3:30:00 AM 7.85 46.13 0.05 6.69 3.3 11.25
3/27/2021 3:45:00 AM 7.82 46.076 0.05 6.7 3.4 11.26
3/27/2021 4:00:00 AM 7.8 46.04 0.05 6.69 3.41 11.26
3/27/2021 4:15:00 AM 7.78 46.004 0.05 6.69 3.3 11.28
3/27/2021 4:30:00 AM 7.75 45.95 0.05 6.69 3.2 11.29
3/27/2021 4:45:00 AM 7.73 45.914 0.05 6.69 3.2 11.29
3/27/2021 5:00:00 AM 7.7 45.86 0.05 6.68 3.24 11.3
3/27/2021 5:15:00 AM 7.67 45.806 0.05 6.69 3.26 11.31
3/27/2021 5:30:00 AM 7.64 45.752 0.05 6.68 3.18 11.31
3/27/2021 5:45:00 AM 7.61 45.698 0.05 6.67 3.45 11.32
3/27/2021 6:00:00 AM 7.58 45.644 0.05 6.68 3.19 11.33
3/27/2021 6:15:00 AM 7.54 45.572 0.05 6.68 3.06 11.34
3/27/2021 6:30:00 AM 7.51 45.518 0.05 6.67 3.14 11.35
3/27/2021 6:45:00 AM 7.48 45.464 0.05 6.68 3.17 11.37
3/27/2021 7:00:00 AM 7.45 45.41 0.05 6.68 3.13 11.38
3/27/2021 7:15:00 AM 7.42 45.356 0.05 6.68 3.12 11.39
3/27/2021 7:30:00 AM 7.41 45.338 0.05 6.68 3.1 11.42
3/27/2021 7:45:00 AM 7.38 45.284 0.05 6.69 2.97 11.46
3/27/2021 8:00:00 AM 7.36 45.248 0.05 6.71 3.08 11.52
3/27/2021 8:15:00 AM 7.36 45.248 0.05 6.72 3.06 11.57
3/27/2021 8:30:00 AM 7.38 45.284 0.049 6.73 2.95 11.63
3/27/2021 8:45:00 AM 7.39 45.302 0.05 6.75 2.98 11.68
3/27/2021 9:00:00 AM 7.41 45.338 0.049 6.77 2.95 11.74
3/27/2021 9:15:00 AM 7.46 45.428 0.049 6.8 3.09 11.77
3/27/2021 9:30:00 AM 7.53 45.554 0.049 6.81 2.93 11.78
3/27/2021 9:45:00 AM 7.59 45.662 0.049 6.84 2.86 11.81
3/27/2021 10:00:00 AM 7.67 45.806 0.049 6.85 2.78 11.82
3/27/2021 10:15:00 AM 7.74 45.932 0.049 6.86 2.79 11.81
3/27/2021 10:30:00 AM 7.81 46.058 0.049 6.88 2.81 11.81
3/27/2021 10:45:00 AM 7.93 46.274 0.049 6.9 2.74 11.81
3/27/2021 11:00:00 AM 8.05 46.49 0.049 6.91 2.84 11.79
3/27/2021 11:15:00 AM 8.13 46.634 0.049 6.92 2.85 11.78
3/27/2021 11:30:00 AM 8.19 46.742 0.049 6.93 2.85 11.76
3/27/2021 11:45:00 AM 8.39 47.102 0.049 6.96 2.62 11.73
3/27/2021 12:00:00 PM 8.67 47.606 0.049 6.98 2.72 11.68
3/27/2021 12:15:00 PM 8.97 48.146 0.049 6.98 2.8 11.63
3/27/2021 12:30:00 PM 9.1 48.38 0.049 6.97 2.8 11.59
3/27/2021 12:45:00 PM 9.27 48.686 0.048 6.99 2.81 11.55
3/27/2021 1:00:00 PM 9.56 49.208 0.049 7.01 2.75 11.49
3/27/2021 1:15:00 PM 9.78 49.604 0.048 7 2.67 11.44
3/27/2021 1:30:00 PM 9.92 49.856 0.048 7.01 2.56 11.39
3/27/2021 1:45:00 PM 10.08 50.144 0.048 7.01 2.77 11.35
3/27/2021 2:00:00 PM 10.22 50.396 0.048 7.01 2.78 11.32
3/27/2021 2:15:00 PM 10.39 50.702 0.048 7.03 2.89 11.27
3/27/2021 2:30:00 PM 10.58 51.044 0.048 7.03 2.85 11.22
3/27/2021 2:45:00 PM 10.75 51.35 0.048 7.03 2.83 11.17
3/27/2021 3:00:00 PM 10.87 51.566 0.048 7.03 2.8 11.12
3/27/2021 3:15:00 PM 10.97 51.746 0.048 7.04 2.8 11.08
3/27/2021 3:30:00 PM 11.09 51.962 0.048 7.04 2.77 11.04
3/27/2021 3:45:00 PM 11.18 52.124 0.048 7.04 2.83 11
3/27/2021 4:00:00 PM 11.26 52.268 0.048 7.04 2.74 10.96
3/27/2021 4:15:00 PM 11.33 52.394 0.048 7.03 2.86 10.93
3/27/2021 4:30:00 PM 11.37 52.466 0.048 7.03 2.87 10.91
3/27/2021 4:45:00 PM 11.41 52.538 0.048 7.03 3.04 10.89
3/27/2021 5:00:00 PM 11.46 52.628 0.048 7.02 3.02 10.87
3/27/2021 5:15:00 PM 11.49 52.682 0.048 7.01 3 10.84
3/27/2021 5:30:00 PM 11.5 52.7 0.048 6.99 2.96 10.82
3/27/2021 5:45:00 PM 11.48 52.664 0.048 6.98 2.88 10.8
3/27/2021 6:00:00 PM 11.43 52.574 0.048 6.97 2.82 10.77
3/27/2021 6:15:00 PM 11.35 52.43 0.048 6.96 2.78 10.74
3/27/2021 6:30:00 PM 11.25 52.25 0.048 6.93 2.89 10.7
3/27/2021 6:45:00 PM 11.17 52.106 0.048 6.91 2.88 10.67
3/27/2021 7:00:00 PM 11.07 51.926 0.048 6.9 2.96 10.63
3/27/2021 7:15:00 PM 10.97 51.746 0.049 6.86 3.08 10.6
3/27/2021 7:30:00 PM 10.86 51.548 0.049 6.83 3.08 10.57
3/27/2021 7:45:00 PM 10.75 51.35 0.049 6.82 3.06 10.54
3/27/2021 8:00:00 PM 10.63 51.134 0.049 6.79 2.99 10.53
3/27/2021 8:15:00 PM 10.53 50.954 0.049 6.77 3.05 10.52
3/27/2021 8:30:00 PM 10.42 50.756 0.049 6.76 3.06 10.52
3/27/2021 8:45:00 PM 10.32 50.576 0.049 6.74 3.22 10.54
3/27/2021 9:00:00 PM 10.22 50.396 0.049 6.74 3.14 10.53
3/27/2021 9:15:00 PM 10.11 50.198 0.049 6.73 3 10.57
3/27/2021 9:30:00 PM 10 50 0.049 6.7 3.11 10.59
3/27/2021 9:45:00 PM 9.88 49.784 0.049 6.7 3.11 10.61
3/27/2021 10:00:00 PM 9.76 49.568 0.05 6.71 3.08 10.64
3/27/2021 10:15:00 PM 9.65 49.37 0.05 6.7 3.1 10.66
3/27/2021 10:30:00 PM 9.55 49.19 0.05 6.69 3.31 10.69
3/27/2021 10:45:00 PM 9.45 49.01 0.05 6.7 3.21 10.71
3/27/2021 11:00:00 PM 9.35 48.83 0.05 6.69 3.38 10.74
3/27/2021 11:15:00 PM 9.26 48.668 0.05 6.7 3.27 10.76
3/27/2021 11:30:00 PM 9.17 48.506 0.05 6.69 3.24 10.78
3/27/2021 11:45:00 PM 9.08 48.344 0.05 6.7 3.23 10.8
3/28/2021 12:00:00 AM 8.99 48.182 0.05 6.69 3.23 10.82
3/28/2021 12:15:00 AM 8.9 48.02 0.05 6.69 3.19 10.85
3/28/2021 12:30:00 AM 8.8 47.84 0.05 6.7 3.04 10.87
3/28/2021 12:45:00 AM 8.72 47.696 0.05 6.69 3.07 10.89
3/28/2021 1:00:00 AM 8.63 47.534 0.05 6.69 3.11 10.91
3/28/2021 1:15:00 AM 8.54 47.372 0.05 6.69 3.07 10.93
3/28/2021 1:30:00 AM 8.45 47.21 0.05 6.69 3.06 10.96
3/28/2021 1:45:00 AM 8.37 47.066 0.05 6.68 3.11 10.98
3/28/2021 2:00:00 AM 8.28 46.904 0.05 6.69 3.01 11
3/28/2021 2:15:00 AM 8.2 46.76 0.05 6.68 3.05 11.02
3/28/2021 2:30:00 AM 8.12 46.616 0.05 6.69 3.02 11.04
3/28/2021 2:45:00 AM 8.04 46.472 0.05 6.69 3.08 11.06
3/28/2021 3:00:00 AM 7.96 46.328 0.05 6.7 3.04 11.09
3/28/2021 3:15:00 AM 7.88 46.184 0.05 6.69 3 11.11
3/28/2021 3:30:00 AM 7.8 46.04 0.05 6.69 2.96 11.13
3/28/2021 3:45:00 AM 7.72 45.896 0.05 6.68 3.1 11.15
3/28/2021 4:00:00 AM 7.65 45.77 0.05 6.69 3.19 11.17
3/28/2021 4:15:00 AM 7.59 45.662 0.05 6.69 3.05 11.18
3/28/2021 4:30:00 AM 7.52 45.536 0.05 6.69 3.09 11.19
3/28/2021 4:45:00 AM 7.46 45.428 0.05 6.69 3.05 11.21
3/28/2021 5:00:00 AM 7.41 45.338 0.05 6.69 3.08 11.23
3/28/2021 5:15:00 AM 7.36 45.248 0.05 6.69 2.99 11.25
3/28/2021 5:30:00 AM 7.32 45.176 0.05 6.69 2.98 11.26
3/28/2021 5:45:00 AM 7.28 45.104 0.05 6.7 2.92 11.27
3/28/2021 6:00:00 AM 7.25 45.05 0.05 6.7 2.87 11.28
3/28/2021 6:15:00 AM 7.22 44.996 0.05 6.7 2.91 11.29
3/28/2021 6:30:00 AM 7.19 44.942 0.05 6.7 2.99 11.3
3/28/2021 6:45:00 AM 7.17 44.906 0.05 6.7 3.02 11.31
3/28/2021 7:00:00 AM 7.15 44.87 0.05 6.7 2.84 11.31
3/28/2021 7:15:00 AM 7.13 44.834 0.05 6.7 2.8 11.32
3/28/2021 7:30:00 AM 7.11 44.798 0.05 6.71 2.87 11.33
3/28/2021 7:45:00 AM 7.1 44.78 0.05 6.71 2.96 11.34
3/28/2021 8:00:00 AM 7.09 44.762 0.05 6.71 3.1 11.36
3/28/2021 8:15:00 AM 7.08 44.744 0.05 6.71 2.97 11.37
3/28/2021 8:30:00 AM 7.08 44.744 0.05 6.73 2.85 11.39
3/28/2021 8:45:00 AM 7.08 44.744 0.05 6.73 2.84 11.42
3/28/2021 9:00:00 AM 7.1 44.78 0.053 6.74 2.89 11.43
3/28/2021 9:15:00 AM 7.12 44.816 0.052 6.75 2.84 11.44
3/28/2021 9:30:00 AM 7.15 44.87 0.051 6.75 2.78 11.45
3/28/2021 9:45:00 AM 7.18 44.924 0.05 6.77 2.8 11.46
3/28/2021 10:00:00 AM 7.23 45.014 0.051 6.78 2.77 11.48
3/28/2021 10:15:00 AM 7.28 45.104 0.051 6.79 2.81 11.5
3/28/2021 10:30:00 AM 7.34 45.212 0.05 6.81 2.86 11.52
3/28/2021 10:45:00 AM 7.41 45.338 0.05 6.83 2.83 11.54
3/28/2021 11:00:00 AM 7.49 45.482 0.05 6.85 2.7 11.57
3/28/2021 11:15:00 AM 7.56 45.608 0.05 6.86 2.7 11.56
3/28/2021 11:30:00 AM 7.63 45.734 0.05 6.87 2.63 11.53
3/28/2021 11:45:00 AM 7.71 45.878 0.05 6.88 2.7 11.54
3/28/2021 12:00:00 PM 7.79 46.022 0.05 6.9 2.69 11.54
3/28/2021 12:15:00 PM 7.86 46.148 0.05 6.9 2.68 11.52
3/28/2021 12:30:00 PM 7.93 46.274 0.05 6.92 2.8 11.51
3/28/2021 12:45:00 PM 8.04 46.472 0.05 6.94 2.79 11.52
3/28/2021 1:00:00 PM 8.14 46.652 0.051 6.94 2.73 11.49
3/28/2021 1:15:00 PM 8.22 46.796 0.05 6.95 2.88 11.46
3/28/2021 1:30:00 PM 8.3 46.94 0.05 6.95 2.9 11.44
3/28/2021 1:45:00 PM 8.38 47.084 0.052 6.95 3.26 11.39
3/28/2021 2:00:00 PM 8.45 47.21 0.05 6.94 3.14 11.35
3/28/2021 2:15:00 PM 8.49 47.282 0.05 6.94 3.04 11.33
3/28/2021 2:30:00 PM 8.53 47.354 0.05 6.94 3.2 11.32
3/28/2021 2:45:00 PM 8.55 47.39 0.05 6.93 3.37 11.28
3/28/2021 3:00:00 PM 8.63 47.534 0.05 6.95 3.2 11.28
3/28/2021 3:15:00 PM 8.66 47.588 0.05 6.93 3.22 11.25
3/28/2021 3:30:00 PM 8.68 47.624 0.053 6.94 3.82 11.23
3/28/2021 3:45:00 PM 8.69 47.642 0.051 6.92 3.61 11.2
3/28/2021 4:00:00 PM 8.7 47.66 0.051 6.92 3.85 11.18
3/28/2021 4:15:00 PM 8.7 47.66 0.051 6.91 4.23 11.16
3/28/2021 4:30:00 PM 8.73 47.714 0.051 6.92 5.18 11.18
3/28/2021 4:45:00 PM 8.76 47.768 0.051 6.92 5.48 11.19
3/28/2021 5:00:00 PM 8.74 47.732 0.051 6.9 5.26 11.15
3/28/2021 5:15:00 PM 8.74 47.732 0.052 6.9 5.53 11.12
3/28/2021 5:30:00 PM 8.77 47.786 0.052 6.91 5.82 11.15
3/28/2021 5:45:00 PM 8.78 47.804 0.053 6.91 5.96 11.13
3/28/2021 6:00:00 PM 8.77 47.786 0.053 6.9 6.71 11.13
3/28/2021 6:15:00 PM 8.77 47.786 0.053 6.91 6.59 11.14
3/28/2021 6:30:00 PM 8.75 47.75 0.054 6.91 6.72 11.13
3/28/2021 6:45:00 PM 8.72 47.696 0.054 6.9 6.67 11.09
3/28/2021 7:00:00 PM 8.68 47.624 0.055 6.88 7.16 11.07
3/28/2021 7:15:00 PM 8.62 47.516 0.056 6.87 8.56 11.04
3/28/2021 7:30:00 PM 8.56 47.408 0.056 6.86 8.66 11.01
3/28/2021 7:45:00 PM 8.49 47.282 0.057 6.84 9.02 10.99
3/28/2021 8:00:00 PM 8.41 47.138 0.057 6.83 8.85 10.98
3/28/2021 8:15:00 PM 8.34 47.012 0.057 6.82 9 10.98
3/28/2021 8:30:00 PM 8.27 46.886 0.057 6.81 8.61 10.99
3/28/2021 8:45:00 PM 8.2 46.76 0.057 6.81 8.01 11
3/28/2021 9:00:00 PM 8.12 46.616 0.057 6.79 7.86 11.02
3/28/2021 9:15:00 PM 8.06 46.508 0.058 6.78 7.69 11.04
3/28/2021 9:30:00 PM 7.99 46.382 0.057 6.78 7.04 11.05
3/28/2021 9:45:00 PM 7.93 46.274 0.057 6.77 7.25 11.07
3/28/2021 10:00:00 PM 7.86 46.148 0.057 6.77 6.91 11.09
3/28/2021 10:15:00 PM 7.79 46.022 0.057 6.77 6.3 11.11
3/28/2021 10:30:00 PM 7.72 45.896 0.057 6.76 6.53 11.14
3/28/2021 10:45:00 PM 7.65 45.77 0.057 6.77 6.43 11.15
3/28/2021 11:00:00 PM 7.58 45.644 0.057 6.75 6.42 11.19
3/28/2021 11:15:00 PM 7.51 45.518 0.057 6.77 6.08 11.21
3/28/2021 11:30:00 PM 7.44 45.392 0.057 6.76 5.88 11.22
3/28/2021 11:45:00 PM 7.35 45.23 0.057 6.75 5.91 11.25
3/29/2021 12:00:00 AM 7.28 45.104 0.057 6.75 5.62 11.27
3/29/2021 12:15:00 AM 7.21 44.978 0.057 6.76 5.62 11.29
3/29/2021 12:30:00 AM 7.13 44.834 0.057 6.77 5.55 11.32
3/29/2021 12:45:00 AM 7.06 44.708 0.057 6.77 5.33 11.34
3/29/2021 1:00:00 AM 6.99 44.582 0.057 6.75 5.27 11.37
3/29/2021 1:15:00 AM 6.92 44.456 0.057 6.75 5.15 11.39
3/29/2021 1:30:00 AM 6.86 44.348 0.057 6.74 4.8 11.41
3/29/2021 1:45:00 AM 6.79 44.222 0.057 6.75 4.83 11.44
3/29/2021 2:00:00 AM 6.68 44.024 0.057 6.74 4.85 11.46
3/29/2021 2:15:00 AM 6.63 43.934 0.057 6.74 4.73 11.48
3/29/2021 2:30:00 AM 6.57 43.826 0.057 6.74 4.69 11.51
3/29/2021 2:45:00 AM 6.51 43.718 0.057 6.74 4.58 11.54
3/29/2021 3:00:00 AM 6.44 43.592 0.057 6.73 4.68 11.55
3/29/2021 3:15:00 AM 6.37 43.466 0.057 6.75 4.65 11.57
3/29/2021 3:30:00 AM 6.3 43.34 0.057 6.74 4.35 11.59
3/29/2021 3:45:00 AM 6.23 43.214 0.057 6.74 4.11 11.63
3/29/2021 4:00:00 AM 6.16 43.088 0.057 6.75 4.4 11.66
3/29/2021 4:15:00 AM 6.1 42.98 0.057 6.73 4.41 11.68
3/29/2021 4:30:00 AM 6.04 42.872 0.057 6.74 4.24 11.7
3/29/2021 4:45:00 AM 5.99 42.782 0.057 6.74 4.17 11.72
3/29/2021 5:00:00 AM 5.93 42.674 0.057 6.73 3.98 11.74
3/29/2021 5:15:00 AM 5.88 42.584 0.057 6.73 4.2 11.76
3/29/2021 5:30:00 AM 5.82 42.476 0.057 6.74 4.16 11.78
3/29/2021 5:45:00 AM 5.77 42.386 0.057 6.74 3.97 11.8
3/29/2021 6:00:00 AM 5.72 42.296 0.057 6.74 3.99 11.82
3/29/2021 6:15:00 AM 5.66 42.188 0.057 6.75 3.76 11.85
3/29/2021 6:30:00 AM 5.59 42.062 0.057 6.74 3.79 11.87
3/29/2021 6:45:00 AM 5.54 41.972 0.057 6.74 3.91 11.89
3/29/2021 7:00:00 AM 5.49 41.882 0.057 6.74 3.94 11.92
3/29/2021 7:15:00 AM 5.45 41.81 0.057 6.74 3.61 11.94
3/29/2021 7:30:00 AM 5.41 41.738 0.057 6.74 3.81 11.96
3/29/2021 7:45:00 AM 5.36 41.648 0.057 6.74 3.68 11.99
3/29/2021 8:00:00 AM 5.32 41.576 0.057 6.76 3.56 12.04
3/29/2021 8:15:00 AM 5.3 41.54 0.057 6.75 3.56 12.09
3/29/2021 8:30:00 AM 5.27 41.486 0.057 6.76 3.56 12.15
3/29/2021 8:45:00 AM 5.24 41.432 0.057 6.78 3.62 12.2
3/29/2021 9:00:00 AM 5.22 41.396 0.057 6.79 3.4 12.26
3/29/2021 9:15:00 AM 5.22 41.396 0.057 6.81 3.36 12.31
3/29/2021 9:30:00 AM 5.22 41.396 0.056 6.82 3.48 12.35
3/29/2021 9:45:00 AM 5.21 41.378 0.056 6.82 3.32 12.38
3/29/2021 10:00:00 AM 5.21 41.378 0.056 6.83 3.24 12.41
3/29/2021 10:15:00 AM 5.22 41.396 0.056 6.85 3.18 12.44
3/29/2021 10:30:00 AM 5.24 41.432 0.056 6.86 3.32 12.46
3/29/2021 10:45:00 AM 5.27 41.486 0.056 6.86 3.31 12.48
3/29/2021 11:00:00 AM 5.32 41.576 0.056 6.88 3.04 12.5
3/29/2021 11:15:00 AM 5.36 41.648 0.056 6.88 3.11 12.51
3/29/2021 11:30:00 AM 5.43 41.774 0.055 6.89 3.01 12.51
3/29/2021 11:45:00 AM 5.5 41.9 0.055 6.9 2.99 12.52
3/29/2021 12:00:00 PM 5.56 42.008 0.055 6.91 3 12.51
3/29/2021 12:15:00 PM 5.64 42.152 0.055 6.92 2.97 12.5
3/29/2021 12:30:00 PM 5.73 42.314 0.055 6.92 2.88 12.49
3/29/2021 12:45:00 PM 5.9 42.62 0.055 6.95 2.85 12.47
3/29/2021 1:00:00 PM 6.04 42.872 0.055 6.95 2.96 12.43
3/29/2021 1:15:00 PM 6.19 43.142 0.055 6.96 2.94 12.39
3/29/2021 1:30:00 PM 6.31 43.358 0.055 6.95 2.81 12.37
3/29/2021 1:45:00 PM 6.48 43.664 0.055 6.97 2.84 12.33
3/29/2021 2:00:00 PM 6.74 44.132 0.055 6.99 2.97 12.29
3/29/2021 2:15:00 PM 6.97 44.546 0.054 6.98 2.9 12.23
3/29/2021 2:30:00 PM 7.22 44.996 0.054 7 2.73 12.17
3/29/2021 2:45:00 PM 7.46 45.428 0.054 7 2.82 12.11
3/29/2021 3:00:00 PM 7.62 45.716 0.054 7 2.88 12.05
3/29/2021 3:15:00 PM 7.75 45.95 0.054 7 2.75 12.01
3/29/2021 3:30:00 PM 7.84 46.112 0.054 6.99 2.93 11.97
3/29/2021 3:45:00 PM 7.93 46.274 0.054 6.99 2.7 11.92
3/29/2021 4:00:00 PM 8.03 46.454 0.054 6.99 2.8 11.87
3/29/2021 4:15:00 PM 8.12 46.616 0.054 6.99 2.79 11.83
3/29/2021 4:30:00 PM 8.2 46.76 0.054 6.99 2.88 11.78
3/29/2021 4:45:00 PM 8.27 46.886 0.054 6.98 2.86 11.74
3/29/2021 5:00:00 PM 8.3 46.94 0.054 6.98 3.13 11.71
3/29/2021 5:15:00 PM 8.31 46.958 0.054 6.96 2.85 11.68
3/29/2021 5:30:00 PM 8.3 46.94 0.054 6.95 2.94 11.66
3/29/2021 5:45:00 PM 8.26 46.868 0.054 6.95 2.91 11.64
3/29/2021 6:00:00 PM 8.21 46.778 0.054 6.94 2.87 11.62
3/29/2021 6:15:00 PM 8.12 46.616 0.054 6.92 2.85 11.61
3/29/2021 6:30:00 PM 8.01 46.418 0.053 6.89 2.77 11.59
3/29/2021 6:45:00 PM 7.91 46.238 0.054 6.9 3.07 11.57
3/29/2021 7:00:00 PM 7.78 46.004 0.054 6.87 2.99 11.56
3/29/2021 7:15:00 PM 7.63 45.734 0.054 6.86 2.9 11.56
3/29/2021 7:30:00 PM 7.48 45.464 0.054 6.84 2.87 11.56
3/29/2021 7:45:00 PM 7.34 45.212 0.054 6.82 3.11 11.55
3/29/2021 8:00:00 PM 7.2 44.96 0.054 6.8 2.93 11.56
3/29/2021 8:15:00 PM 7.06 44.708 0.054 6.78 3.01 11.56
3/29/2021 8:30:00 PM 6.92 44.456 0.054 6.77 3.08 11.58
3/29/2021 8:45:00 PM 6.78 44.204 0.054 6.76 2.92 11.61
3/29/2021 9:00:00 PM 6.64 43.952 0.054 6.75 3 11.64
3/29/2021 9:15:00 PM 6.51 43.718 0.054 6.73 2.93 11.67
3/29/2021 9:30:00 PM 6.37 43.466 0.054 6.72 2.93 11.71
3/29/2021 9:45:00 PM 6.25 43.25 0.054 6.73 2.85 11.74
3/29/2021 10:00:00 PM 6.14 43.052 0.054 6.71 3.04 11.77
3/29/2021 10:15:00 PM 6.05 42.89 0.054 6.73 3.04 11.8
3/29/2021 10:30:00 PM 5.95 42.71 0.054 6.72 3.11 11.82
3/29/2021 10:45:00 PM 5.87 42.566 0.054 6.72 2.83 11.85
3/29/2021 11:00:00 PM 5.79 42.422 0.054 6.72 2.89 11.88
3/29/2021 11:15:00 PM 5.7 42.26 0.054 6.72 2.89 11.9
3/29/2021 11:30:00 PM 5.62 42.116 0.054 6.72 2.9 11.93
3/29/2021 11:45:00 PM 5.54 41.972 0.054 6.72 2.99 11.95
3/30/2021 12:00:00 AM 5.47 41.846 0.054 6.72 3 11.98
3/30/2021 12:15:00 AM 5.39 41.702 0.054 6.71 2.89 12.01
3/30/2021 12:30:00 AM 5.32 41.576 0.054 6.71 2.87 12.03
3/30/2021 12:45:00 AM 5.24 41.432 0.054 6.71 2.87 12.05
3/30/2021 1:00:00 AM 5.17 41.306 0.054 6.7 3.01 12.08
3/30/2021 1:15:00 AM 5.1 41.18 0.054 6.71 2.83 12.11
3/30/2021 1:30:00 AM 5.02 41.036 0.054 6.71 2.86 12.13
3/30/2021 1:45:00 AM 4.96 40.928 0.054 6.72 2.99 12.16
3/30/2021 2:00:00 AM 4.89 40.802 0.054 6.71 2.84 12.18
3/30/2021 2:15:00 AM 4.82 40.676 0.054 6.7 2.88 12.2
3/30/2021 2:30:00 AM 4.75 40.55 0.054 6.7 2.87 12.22
3/30/2021 2:45:00 AM 4.69 40.442 0.054 6.71 2.84 12.25
3/30/2021 3:00:00 AM 4.62 40.316 0.054 6.7 2.78 12.27
3/30/2021 3:15:00 AM 4.55 40.19 0.054 6.71 2.73 12.29
3/30/2021 3:30:00 AM 4.49 40.082 0.054 6.7 2.75 12.31
3/30/2021 3:45:00 AM 4.42 39.956 0.054 6.7 2.8 12.33
3/30/2021 4:00:00 AM 4.36 39.848 0.054 6.71 2.85 12.36
3/30/2021 4:15:00 AM 4.3 39.74 0.054 6.7 2.72 12.38
3/30/2021 4:30:00 AM 4.24 39.632 0.053 6.7 2.8 12.4
3/30/2021 4:45:00 AM 4.17 39.506 0.054 6.7 2.76 12.42
3/30/2021 5:00:00 AM 4.11 39.398 0.054 6.7 2.76 12.44
3/30/2021 5:15:00 AM 4.06 39.308 0.053 6.7 2.78 12.47
3/30/2021 5:30:00 AM 4 39.2 0.053 6.69 3.15 12.49
3/30/2021 5:45:00 AM 3.94 39.092 0.053 6.7 2.73 12.51
3/30/2021 6:00:00 AM 3.88 38.984 0.053 6.69 2.69 12.53
3/30/2021 6:15:00 AM 3.83 38.894 0.053 6.7 2.82 12.55
3/30/2021 6:30:00 AM 3.77 38.786 0.053 6.69 2.66 12.56
3/30/2021 6:45:00 AM 3.71 38.678 0.053 6.68 2.65 12.58
3/30/2021 7:00:00 AM 3.66 38.588 0.053 6.7 2.71 12.6
3/30/2021 7:15:00 AM 3.61 38.498 0.053 6.69 2.61 12.63
3/30/2021 7:30:00 AM 3.57 38.426 0.053 6.7 2.65 12.68
3/30/2021 7:45:00 AM 3.53 38.354 0.053 6.71 2.67 12.73
3/30/2021 8:00:00 AM 3.49 38.282 0.053 6.72 2.62 12.78
3/30/2021 8:15:00 AM 3.47 38.246 0.053 6.73 2.62 12.83
3/30/2021 8:30:00 AM 3.47 38.246 0.053 6.74 2.62 12.88
3/30/2021 8:45:00 AM 3.47 38.246 0.053 6.74 2.63 12.92
3/30/2021 9:00:00 AM 3.5 38.3 0.053 6.75 2.5 12.95
3/30/2021 9:15:00 AM 3.56 38.408 0.053 6.77 2.56 12.97
3/30/2021 9:30:00 AM 3.63 38.534 0.053 6.79 2.62 12.98
3/30/2021 9:45:00 AM 3.72 38.696 0.052 6.81 2.49 12.99
3/30/2021 10:00:00 AM 3.83 38.894 0.052 6.81 2.49 12.99
3/30/2021 10:15:00 AM 3.96 39.128 0.052 6.83 2.49 12.98
3/30/2021 10:30:00 AM 4.12 39.416 0.052 6.84 2.48 12.96
3/30/2021 10:45:00 AM 4.32 39.776 0.052 6.86 2.42 12.92
3/30/2021 11:00:00 AM 4.55 40.19 0.052 6.88 2.4 12.88
3/30/2021 11:15:00 AM 4.8 40.64 0.052 6.89 2.42 12.82
3/30/2021 11:30:00 AM 5.07 41.126 0.052 6.9 2.35 12.76
3/30/2021 11:45:00 AM 5.36 41.648 0.052 6.92 2.39 12.69
3/30/2021 12:00:00 PM 5.67 42.206 0.052 6.93 2.28 12.61
3/30/2021 12:15:00 PM 5.98 42.764 0.052 6.94 2.33 12.53
3/30/2021 12:30:00 PM 6.3 43.34 0.051 6.95 2.3 12.44
3/30/2021 12:45:00 PM 6.65 43.97 0.051 6.95 2.31 12.35
3/30/2021 1:00:00 PM 6.97 44.546 0.051 6.96 2.32 12.26
3/30/2021 1:15:00 PM 7.31 45.158 0.051 6.97 2.44 12.16
3/30/2021 1:30:00 PM 7.62 45.716 0.051 6.98 2.51 12.08
3/30/2021 1:45:00 PM 7.97 46.346 0.051 6.98 2.32 11.96
3/30/2021 2:00:00 PM 8.29 46.922 0.051 6.98 2.4 11.88
3/30/2021 2:15:00 PM 8.59 47.462 0.051 6.99 2.31 11.79
3/30/2021 2:30:00 PM 8.87 47.966 0.051 7 2.4 11.7
3/30/2021 2:45:00 PM 9.13 48.434 0.051 7 2.32 11.62
3/30/2021 3:00:00 PM 9.38 48.884 0.051 7.01 2.4 11.54
3/30/2021 3:15:00 PM 9.61 49.298 0.051 7.01 2.36 11.47
3/30/2021 3:30:00 PM 9.8 49.64 0.051 7.02 2.42 11.4
3/30/2021 3:45:00 PM 9.98 49.964 0.05 7.02 2.35 11.34
3/30/2021 4:00:00 PM 10.09 50.162 0.05 7.01 2.37 11.27
3/30/2021 4:15:00 PM 10.21 50.378 0.05 7.02 2.43 11.23
3/30/2021 4:30:00 PM 10.33 50.594 0.051 7.01 2.39 11.2
3/30/2021 4:45:00 PM 10.4 50.72 0.05 7.01 2.55 11.15
3/30/2021 5:00:00 PM 10.45 50.81 0.05 7.01 2.44 11.13
3/30/2021 5:15:00 PM 10.47 50.846 0.05 7 2.41 11.09
3/30/2021 5:30:00 PM 10.48 50.864 0.05 6.99 2.6 11.06
3/30/2021 5:45:00 PM 10.44 50.792 0.051 6.97 2.71 11.02
3/30/2021 6:00:00 PM 10.39 50.702 0.051 6.96 2.59 11
3/30/2021 6:15:00 PM 10.34 50.612 0.05 6.94 2.57 10.99
3/30/2021 6:30:00 PM 10.25 50.45 0.05 6.94 2.57 10.96
3/30/2021 6:45:00 PM 10.15 50.27 0.05 6.91 2.67 10.95
3/30/2021 7:00:00 PM 10.07 50.126 0.051 6.9 2.65 10.93
3/30/2021 7:15:00 PM 9.95 49.91 0.051 6.89 2.6 10.92
3/30/2021 7:30:00 PM 9.84 49.712 0.051 6.87 2.63 10.9
3/30/2021 7:45:00 PM 9.73 49.514 0.051 6.84 2.6 10.86
3/30/2021 8:00:00 PM 9.62 49.316 0.051 6.83 2.78 10.84
3/30/2021 8:15:00 PM 9.51 49.118 0.051 6.82 2.75 10.83
3/30/2021 8:30:00 PM 9.41 48.938 0.051 6.79 2.87 10.83
3/30/2021 8:45:00 PM 9.31 48.758 0.051 6.79 2.9 10.84
3/30/2021 9:00:00 PM 9.21 48.578 0.051 6.77 2.9 10.85
3/30/2021 9:15:00 PM 9.12 48.416 0.051 6.76 2.83 10.86
3/30/2021 9:30:00 PM 9.04 48.272 0.051 6.76 2.82 10.88
3/30/2021 9:45:00 PM 8.96 48.128 0.051 6.76 2.92 10.91
3/30/2021 10:00:00 PM 8.89 48.002 0.051 6.76 2.91 10.92
3/30/2021 10:15:00 PM 8.83 47.894 0.051 6.76 2.94 10.93
3/30/2021 10:30:00 PM 8.77 47.786 0.051 6.75 2.88 10.95
3/30/2021 10:45:00 PM 8.72 47.696 0.051 6.75 2.91 10.97
3/30/2021 11:00:00 PM 8.66 47.588 0.051 6.75 2.89 10.98
3/30/2021 11:15:00 PM 8.61 47.498 0.051 6.74 3.13 10.99
3/30/2021 11:30:00 PM 8.55 47.39 0.051 6.74 3.01 11
3/30/2021 11:45:00 PM 8.5 47.3 0.051 6.74 2.96 11.02
3/31/2021 12:00:00 AM 8.44 47.192 0.051 6.74 3.03 11.04
3/31/2021 12:15:00 AM 8.38 47.084 0.051 6.75 3.04 11.05
3/31/2021 12:30:00 AM 8.32 46.976 0.051 6.74 3.02 11.06
3/31/2021 12:45:00 AM 8.27 46.886 0.051 6.74 3.02 11.08
3/31/2021 1:00:00 AM 8.23 46.814 0.051 6.75 3.06 11.09
3/31/2021 1:15:00 AM 8.18 46.724 0.051 6.75 2.93 11.11
3/31/2021 1:30:00 AM 8.14 46.652 0.051 6.75 3.03 11.12
3/31/2021 1:45:00 AM 8.1 46.58 0.051 6.74 2.96 11.13
3/31/2021 2:00:00 AM 8.05 46.49 0.051 6.74 2.82 11.15
3/31/2021 2:15:00 AM 8.01 46.418 0.051 6.75 2.95 11.16
3/31/2021 2:30:00 AM 7.96 46.328 0.051 6.74 2.86 11.17
3/31/2021 2:45:00 AM 7.91 46.238 0.051 6.74 2.86 11.19
3/31/2021 3:00:00 AM 7.85 46.13 0.051 6.74 2.94 11.2
3/31/2021 3:15:00 AM 7.8 46.04 0.051 6.74 2.88 11.21
3/31/2021 3:30:00 AM 7.75 45.95 0.051 6.73 2.84 11.22
3/31/2021 3:45:00 AM 7.7 45.86 0.051 6.72 2.95 11.24
3/31/2021 4:00:00 AM 7.65 45.77 0.051 6.73 2.94 11.25
3/31/2021 4:15:00 AM 7.61 45.698 0.051 6.73 2.96 11.26
3/31/2021 4:30:00 AM 7.57 45.626 0.051 6.73 2.92 11.27
3/31/2021 4:45:00 AM 7.53 45.554 0.051 6.71 2.88 11.28
3/31/2021 5:00:00 AM 7.5 45.5 0.051 6.72 2.85 11.28
3/31/2021 5:15:00 AM 7.46 45.428 0.051 6.72 2.82 11.3
3/31/2021 5:30:00 AM 7.43 45.374 0.051 6.72 2.83 11.31
3/31/2021 5:45:00 AM 7.4 45.32 0.051 6.72 2.98 11.32
3/31/2021 6:00:00 AM 7.37 45.266 0.051 6.72 2.84 11.33
3/31/2021 6:15:00 AM 7.34 45.212 0.051 6.73 2.84 11.35
3/31/2021 6:30:00 AM 7.3 45.14 0.051 6.73 2.81 11.35
3/31/2021 6:45:00 AM 7.27 45.086 0.051 6.72 2.85 11.36
3/31/2021 7:00:00 AM 7.25 45.05 0.051 6.72 2.78 11.37
3/31/2021 7:15:00 AM 7.22 44.996 0.051 6.72 2.93 11.38
3/31/2021 7:30:00 AM 7.21 44.978 0.051 6.72 2.8 11.4
3/31/2021 7:45:00 AM 7.19 44.942 0.051 6.73 2.75 11.41
3/31/2021 8:00:00 AM 7.18 44.924 0.051 6.73 2.81 11.43
3/31/2021 8:15:00 AM 7.17 44.906 0.051 6.75 2.78 11.45
3/31/2021 8:30:00 AM 7.16 44.888 0.051 6.74 2.79 11.47
3/31/2021 8:45:00 AM 7.15 44.87 0.051 6.75 2.77 11.5
3/31/2021 9:00:00 AM 7.14 44.852 0.051 6.76 2.7 11.51
3/31/2021 9:15:00 AM 7.14 44.852 0.054 6.76 2.87 11.53
3/31/2021 9:30:00 AM 7.14 44.852 0.052 6.77 3.27 11.55
3/31/2021 9:45:00 AM 7.15 44.87 0.051 6.77 3.14 11.59
3/31/2021 10:00:00 AM 7.17 44.906 0.05 6.79 2.77 11.64
3/31/2021 10:15:00 AM 7.19 44.942 0.05 6.79 2.91 11.67
3/31/2021 10:30:00 AM 7.21 44.978 0.05 6.81 2.83 11.67
3/31/2021 10:45:00 AM 7.23 45.014 0.051 6.82 2.9 11.68
3/31/2021 11:00:00 AM 7.24 45.032 0.05 6.82 2.82 11.68
3/31/2021 11:15:00 AM 7.25 45.05 0.05 6.82 2.81 11.66
3/31/2021 11:30:00 AM 7.27 45.086 0.05 6.84 2.91 11.66
3/31/2021 11:45:00 AM 7.29 45.122 0.05 6.83 2.98 11.66
3/31/2021 12:00:00 PM 7.31 45.158 0.05 6.84 3.18 11.67
3/31/2021 12:15:00 PM 7.33 45.194 0.05 6.85 3.48 11.69
3/31/2021 12:30:00 PM 7.38 45.284 0.05 6.86 3.23 11.71
3/31/2021 12:45:00 PM 7.49 45.482 0.05 6.88 3.16 11.73
3/31/2021 1:00:00 PM 7.53 45.554 0.05 6.9 3.23 11.74
3/31/2021 1:15:00 PM 7.55 45.59 0.05 6.89 3.41 11.71
3/31/2021 1:30:00 PM 7.56 45.608 0.05 6.89 3.65 11.69
3/31/2021 1:45:00 PM 7.58 45.644 0.05 6.89 3.4 11.68
3/31/2021 2:00:00 PM 7.62 45.716 0.05 6.9 3.38 11.68
3/31/2021 2:15:00 PM 7.65 45.77 0.051 6.91 3.42 11.67
3/31/2021 2:30:00 PM 7.67 45.806 0.051 6.9 3.46 11.64
3/31/2021 2:45:00 PM 7.68 45.824 0.051 6.89 3.5 11.6
3/31/2021 3:00:00 PM 7.69 45.842 0.051 6.87 3.64 11.58
3/31/2021 3:15:00 PM 7.72 45.896 0.051 6.89 3.63 11.58
3/31/2021 3:30:00 PM 7.74 45.932 0.051 6.89 3.85 11.58
3/31/2021 3:45:00 PM 7.76 45.968 0.051 6.88 3.9 11.54
3/31/2021 4:00:00 PM 7.78 46.004 0.052 6.87 4.09 11.52
3/31/2021 4:15:00 PM 7.78 46.004 0.051 6.86 3.87 11.49
3/31/2021 4:30:00 PM 7.8 46.04 0.051 6.87 4.04 11.48
3/31/2021 4:45:00 PM 7.81 46.058 0.051 6.87 3.9 11.51
3/31/2021 5:00:00 PM 7.83 46.094 0.051 6.87 3.91 11.52
3/31/2021 5:15:00 PM 7.87 46.166 0.051 6.88 3.81 11.54
3/31/2021 5:30:00 PM 7.89 46.202 0.052 6.89 3.73 11.54
3/31/2021 5:45:00 PM 7.9 46.22 0.051 6.89 3.76 11.54
3/31/2021 6:00:00 PM 7.92 46.256 0.052 6.9 3.76 11.53
3/31/2021 6:15:00 PM 7.93 46.274 0.051 6.9 3.61 11.53
3/31/2021 6:30:00 PM 7.93 46.274 0.052 6.89 3.6 11.51
3/31/2021 6:45:00 PM 7.93 46.274 0.052 6.89 3.55 11.5
3/31/2021 7:00:00 PM 7.91 46.238 0.052 6.89 3.54 11.49
3/31/2021 7:15:00 PM 7.89 46.202 0.052 6.87 3.59 11.47
3/31/2021 7:30:00 PM 7.86 46.148 0.052 6.86 3.51 11.43
3/31/2021 7:45:00 PM 7.82 46.076 0.052 6.85 3.63 11.39
3/31/2021 8:00:00 PM 7.78 46.004 0.053 6.83 3.59 11.36
3/31/2021 8:15:00 PM 7.72 45.896 0.053 6.81 3.51 11.33
3/31/2021 8:30:00 PM 7.66 45.788 0.053 6.8 3.52 11.32
3/31/2021 8:45:00 PM 7.6 45.68 0.053 6.79 3.58 11.32
3/31/2021 9:00:00 PM 7.54 45.572 0.053 6.79 3.46 11.31
3/31/2021 9:15:00 PM 7.47 45.446 0.053 6.77 3.81 11.32
3/31/2021 9:30:00 PM 7.4 45.32 0.053 6.77 3.5 11.34
3/31/2021 9:45:00 PM 7.34 45.212 0.053 6.76 3.52 11.36
3/31/2021 10:00:00 PM 7.29 45.122 0.053 6.76 3.63 11.36
3/31/2021 10:15:00 PM 7.24 45.032 0.053 6.75 3.39 11.38
3/31/2021 10:30:00 PM 7.19 44.942 0.053 6.75 3.37 11.39
3/31/2021 10:45:00 PM 7.15 44.87 0.053 6.75 3.54 11.41
3/31/2021 11:00:00 PM 7.11 44.798 0.053 6.74 3.57 11.42
3/31/2021 11:15:00 PM 7.07 44.726 0.053 6.73 3.46 11.44
3/31/2021 11:30:00 PM 7.02 44.636 0.054 6.74 3.32 11.45
3/31/2021 11:45:00 PM 6.98 44.564 0.054 6.75 3.3 11.46
4/1/2021 12:00:00 AM 6.94 44.492 0.053 6.74 3.38 11.47
4/1/2021 12:15:00 AM 6.91 44.438 0.054 6.73 3.31 11.49
4/1/2021 12:30:00 AM 6.87 44.366 0.053 6.74 3.48 11.5
4/1/2021 12:45:00 AM 6.83 44.294 0.053 6.75 3.46 11.51
4/1/2021 1:00:00 AM 6.78 44.204 0.053 6.74 3.34 11.53
4/1/2021 1:15:00 AM 6.73 44.114 0.053 6.74 3.35 11.54
4/1/2021 1:30:00 AM 6.67 44.006 0.054 6.74 3.34 11.56
4/1/2021 1:45:00 AM 6.62 43.916 0.054 6.74 3.31 11.57
4/1/2021 2:00:00 AM 6.56 43.808 0.054 6.73 3.29 11.59
4/1/2021 2:15:00 AM 6.51 43.718 0.054 6.73 3.22 11.6
4/1/2021 2:30:00 AM 6.46 43.628 0.053 6.74 3.22 11.61
4/1/2021 2:45:00 AM 6.42 43.556 0.053 6.73 3.19 11.63
4/1/2021 3:00:00 AM 6.37 43.466 0.053 6.72 3.19 11.64
4/1/2021 3:15:00 AM 6.33 43.394 0.053 6.74 3.18 11.64
4/1/2021 3:30:00 AM 6.3 43.34 0.053 6.73 3.23 11.65
4/1/2021 3:45:00 AM 6.26 43.268 0.053 6.73 3.1 11.66
4/1/2021 4:00:00 AM 6.22 43.196 0.053 6.75 3.16 11.68
4/1/2021 4:15:00 AM 6.19 43.142 0.053 6.74 3.29 11.68
4/1/2021 4:30:00 AM 6.15 43.07 0.053 6.73 3.28 11.7
4/1/2021 4:45:00 AM 6.12 43.016 0.053 6.73 3.17 11.71
4/1/2021 5:00:00 AM 6.08 42.944 0.053 6.73 3.3 11.73
4/1/2021 5:15:00 AM 6.04 42.872 0.053 6.74 3.17 11.73
4/1/2021 5:30:00 AM 6 42.8 0.053 6.74 3.16 11.75
4/1/2021 5:45:00 AM 5.96 42.728 0.054 6.73 3.13 11.76
4/1/2021 6:00:00 AM 5.91 42.638 0.054 6.74 3.18 11.77
4/1/2021 6:15:00 AM 5.87 42.566 0.054 6.74 3.1 11.79
4/1/2021 6:30:00 AM 5.82 42.476 0.054 6.73 3.07 11.8
4/1/2021 6:45:00 AM 5.77 42.386 0.053 6.74 3.05 11.81
4/1/2021 7:00:00 AM 5.73 42.314 0.054 6.73 3.09 11.83
4/1/2021 7:15:00 AM 5.68 42.224 0.054 6.73 3.05 11.85
4/1/2021 7:30:00 AM 5.64 42.152 0.054 6.74 3.12 11.89
4/1/2021 7:45:00 AM 5.61 42.098 0.054 6.75 3.24 11.94
4/1/2021 8:00:00 AM 5.58 42.044 0.054 6.76 3.1 12
4/1/2021 8:15:00 AM 5.56 42.008 0.054 6.77 3.12 12.04
4/1/2021 8:30:00 AM 5.52 41.936 0.054 6.77 3.01 12.07
4/1/2021 8:45:00 AM 5.5 41.9 0.054 6.78 2.94 12.09
4/1/2021 9:00:00 AM 5.47 41.846 0.054 6.78 2.84 12.12
4/1/2021 9:15:00 AM 5.43 41.774 0.054 6.8 2.77 12.15
4/1/2021 9:30:00 AM 5.38 41.684 0.054 6.8 4.07 12.18
4/1/2021 9:45:00 AM 5.38 41.684 0.054 6.8 2.83 12.23
4/1/2021 10:00:00 AM 5.38 41.684 0.054 6.82 2.78 12.28
4/1/2021 10:15:00 AM 5.34 41.612 0.054 6.82 2.72 12.3
4/1/2021 10:30:00 AM 5.32 41.576 0.053 6.84 2.73 12.34
4/1/2021 10:45:00 AM 5.35 41.63 0.053 6.85 2.67 12.38
4/1/2021 11:00:00 AM 5.36 41.648 0.053 6.85 2.71 12.4
4/1/2021 11:15:00 AM 5.39 41.702 0.053 6.87 2.7 12.42
4/1/2021 11:30:00 AM 5.45 41.81 0.053 6.89 2.69 12.43
4/1/2021 11:45:00 AM 5.56 42.008 0.053 6.9 2.91 12.44
4/1/2021 12:00:00 PM 5.64 42.152 0.053 6.91 3.08 12.44
4/1/2021 12:15:00 PM 5.71 42.278 0.053 6.92 2.87 12.42
4/1/2021 12:30:00 PM 5.81 42.458 0.053 6.93 2.8 12.41
4/1/2021 12:45:00 PM 5.82 42.476 0.053 6.93 2.64 12.39
4/1/2021 1:00:00 PM 5.84 42.512 0.053 6.93 2.59 12.38
4/1/2021 1:15:00 PM 5.83 42.494 0.053 6.92 2.5 12.38
4/1/2021 1:30:00 PM 5.81 42.458 0.053 6.93 2.55 12.37
4/1/2021 1:45:00 PM 5.82 42.476 0.053 6.93 2.51 12.35
4/1/2021 2:00:00 PM 5.81 42.458 0.053 6.93 2.53 12.35
4/1/2021 2:15:00 PM 5.81 42.458 0.053 6.92 2.46 12.35
4/1/2021 2:30:00 PM 5.79 42.422 0.053 6.92 2.5 12.34
4/1/2021 2:45:00 PM 5.77 42.386 0.053 6.93 2.59 12.34
4/1/2021 3:00:00 PM 5.75 42.35 0.053 6.92 2.57 12.34
4/1/2021 3:15:00 PM 5.74 42.332 0.053 6.92 2.67 12.35
4/1/2021 3:30:00 PM 5.72 42.296 0.053 6.91 2.6 12.35
4/1/2021 3:45:00 PM 5.74 42.332 0.052 6.93 2.53 12.37
4/1/2021 4:00:00 PM 5.75 42.35 0.053 6.92 2.49 12.37
4/1/2021 4:15:00 PM 5.74 42.332 0.052 6.93 2.54 12.37
4/1/2021 4:30:00 PM 5.74 42.332 0.052 6.93 2.43 12.37
4/1/2021 4:45:00 PM 5.77 42.386 0.053 6.93 2.49 12.38
4/1/2021 5:00:00 PM 5.83 42.494 0.052 6.94 2.47 12.38
4/1/2021 5:15:00 PM 5.8 42.44 0.052 6.93 2.52 12.36
4/1/2021 5:30:00 PM 5.73 42.314 0.052 6.91 2.47 12.33
4/1/2021 5:45:00 PM 5.68 42.224 0.052 6.9 2.42 12.32
4/1/2021 6:00:00 PM 5.64 42.152 0.052 6.89 2.51 12.3
4/1/2021 6:15:00 PM 5.58 42.044 0.052 6.88 2.4 12.31
4/1/2021 6:30:00 PM 5.53 41.954 0.052 6.88 2.46 12.32
4/1/2021 6:45:00 PM 5.47 41.846 0.052 6.88 2.5 12.33
4/1/2021 7:00:00 PM 5.39 41.702 0.052 6.87 2.49 12.33
4/1/2021 7:15:00 PM 5.32 41.576 0.052 6.85 2.53 12.3
4/1/2021 7:30:00 PM 5.27 41.486 0.052 6.84 2.51 12.25
4/1/2021 7:45:00 PM 5.19 41.342 0.052 6.82 2.56 12.22
4/1/2021 8:00:00 PM 5.11 41.198 0.053 6.79 2.5 12.2
4/1/2021 8:15:00 PM 5.02 41.036 0.053 6.78 2.63 12.18
4/1/2021 8:30:00 PM 4.94 40.892 0.053 6.78 2.64 12.19
4/1/2021 8:45:00 PM 4.85 40.73 0.053 6.76 2.68 12.2
4/1/2021 9:00:00 PM 4.77 40.586 0.053 6.75 2.54 12.22
4/1/2021 9:15:00 PM 4.69 40.442 0.053 6.74 2.6 12.24
4/1/2021 9:30:00 PM 4.61 40.298 0.053 6.74 2.58 12.26
4/1/2021 9:45:00 PM 4.53 40.154 0.053 6.73 2.68 12.28
4/1/2021 10:00:00 PM 4.43 39.974 0.053 6.73 2.69 12.31
4/1/2021 10:15:00 PM 4.36 39.848 0.053 6.73 2.59 12.33
4/1/2021 10:30:00 PM 4.3 39.74 0.053 6.73 2.59 12.36
4/1/2021 10:45:00 PM 4.23 39.614 0.053 6.72 2.61 12.39
4/1/2021 11:00:00 PM 4.15 39.47 0.053 6.71 2.78 12.42
4/1/2021 11:15:00 PM 4.07 39.326 0.053 6.73 2.6 12.44
4/1/2021 11:30:00 PM 3.99 39.182 0.053 6.71 2.55 12.47
4/1/2021 11:45:00 PM 3.92 39.056 0.053 6.72 2.6 12.5
4/2/2021 12:00:00 AM 3.85 38.93 0.053 6.71 2.6 12.53
4/2/2021 12:15:00 AM 3.78 38.804 0.053 6.71 2.62 12.55
4/2/2021 12:30:00 AM 3.7 38.66 0.053 6.72 2.63 12.59
4/2/2021 12:45:00 AM 3.64 38.552 0.053 6.71 2.54 12.61
4/2/2021 1:00:00 AM 3.59 38.462 0.053 6.71 2.55 12.63
4/2/2021 1:15:00 AM 3.53 38.354 0.053 6.71 2.64 12.65
4/2/2021 1:30:00 AM 3.47 38.246 0.053 6.71 2.57 12.66
4/2/2021 1:45:00 AM 3.42 38.156 0.053 6.71 2.59 12.68
4/2/2021 2:00:00 AM 3.37 38.066 0.053 6.71 2.66 12.7
4/2/2021 2:15:00 AM 3.31 37.958 0.053 6.72 2.6 12.72
4/2/2021 2:30:00 AM 3.25 37.85 0.053 6.71 2.61 12.74
4/2/2021 2:45:00 AM 3.18 37.724 0.053 6.7 2.51 12.77
4/2/2021 3:00:00 AM 3.12 37.616 0.053 6.7 2.52 12.79
4/2/2021 3:15:00 AM 3.05 37.49 0.053 6.7 2.48 12.81
4/2/2021 3:30:00 AM 2.99 37.382 0.053 6.7 2.45 12.84
4/2/2021 3:45:00 AM 2.92 37.256 0.053 6.69 2.5 12.86
4/2/2021 4:00:00 AM 2.86 37.148 0.053 6.69 2.47 12.88
4/2/2021 4:15:00 AM 2.8 37.04 0.052 6.7 2.45 12.9
4/2/2021 4:30:00 AM 2.73 36.914 0.053 6.7 2.43 12.93
4/2/2021 4:45:00 AM 2.66 36.788 0.053 6.69 2.52 12.95
4/2/2021 5:00:00 AM 2.6 36.68 0.053 6.69 2.38 12.98
4/2/2021 5:15:00 AM 2.53 36.554 0.052 6.71 2.46 13.01
4/2/2021 5:30:00 AM 2.47 36.446 0.053 6.69 2.32 13.03
4/2/2021 5:45:00 AM 2.4 36.32 0.052 6.69 2.37 13.04
4/2/2021 6:00:00 AM 2.34 36.212 0.053 6.7 2.38 13.08
4/2/2021 6:15:00 AM 2.28 36.104 0.053 6.68 2.39 13.1
4/2/2021 6:30:00 AM 2.22 35.996 0.053 6.69 2.36 13.12
4/2/2021 6:45:00 AM 2.15 35.87 0.053 6.69 2.37 13.16
4/2/2021 7:00:00 AM 2.1 35.78 0.052 6.69 2.35 13.18
4/2/2021 7:15:00 AM 2.04 35.672 0.053 6.69 2.35 13.22
4/2/2021 7:30:00 AM 1.99 35.582 0.052 6.7 2.34 13.26
4/2/2021 7:45:00 AM 1.94 35.492 0.052 6.7 2.35 13.32
4/2/2021 8:00:00 AM 1.9 35.42 0.053 6.71 2.37 13.38
4/2/2021 8:15:00 AM 1.88 35.384 0.052 6.72 2.34 13.43
4/2/2021 8:30:00 AM 1.87 35.366 0.052 6.72 2.36 13.47
4/2/2021 8:45:00 AM 1.89 35.402 0.052 6.74 2.44 13.52
4/2/2021 9:00:00 AM 1.91 35.438 0.052 6.75 2.26 13.55
4/2/2021 9:15:00 AM 1.95 35.51 0.052 6.77 2.3 13.57
4/2/2021 9:30:00 AM 2.02 35.636 0.052 6.78 2.28 13.58
4/2/2021 9:45:00 AM 2.1 35.78 0.052 6.8 2.21 13.59
4/2/2021 10:00:00 AM 2.18 35.924 0.052 6.81 2.24 13.59
4/2/2021 10:15:00 AM 2.28 36.104 0.052 6.81 2.22 13.59
4/2/2021 10:30:00 AM 2.41 36.338 0.052 6.82 2.2 13.57
4/2/2021 10:45:00 AM 2.56 36.608 0.052 6.83 2.15 13.55
4/2/2021 11:00:00 AM 2.73 36.914 0.051 6.84 2.13 13.51
4/2/2021 11:15:00 AM 2.94 37.292 0.052 6.86 2.22 13.46
4/2/2021 11:30:00 AM 3.14 37.652 0.051 6.86 2.17 13.41
4/2/2021 11:45:00 AM 3.36 38.048 0.051 6.87 2.13 13.35
4/2/2021 12:00:00 PM 3.62 38.516 0.051 6.88 2.12 13.29
4/2/2021 12:15:00 PM 3.87 38.966 0.051 6.89 2.08 13.22
4/2/2021 12:30:00 PM 4.14 39.452 0.051 6.9 2.11 13.14
4/2/2021 12:45:00 PM 4.39 39.902 0.051 6.9 2.17 13.06
4/2/2021 1:00:00 PM 4.65 40.37 0.051 6.91 2.11 12.98
4/2/2021 1:15:00 PM 4.91 40.838 0.051 6.91 2.08 12.91
4/2/2021 1:30:00 PM 5.17 41.306 0.051 6.92 2.1 12.82
4/2/2021 1:45:00 PM 5.43 41.774 0.051 6.93 2.12 12.73
4/2/2021 2:00:00 PM 5.65 42.17 0.051 6.93 2.09 12.66
4/2/2021 2:15:00 PM 5.89 42.602 0.051 6.93 2.13 12.58
4/2/2021 2:30:00 PM 6.09 42.962 0.051 6.94 2.07 12.51
4/2/2021 2:45:00 PM 6.28 43.304 0.051 6.94 2.11 12.44
4/2/2021 3:00:00 PM 6.45 43.61 0.05 6.94 2.15 12.37
4/2/2021 3:15:00 PM 6.62 43.916 0.05 6.94 2.22 12.3
4/2/2021 3:30:00 PM 6.74 44.132 0.05 6.94 2.09 12.25
4/2/2021 3:45:00 PM 6.86 44.348 0.051 6.94 2.26 12.2
4/2/2021 4:00:00 PM 6.95 44.51 0.051 6.93 2.28 12.16
4/2/2021 4:15:00 PM 7.01 44.618 0.051 6.93 2.19 12.12
4/2/2021 4:30:00 PM 7.04 44.672 0.05 6.93 2.35 12.08
4/2/2021 4:45:00 PM 7.03 44.654 0.05 6.91 2.29 12.08
4/2/2021 5:00:00 PM 7.02 44.636 0.05 6.9 2.25 12.05
4/2/2021 5:15:00 PM 6.95 44.51 0.05 6.91 2.23 12.05
4/2/2021 5:30:00 PM 6.89 44.402 0.05 6.91 2.24 12.04
4/2/2021 5:45:00 PM 6.79 44.222 0.05 6.9 2.32 12.04
4/2/2021 6:00:00 PM 6.66 43.988 0.051 6.89 2.28 12.05
4/2/2021 6:15:00 PM 6.53 43.754 0.051 6.88 2.32 12.06
4/2/2021 6:30:00 PM 6.35 43.43 0.051 6.86 2.36 12.06
4/2/2021 6:45:00 PM 6.18 43.124 0.051 6.85 2.31 12.08
4/2/2021 7:00:00 PM 6.02 42.836 0.051 6.83 2.31 12.1
4/2/2021 7:15:00 PM 5.85 42.53 0.051 6.81 2.5 12.12
4/2/2021 7:30:00 PM 5.67 42.206 0.051 6.79 2.32 12.13
4/2/2021 7:45:00 PM 5.51 41.918 0.051 6.79 2.39 12.14
4/2/2021 8:00:00 PM 5.35 41.63 0.051 6.77 2.36 12.15
4/2/2021 8:15:00 PM 5.19 41.342 0.051 6.75 2.27 12.18
4/2/2021 8:30:00 PM 5.04 41.072 0.051 6.74 2.46 12.2
4/2/2021 8:45:00 PM 4.89 40.802 0.051 6.75 2.41 12.24
4/2/2021 9:00:00 PM 4.75 40.55 0.051 6.72 2.45 12.28
4/2/2021 9:15:00 PM 4.62 40.316 0.051 6.71 2.57 12.32
4/2/2021 9:30:00 PM 4.48 40.064 0.051 6.71 2.5 12.36
4/2/2021 9:45:00 PM 4.36 39.848 0.051 6.7 2.45 12.4
4/2/2021 10:00:00 PM 4.24 39.632 0.051 6.7 2.46 12.43
4/2/2021 10:15:00 PM 4.14 39.452 0.051 6.69 2.46 12.47
4/2/2021 10:30:00 PM 4.05 39.29 0.051 6.7 2.57 12.5
4/2/2021 10:45:00 PM 3.96 39.128 0.051 6.7 2.47 12.53
4/2/2021 11:00:00 PM 3.88 38.984 0.051 6.69 2.54 12.55
4/2/2021 11:15:00 PM 3.8 38.84 0.051 6.69 2.46 12.59
4/2/2021 11:30:00 PM 3.72 38.696 0.051 6.7 2.49 12.61
4/2/2021 11:45:00 PM 3.65 38.57 0.051 6.68 2.41 12.64
4/3/2021 12:00:00 AM 3.57 38.426 0.051 6.7 2.54 12.66
4/3/2021 12:15:00 AM 3.5 38.3 0.051 6.69 2.56 12.69
4/3/2021 12:30:00 AM 3.43 38.174 0.051 6.68 2.5 12.71
4/3/2021 12:45:00 AM 3.35 38.03 0.051 6.69 2.52 12.74
4/3/2021 1:00:00 AM 3.29 37.922 0.051 6.7 2.46 12.76
4/3/2021 1:15:00 AM 3.22 37.796 0.051 6.69 2.43 12.78
4/3/2021 1:30:00 AM 3.16 37.688 0.051 6.68 2.39 12.81
4/3/2021 1:45:00 AM 3.1 37.58 0.051 6.69 2.46 12.83
4/3/2021 2:00:00 AM 3.04 37.472 0.051 6.69 2.49 12.86
4/3/2021 2:15:00 AM 2.97 37.346 0.051 6.69 2.39 12.88
4/3/2021 2:30:00 AM 2.91 37.238 0.051 6.68 2.51 12.9
4/3/2021 2:45:00 AM 2.85 37.13 0.051 6.69 2.4 12.92
4/3/2021 3:00:00 AM 2.79 37.022 0.051 6.69 2.43 12.95
4/3/2021 3:15:00 AM 2.73 36.914 0.051 6.68 2.37 12.97
4/3/2021 3:30:00 AM 2.67 36.806 0.051 6.68 2.41 12.99
4/3/2021 3:45:00 AM 2.61 36.698 0.051 6.68 2.36 13.01
4/3/2021 4:00:00 AM 2.55 36.59 0.051 6.68 2.4 13.03
4/3/2021 4:15:00 AM 2.49 36.482 0.051 6.68 2.32 13.07
4/3/2021 4:30:00 AM 2.44 36.392 0.051 6.67 2.38 13.07
4/3/2021 4:45:00 AM 2.38 36.284 0.051 6.68 2.27 13.11
4/3/2021 5:00:00 AM 2.33 36.194 0.051 6.68 2.29 13.13
4/3/2021 5:15:00 AM 2.27 36.086 0.051 6.67 2.39 13.15
4/3/2021 5:30:00 AM 2.22 35.996 0.051 6.67 2.34 13.17
4/3/2021 5:45:00 AM 2.16 35.888 0.051 6.69 2.26 13.2
4/3/2021 6:00:00 AM 2.11 35.798 0.051 6.68 2.27 13.22
4/3/2021 6:15:00 AM 2.06 35.708 0.051 6.67 2.27 13.24
4/3/2021 6:30:00 AM 2 35.6 0.051 6.68 2.3 13.26
4/3/2021 6:45:00 AM 1.95 35.51 0.051 6.67 2.29 13.28
4/3/2021 7:00:00 AM 1.9 35.42 0.051 6.67 2.32 13.3
4/3/2021 7:15:00 AM 1.86 35.348 0.051 6.68 2.35 13.35
4/3/2021 7:30:00 AM 1.82 35.276 0.051 6.69 2.41 13.38
4/3/2021 7:45:00 AM 1.79 35.222 0.051 6.69 2.21 13.44
4/3/2021 8:00:00 AM 1.76 35.168 0.051 6.7 2.24 13.49
4/3/2021 8:15:00 AM 1.75 35.15 0.051 6.71 2.27 13.54
4/3/2021 8:30:00 AM 1.76 35.168 0.051 6.72 2.23 13.57
4/3/2021 8:45:00 AM 1.79 35.222 0.051 6.72 2.22 13.61
4/3/2021 9:00:00 AM 1.84 35.312 0.051 6.74 2.28 13.64
4/3/2021 9:15:00 AM 1.9 35.42 0.051 6.76 2.57 13.65
4/3/2021 9:30:00 AM 2 35.6 0.051 6.77 2.28 13.65
4/3/2021 9:45:00 AM 2.11 35.798 0.051 6.78 2.37 13.66
4/3/2021 10:00:00 AM 2.23 36.014 0.051 6.78 2.33 13.65
4/3/2021 10:15:00 AM 2.38 36.284 0.05 6.8 2.16 13.62
4/3/2021 10:30:00 AM 2.54 36.572 0.051 6.82 2.31 13.6
4/3/2021 10:45:00 AM 2.74 36.932 0.05 6.83 2.47 13.55
4/3/2021 11:00:00 AM 2.96 37.328 0.05 6.85 2.29 13.5
4/3/2021 11:15:00 AM 3.2 37.76 0.05 6.86 2.22 13.45
4/3/2021 11:30:00 AM 3.37 38.066 0.05 6.86 2.12 13.39
4/3/2021 11:45:00 AM 3.51 38.318 0.05 6.86 2.1 13.33
4/3/2021 12:00:00 PM 3.63 38.534 0.05 6.87 2.23 13.28
4/3/2021 12:15:00 PM 3.87 38.966 0.05 6.9 2.23 13.23
4/3/2021 12:30:00 PM 4.16 39.488 0.05 6.9 2.12 13.16
4/3/2021 12:45:00 PM 4.5 40.1 0.05 6.91 2.1 13.07
4/3/2021 1:00:00 PM 4.79 40.622 0.05 6.92 2.1 12.97
4/3/2021 1:15:00 PM 5.13 41.234 0.05 6.93 2.09 12.87
4/3/2021 1:30:00 PM 5.35 41.63 0.049 6.93 2.12 12.78
4/3/2021 1:45:00 PM 5.67 42.206 0.05 6.93 2.14 12.7
4/3/2021 2:00:00 PM 5.95 42.71 0.049 6.93 2.14 12.61
4/3/2021 2:15:00 PM 6.22 43.196 0.049 6.94 2.06 12.53
4/3/2021 2:30:00 PM 6.43 43.574 0.049 6.93 2.06 12.45
4/3/2021 2:45:00 PM 6.55 43.79 0.049 6.93 2.03 12.36
4/3/2021 3:00:00 PM 6.67 44.006 0.049 6.94 2.13 12.3
4/3/2021 3:15:00 PM 6.81 44.258 0.049 6.94 2.31 12.25
4/3/2021 3:30:00 PM 6.92 44.456 0.049 6.95 2.48 12.2
4/3/2021 3:45:00 PM 7.05 44.69 0.049 6.95 2.19 12.16
4/3/2021 4:00:00 PM 7.12 44.816 0.049 6.95 2.25 12.12
4/3/2021 4:15:00 PM 7.21 44.978 0.049 6.95 2.14 12.08
4/3/2021 4:30:00 PM 7.29 45.122 0.049 6.95 2.2 12.04
4/3/2021 4:45:00 PM 7.34 45.212 0.049 6.95 2.34 12.01
4/3/2021 5:00:00 PM 7.37 45.266 0.049 6.95 2.21 11.99
4/3/2021 5:15:00 PM 7.39 45.302 0.049 6.94 2.22 11.97
4/3/2021 5:30:00 PM 7.37 45.266 0.049 6.93 2.34 11.96
4/3/2021 5:45:00 PM 7.33 45.194 0.049 6.92 2.18 11.93
4/3/2021 6:00:00 PM 7.25 45.05 0.049 6.91 2.23 11.91
4/3/2021 6:15:00 PM 7.18 44.924 0.049 6.89 2.2 11.89
4/3/2021 6:30:00 PM 7.11 44.798 0.049 6.89 2.28 11.88
4/3/2021 6:45:00 PM 7.04 44.672 0.049 6.88 2.21 11.86
4/3/2021 7:00:00 PM 6.96 44.528 0.049 6.87 2.33 11.84
4/3/2021 7:15:00 PM 6.87 44.366 0.049 6.84 2.3 11.82
4/3/2021 7:30:00 PM 6.8 44.24 0.05 6.84 2.29 11.8
4/3/2021 7:45:00 PM 6.73 44.114 0.05 6.82 2.33 11.76
4/3/2021 8:00:00 PM 6.65 43.97 0.05 6.78 2.31 11.75
4/3/2021 8:15:00 PM 6.58 43.844 0.05 6.8 2.32 11.74
4/3/2021 8:30:00 PM 6.51 43.718 0.05 6.76 2.45 11.73
4/3/2021 8:45:00 PM 6.43 43.574 0.05 6.75 2.35 11.73
4/3/2021 9:00:00 PM 6.36 43.448 0.05 6.75 2.5 11.75
4/3/2021 9:15:00 PM 6.28 43.304 0.05 6.75 2.43 11.76
4/3/2021 9:30:00 PM 6.22 43.196 0.05 6.73 2.45 11.77
4/3/2021 9:45:00 PM 6.16 43.088 0.05 6.73 2.52 11.79
4/3/2021 10:00:00 PM 6.11 42.998 0.05 6.73 2.44 11.8
4/3/2021 10:15:00 PM 6.05 42.89 0.05 6.73 2.57 11.82
4/3/2021 10:30:00 PM 6.01 42.818 0.05 6.73 2.48 11.83
4/3/2021 10:45:00 PM 5.96 42.728 0.05 6.72 2.52 11.84
4/3/2021 11:00:00 PM 5.92 42.656 0.05 6.73 2.46 11.85
4/3/2021 11:15:00 PM 5.88 42.584 0.05 6.71 2.5 11.86
4/3/2021 11:30:00 PM 5.84 42.512 0.05 6.72 2.44 11.87
4/3/2021 11:45:00 PM 5.8 42.44 0.05 6.72 2.44 11.89
4/4/2021 12:00:00 AM 5.76 42.368 0.05 6.71 2.5 11.89
4/4/2021 12:15:00 AM 5.72 42.296 0.05 6.71 2.48 11.91
4/4/2021 12:30:00 AM 5.69 42.242 0.05 6.71 2.4 11.91
4/4/2021 12:45:00 AM 5.65 42.17 0.05 6.72 2.44 11.92
4/4/2021 1:00:00 AM 5.62 42.116 0.051 6.71 2.54 11.93
4/4/2021 1:15:00 AM 5.58 42.044 0.051 6.72 2.47 11.94
4/4/2021 1:30:00 AM 5.55 41.99 0.05 6.72 2.44 11.95
4/4/2021 1:45:00 AM 5.51 41.918 0.051 6.72 2.49 11.96
4/4/2021 2:00:00 AM 5.48 41.864 0.051 6.71 2.58 11.97
4/4/2021 2:15:00 AM 5.43 41.774 0.051 6.71 2.51 11.98
4/4/2021 2:30:00 AM 5.36 41.648 0.051 6.71 2.52 11.99
4/4/2021 2:45:00 AM 5.3 41.54 0.051 6.71 2.47 12.01
4/4/2021 3:00:00 AM 5.23 41.414 0.051 6.7 2.66 12.03
4/4/2021 3:15:00 AM 5.16 41.288 0.051 6.7 2.49 12.04
4/4/2021 3:30:00 AM 5.09 41.162 0.051 6.69 2.42 12.06
4/4/2021 3:45:00 AM 5.02 41.036 0.051 6.7 2.41 12.09
4/4/2021 4:00:00 AM 4.94 40.892 0.051 6.7 2.47 12.1
4/4/2021 4:15:00 AM 4.88 40.784 0.051 6.7 2.43 12.13
4/4/2021 4:30:00 AM 4.82 40.676 0.051 6.7 2.39 12.15
4/4/2021 4:45:00 AM 4.77 40.586 0.051 6.69 2.48 12.16
4/4/2021 5:00:00 AM 4.72 40.496 0.051 6.7 2.47 12.18
4/4/2021 5:15:00 AM 4.69 40.442 0.051 6.7 2.43 12.19
4/4/2021 5:30:00 AM 4.64 40.352 0.051 6.69 2.36 12.21
4/4/2021 5:45:00 AM 4.57 40.226 0.051 6.69 2.4 12.23
4/4/2021 6:00:00 AM 4.51 40.118 0.051 6.7 2.28 12.25
4/4/2021 6:15:00 AM 4.45 40.01 0.051 6.7 2.4 12.27
4/4/2021 6:30:00 AM 4.39 39.902 0.051 6.68 2.4 12.29
4/4/2021 6:45:00 AM 4.32 39.776 0.051 6.68 2.34 12.31
4/4/2021 7:00:00 AM 4.26 39.668 0.051 6.69 2.42 12.34
4/4/2021 7:15:00 AM 4.2 39.56 0.051 6.7 2.41 12.38
4/4/2021 7:30:00 AM 4.15 39.47 0.051 6.69 2.35 12.44
4/4/2021 7:45:00 AM 4.1 39.38 0.051 6.71 2.34 12.5
4/4/2021 8:00:00 AM 4.07 39.326 0.051 6.73 2.43 12.55
4/4/2021 8:15:00 AM 4.04 39.272 0.051 6.73 2.37 12.61
4/4/2021 8:30:00 AM 4.04 39.272 0.05 6.75 2.32 12.66
4/4/2021 8:45:00 AM 4.05 39.29 0.05 6.76 2.36 12.71
4/4/2021 9:00:00 AM 4.09 39.362 0.05 6.78 2.37 12.74
4/4/2021 9:15:00 AM 4.14 39.452 0.05 6.79 2.43 12.77
4/4/2021 9:30:00 AM 4.21 39.578 0.05 6.8 2.41 12.79
4/4/2021 9:45:00 AM 4.31 39.758 0.05 6.81 2.25 12.79
4/4/2021 10:00:00 AM 4.43 39.974 0.05 6.84 2.25 12.79
4/4/2021 10:15:00 AM 4.57 40.226 0.05 6.86 2.18 12.78
4/4/2021 10:30:00 AM 4.74 40.532 0.05 6.87 2.26 12.77
4/4/2021 10:45:00 AM 4.93 40.874 0.05 6.89 2.16 12.73
4/4/2021 11:00:00 AM 5.16 41.288 0.05 6.91 2.25 12.69
4/4/2021 11:15:00 AM 5.41 41.738 0.05 6.92 2.2 12.64
4/4/2021 11:30:00 AM 5.67 42.206 0.05 6.94 2.11 12.58
4/4/2021 11:45:00 AM 5.97 42.746 0.05 6.95 2.12 12.52
4/4/2021 12:00:00 PM 6.26 43.268 0.049 6.96 2.2 12.44
4/4/2021 12:15:00 PM 6.56 43.808 0.049 6.97 2.12 12.37
4/4/2021 12:30:00 PM 6.89 44.402 0.049 6.98 2.12 12.29
4/4/2021 12:45:00 PM 7.21 44.978 0.049 6.99 2.11 12.21
4/4/2021 1:00:00 PM 7.51 45.518 0.049 6.99 2.16 12.13
4/4/2021 1:15:00 PM 7.82 46.076 0.049 7 2.14 12.03
4/4/2021 1:30:00 PM 8.12 46.616 0.049 7.01 2.04 11.95
4/4/2021 1:45:00 PM 8.41 47.138 0.049 7.01 2.16 11.87
4/4/2021 2:00:00 PM 8.69 47.642 0.049 7.02 2.14 11.79
4/4/2021 2:15:00 PM 8.97 48.146 0.049 7.03 2.17 11.7
4/4/2021 2:30:00 PM 9.22 48.596 0.049 7.03 2.14 11.63
4/4/2021 2:45:00 PM 9.48 49.064 0.049 7.03 2.1 11.55
4/4/2021 3:00:00 PM 9.69 49.442 0.049 7.03 2.16 11.48
4/4/2021 3:15:00 PM 9.89 49.802 0.049 7.04 2.16 11.41
4/4/2021 3:30:00 PM 10.08 50.144 0.049 7.04 2.21 11.35
4/4/2021 3:45:00 PM 10.23 50.414 0.049 7.04 2.16 11.29
4/4/2021 4:00:00 PM 10.36 50.648 0.049 7.04 2.22 11.24
4/4/2021 4:15:00 PM 10.47 50.846 0.049 7.03 2.23 11.18
4/4/2021 4:30:00 PM 10.52 50.936 0.049 7.03 2.16 11.15
4/4/2021 4:45:00 PM 10.58 51.044 0.049 7.03 2.28 11.11
4/4/2021 5:00:00 PM 10.6 51.08 0.049 7.02 2.31 11.08
4/4/2021 5:15:00 PM 10.62 51.116 0.049 7.01 2.26 11.05
4/4/2021 5:30:00 PM 10.59 51.062 0.049 7 2.27 11.03
4/4/2021 5:45:00 PM 10.54 50.972 0.049 6.99 2.43 11.01
4/4/2021 6:00:00 PM 10.47 50.846 0.049 6.98 2.34 11
4/4/2021 6:15:00 PM 10.38 50.684 0.049 6.96 2.33 10.98
4/4/2021 6:30:00 PM 10.25 50.45 0.049 6.95 2.4 10.98
4/4/2021 6:45:00 PM 10.13 50.234 0.049 6.93 2.38 10.96
4/4/2021 7:00:00 PM 10 50 0.049 6.91 2.39 10.94
4/4/2021 7:15:00 PM 9.85 49.73 0.049 6.88 2.59 10.94
4/4/2021 7:30:00 PM 9.69 49.442 0.049 6.88 2.56 10.93
4/4/2021 7:45:00 PM 9.51 49.118 0.049 6.84 2.68 10.92
4/4/2021 8:00:00 PM 9.35 48.83 0.05 6.83 2.6 10.92
4/4/2021 8:15:00 PM 9.19 48.542 0.049 6.79 2.48 10.92
4/4/2021 8:30:00 PM 9.03 48.254 0.05 6.79 2.58 10.93
4/4/2021 8:45:00 PM 8.88 47.984 0.05 6.77 2.76 10.95
4/4/2021 9:00:00 PM 8.72 47.696 0.05 6.75 2.68 10.98
4/4/2021 9:15:00 PM 8.56 47.408 0.05 6.74 2.7 11.02
4/4/2021 9:30:00 PM 8.41 47.138 0.05 6.74 2.7 11.05
4/4/2021 9:45:00 PM 8.25 46.85 0.05 6.74 2.63 11.09
4/4/2021 10:00:00 PM 8.1 46.58 0.05 6.73 2.61 11.13
4/4/2021 10:15:00 PM 7.96 46.328 0.05 6.72 2.65 11.17
4/4/2021 10:30:00 PM 7.82 46.076 0.05 6.72 2.62 11.21
4/4/2021 10:45:00 PM 7.7 45.86 0.05 6.72 2.68 11.24
4/4/2021 11:00:00 PM 7.58 45.644 0.05 6.71 2.62 11.28
4/4/2021 11:15:00 PM 7.46 45.428 0.05 6.71 2.62 11.3
4/4/2021 11:30:00 PM 7.36 45.248 0.05 6.71 2.66 11.34
4/4/2021 11:45:00 PM 7.25 45.05 0.05 6.71 2.62 11.37
4/5/2021 12:00:00 AM 7.14 44.852 0.05 6.72 2.57 11.4
4/5/2021 12:15:00 AM 7.03 44.654 0.05 6.72 2.5 11.44
4/5/2021 12:30:00 AM 6.92 44.456 0.05 6.72 2.6 11.47
4/5/2021 12:45:00 AM 6.82 44.276 0.05 6.71 2.56 11.5
4/5/2021 1:00:00 AM 6.72 44.096 0.05 6.71 2.75 11.53
4/5/2021 1:15:00 AM 6.62 43.916 0.05 6.71 2.58 11.56
4/5/2021 1:30:00 AM 6.53 43.754 0.051 6.71 2.62 11.59
4/5/2021 1:45:00 AM 6.43 43.574 0.051 6.72 2.47 11.62
4/5/2021 2:00:00 AM 6.34 43.412 0.05 6.7 2.49 11.65
4/5/2021 2:15:00 AM 6.25 43.25 0.051 6.71 2.51 11.68
4/5/2021 2:30:00 AM 6.16 43.088 0.051 6.71 2.63 11.7
4/5/2021 2:45:00 AM 6.07 42.926 0.051 6.71 2.63 11.73
4/5/2021 3:00:00 AM 5.98 42.764 0.05 6.71 2.56 11.76
4/5/2021 3:15:00 AM 5.88 42.584 0.051 6.71 2.63 11.79
4/5/2021 3:30:00 AM 5.8 42.44 0.051 6.7 2.61 11.82
4/5/2021 3:45:00 AM 5.7 42.26 0.051 6.71 2.57 11.85
4/5/2021 4:00:00 AM 5.61 42.098 0.051 6.71 2.53 11.88
4/5/2021 4:15:00 AM 5.53 41.954 0.051 6.71 2.71 11.9
4/5/2021 4:30:00 AM 5.44 41.792 0.051 6.7 2.48 11.94
4/5/2021 4:45:00 AM 5.36 41.648 0.051 6.71 2.46 11.96
4/5/2021 5:00:00 AM 5.28 41.504 0.051 6.7 2.51 11.99
4/5/2021 5:15:00 AM 5.2 41.36 0.05 6.71 2.51 12.02
4/5/2021 5:30:00 AM 5.12 41.216 0.051 6.71 2.54 12.05
4/5/2021 5:45:00 AM 5.04 41.072 0.051 6.71 2.43 12.08
4/5/2021 6:00:00 AM 4.96 40.928 0.051 6.7 2.57 12.1
4/5/2021 6:15:00 AM 4.89 40.802 0.051 6.7 2.48 12.13
4/5/2021 6:30:00 AM 4.81 40.658 0.051 6.7 2.49 12.16
4/5/2021 6:45:00 AM 4.74 40.532 0.051 6.7 2.34 12.18
4/5/2021 7:00:00 AM 4.68 40.424 0.051 6.7 2.47 12.22
4/5/2021 7:15:00 AM 4.62 40.316 0.051 6.7 2.41 12.26
4/5/2021 7:30:00 AM 4.57 40.226 0.051 6.72 2.42 12.32
4/5/2021 7:45:00 AM 4.53 40.154 0.05 6.74 2.39 12.39
4/5/2021 8:00:00 AM 4.49 40.082 0.051 6.74 2.42 12.45
4/5/2021 8:15:00 AM 4.46 40.028 0.05 6.75 2.41 12.51
4/5/2021 8:30:00 AM 4.45 40.01 0.05 6.77 2.52 12.57
4/5/2021 8:45:00 AM 4.46 40.028 0.05 6.78 2.31 12.61
4/5/2021 9:00:00 AM 4.5 40.1 0.05 6.79 2.31 12.65
4/5/2021 9:15:00 AM 4.55 40.19 0.05 6.81 2.32 12.67
4/5/2021 9:30:00 AM 4.62 40.316 0.05 6.83 2.3 12.69
4/5/2021 9:45:00 AM 4.72 40.496 0.05 6.84 2.26 12.7
4/5/2021 10:00:00 AM 4.84 40.712 0.05 6.87 2.32 12.7
4/5/2021 10:15:00 AM 4.99 40.982 0.05 6.88 2.19 12.69
4/5/2021 10:30:00 AM 5.15 41.27 0.05 6.9 2.24 12.68
4/5/2021 10:45:00 AM 5.35 41.63 0.05 6.91 2.25 12.64
4/5/2021 11:00:00 AM 5.57 42.026 0.05 6.94 2.25 12.61
4/5/2021 11:15:00 AM 5.8 42.44 0.05 6.95 2.12 12.56
4/5/2021 11:30:00 AM 6.07 42.926 0.05 6.96 2.21 12.5
4/5/2021 11:45:00 AM 6.34 43.412 0.049 6.98 2.15 12.44
4/5/2021 12:00:00 PM 6.63 43.934 0.05 6.98 2.16 12.37
4/5/2021 12:15:00 PM 6.93 44.474 0.049 7 2.15 12.3
4/5/2021 12:30:00 PM 7.25 45.05 0.049 7.01 2.2 12.22
4/5/2021 12:45:00 PM 7.56 45.608 0.049 7.02 2.11 12.14
4/5/2021 1:00:00 PM 7.84 46.112 0.049 7.02 2.08 12.07
4/5/2021 1:15:00 PM 8.09 46.562 0.049 7.03 2.12 11.99
4/5/2021 1:30:00 PM 8.36 47.048 0.049 7.03 2.03 11.92
4/5/2021 1:45:00 PM 8.6 47.48 0.049 7.04 2.11 11.84
4/5/2021 2:00:00 PM 8.83 47.894 0.049 7.05 2.07 11.77
4/5/2021 2:15:00 PM 9.07 48.326 0.049 7.06 2.22 11.71
4/5/2021 2:30:00 PM 9.24 48.632 0.049 7.07 2.14 11.64
4/5/2021 2:45:00 PM 9.4 48.92 0.049 7.07 2.22 11.58
4/5/2021 3:00:00 PM 9.59 49.262 0.049 7.08 2.11 11.52
4/5/2021 3:15:00 PM 9.77 49.586 0.049 7.09 2.12 11.46
4/5/2021 3:30:00 PM 9.9 49.82 0.049 7.08 2.11 11.4
4/5/2021 3:45:00 PM 9.99 49.982 0.049 7.08 2.12 11.37
4/5/2021 4:00:00 PM 10.02 50.036 0.049 7.07 2.12 11.32
4/5/2021 4:15:00 PM 10.03 50.054 0.049 7.07 2.11 11.28
4/5/2021 4:30:00 PM 10.05 50.09 0.049 7.07 2.13 11.24
4/5/2021 4:45:00 PM 10.05 50.09 0.049 7.05 2.2 11.21
4/5/2021 5:00:00 PM 10.03 50.054 0.049 7.03 2.14 11.17
4/5/2021 5:15:00 PM 9.99 49.982 0.049 7.03 2.16 11.15
4/5/2021 5:30:00 PM 9.96 49.928 0.049 7.02 2.29 11.11
4/5/2021 5:45:00 PM 9.9 49.82 0.049 6.99 2.22 11.1
4/5/2021 6:00:00 PM 9.85 49.73 0.049 6.98 2.29 11.07
4/5/2021 6:15:00 PM 9.8 49.64 0.049 6.96 2.21 11.06
4/5/2021 6:30:00 PM 9.75 49.55 0.049 6.96 2.25 11.07
4/5/2021 6:45:00 PM 9.68 49.424 0.049 6.95 2.23 11.04
4/5/2021 7:00:00 PM 9.61 49.298 0.049 6.92 2.32 11.01
4/5/2021 7:15:00 PM 9.53 49.154 0.049 6.91 2.29 10.99
4/5/2021 7:30:00 PM 9.45 49.01 0.049 6.89 2.25 10.96
4/5/2021 7:45:00 PM 9.37 48.866 0.049 6.87 2.34 10.94
4/5/2021 8:00:00 PM 9.29 48.722 0.05 6.85 2.42 10.91
4/5/2021 8:15:00 PM 9.22 48.596 0.05 6.84 2.39 10.89
4/5/2021 8:30:00 PM 9.14 48.452 0.05 6.84 2.4 10.89
4/5/2021 8:45:00 PM 9.07 48.326 0.05 6.82 2.47 10.89
4/5/2021 9:00:00 PM 9 48.2 0.05 6.8 2.51 10.9
4/5/2021 9:15:00 PM 8.95 48.11 0.05 6.79 2.48 10.9
4/5/2021 9:30:00 PM 8.89 48.002 0.05 6.78 2.53 10.91
4/5/2021 9:45:00 PM 8.83 47.894 0.05 6.77 2.41 10.92
4/5/2021 10:00:00 PM 8.78 47.804 0.05 6.77 2.56 10.94
4/5/2021 10:15:00 PM 8.73 47.714 0.05 6.76 2.43 10.95
4/5/2021 10:30:00 PM 8.68 47.624 0.05 6.77 2.43 10.96
4/5/2021 10:45:00 PM 8.63 47.534 0.05 6.76 2.47 10.97
4/5/2021 11:00:00 PM 8.59 47.462 0.05 6.76 2.49 10.98
4/5/2021 11:15:00 PM 8.55 47.39 0.05 6.77 2.52 10.99
4/5/2021 11:30:00 PM 8.51 47.318 0.05 6.76 2.53 11
4/5/2021 11:45:00 PM 8.47 47.246 0.05 6.76 2.54 11.01
4/6/2021 12:00:00 AM 8.43 47.174 0.05 6.76 2.47 11.02
4/6/2021 12:15:00 AM 8.39 47.102 0.05 6.75 2.55 11.03
4/6/2021 12:30:00 AM 8.36 47.048 0.051 6.75 2.51 11.03
4/6/2021 12:45:00 AM 8.33 46.994 0.05 6.76 2.56 11.05
4/6/2021 1:00:00 AM 8.29 46.922 0.05 6.75 2.45 11.05
4/6/2021 1:15:00 AM 8.26 46.868 0.051 6.75 2.46 11.06
4/6/2021 1:30:00 AM 8.23 46.814 0.051 6.75 2.46 11.07
4/6/2021 1:45:00 AM 8.19 46.742 0.051 6.75 2.43 11.08
4/6/2021 2:00:00 AM 8.15 46.67 0.051 6.76 2.53 11.09
4/6/2021 2:15:00 AM 8.11 46.598 0.051 6.75 2.56 11.1
4/6/2021 2:30:00 AM 8.07 46.526 0.051 6.74 2.46 11.11
4/6/2021 2:45:00 AM 8.04 46.472 0.051 6.75 2.52 11.12
4/6/2021 3:00:00 AM 8 46.4 0.051 6.75 2.35 11.13
4/6/2021 3:15:00 AM 7.95 46.31 0.051 6.74 2.51 11.14
4/6/2021 3:30:00 AM 7.9 46.22 0.051 6.75 2.47 11.15
4/6/2021 3:45:00 AM 7.85 46.13 0.051 6.74 2.48 11.17
4/6/2021 4:00:00 AM 7.79 46.022 0.051 6.74 2.44 11.18
4/6/2021 4:15:00 AM 7.72 45.896 0.051 6.75 2.5 11.2
4/6/2021 4:30:00 AM 7.65 45.77 0.051 6.74 2.45 11.21
4/6/2021 4:45:00 AM 7.58 45.644 0.051 6.74 2.58 11.23
4/6/2021 5:00:00 AM 7.51 45.518 0.051 6.75 2.44 11.24
4/6/2021 5:15:00 AM 7.43 45.374 0.051 6.74 2.4 11.28
4/6/2021 5:30:00 AM 7.36 45.248 0.051 6.73 2.49 11.3
4/6/2021 5:45:00 AM 7.28 45.104 0.051 6.73 2.49 11.31
4/6/2021 6:00:00 AM 7.21 44.978 0.051 6.74 2.51 11.33
4/6/2021 6:15:00 AM 7.12 44.816 0.051 6.73 2.65 11.36
4/6/2021 6:30:00 AM 7.06 44.708 0.051 6.73 2.49 11.39
4/6/2021 6:45:00 AM 7.01 44.618 0.051 6.73 2.4 11.4
4/6/2021 7:00:00 AM 6.97 44.546 0.051 6.73 2.44 11.43
4/6/2021 7:15:00 AM 6.93 44.474 0.051 6.74 2.45 11.48
4/6/2021 7:30:00 AM 6.9 44.42 0.051 6.76 2.48 11.53
4/6/2021 7:45:00 AM 6.88 44.384 0.051 6.77 2.35 11.61
4/6/2021 8:00:00 AM 6.88 44.384 0.051 6.79 2.48 11.67
4/6/2021 8:15:00 AM 6.87 44.366 0.051 6.81 2.42 11.73
4/6/2021 8:30:00 AM 6.87 44.366 0.051 6.82 2.48 11.79
4/6/2021 8:45:00 AM 6.87 44.366 0.051 6.85 2.34 11.84
4/6/2021 9:00:00 AM 6.9 44.42 0.05 6.86 2.33 11.89
4/6/2021 9:15:00 AM 6.95 44.51 0.05 6.89 2.38 11.92
4/6/2021 9:30:00 AM 7.02 44.636 0.05 6.9 2.34 11.96
4/6/2021 9:45:00 AM 7.12 44.816 0.05 6.93 2.3 11.97
4/6/2021 10:00:00 AM 7.24 45.032 0.05 6.95 2.33 11.98
4/6/2021 10:15:00 AM 7.39 45.302 0.05 6.97 2.26 11.99
4/6/2021 10:30:00 AM 7.55 45.59 0.05 6.99 2.32 11.98
4/6/2021 10:45:00 AM 7.72 45.896 0.05 7 2.26 11.96
4/6/2021 11:00:00 AM 7.9 46.22 0.05 7.03 2.25 11.93
4/6/2021 11:15:00 AM 8.12 46.616 0.05 7.04 2.24 11.9
4/6/2021 11:30:00 AM 8.36 47.048 0.05 7.06 2.21 11.86
4/6/2021 11:45:00 AM 8.61 47.498 0.05 7.07 2.17 11.8
4/6/2021 12:00:00 PM 8.87 47.966 0.05 7.08 2.26 11.75
4/6/2021 12:15:00 PM 9.18 48.524 0.05 7.1 2.3 11.7
4/6/2021 12:30:00 PM 9.46 49.028 0.05 7.11 2.22 11.63
4/6/2021 12:45:00 PM 9.74 49.532 0.05 7.12 2.25 11.57
4/6/2021 1:00:00 PM 10.03 50.054 0.05 7.13 2.28 11.49
4/6/2021 1:15:00 PM 10.34 50.612 0.049 7.14 2.16 11.44
4/6/2021 1:30:00 PM 10.63 51.134 0.049 7.14 2.19 11.36
4/6/2021 1:45:00 PM 10.91 51.638 0.049 7.15 2.18 11.28
4/6/2021 2:00:00 PM 11.21 52.178 0.049 7.16 2.15 11.21
4/6/2021 2:15:00 PM 11.49 52.682 0.049 7.16 2.13 11.14
4/6/2021 2:30:00 PM 11.74 53.132 0.049 7.17 2.25 11.06
4/6/2021 2:45:00 PM 11.92 53.456 0.049 7.17 2.21 10.99
4/6/2021 3:00:00 PM 12.2 53.96 0.049 7.17 2.17 10.93
4/6/2021 3:15:00 PM 12.26 54.068 0.049 7.15 2.15 10.85
4/6/2021 3:30:00 PM 12.26 54.068 0.049 7.14 2.18 10.81
4/6/2021 3:45:00 PM 12.26 54.068 0.049 7.13 2.24 10.77
4/6/2021 4:00:00 PM 12.24 54.032 0.049 7.13 2.28 10.73
4/6/2021 4:15:00 PM 12.3 54.14 0.049 7.13 2.29 10.7
4/6/2021 4:30:00 PM 12.44 54.392 0.049 7.17 2.28 10.68
4/6/2021 4:45:00 PM 12.55 54.59 0.049 7.16 2.39 10.66
4/6/2021 5:00:00 PM 12.63 54.734 0.049 7.15 2.46 10.62
4/6/2021 5:15:00 PM 12.62 54.716 0.049 7.12 2.35 10.58
4/6/2021 5:30:00 PM 12.61 54.698 0.049 7.12 2.34 10.55
4/6/2021 5:45:00 PM 12.55 54.59 0.049 7.09 2.36 10.5
4/6/2021 6:00:00 PM 12.51 54.518 0.049 7.07 2.4 10.46
4/6/2021 6:15:00 PM 12.5 54.5 0.049 7.06 2.33 10.44
4/6/2021 6:30:00 PM 12.5 54.5 0.049 7.06 2.45 10.44
4/6/2021 6:45:00 PM 12.45 54.41 0.049 7.03 2.38 10.41
4/6/2021 7:00:00 PM 12.37 54.266 0.05 7.01 2.45 10.36
4/6/2021 7:15:00 PM 12.26 54.068 0.05 6.98 2.46 10.32
4/6/2021 7:30:00 PM 12.16 53.888 0.05 6.95 2.42 10.28
4/6/2021 7:45:00 PM 12.05 53.69 0.05 6.92 2.53 10.24
4/6/2021 8:00:00 PM 11.94 53.492 0.05 6.88 2.47 10.21
4/6/2021 8:15:00 PM 11.83 53.294 0.05 6.86 2.71 10.18
4/6/2021 8:30:00 PM 11.73 53.114 0.05 6.84 2.56 10.17
4/6/2021 8:45:00 PM 11.63 52.934 0.05 6.82 2.5 10.17
4/6/2021 9:00:00 PM 11.52 52.736 0.05 6.81 2.56 10.18
4/6/2021 9:15:00 PM 11.41 52.538 0.05 6.79 2.55 10.19
4/6/2021 9:30:00 PM 11.3 52.34 0.051 6.78 2.66 10.2
4/6/2021 9:45:00 PM 11.19 52.142 0.051 6.78 2.78 10.23
4/6/2021 10:00:00 PM 11.08 51.944 0.051 6.77 2.66 10.25
4/6/2021 10:15:00 PM 10.96 51.728 0.051 6.76 2.57 10.27
4/6/2021 10:30:00 PM 10.85 51.53 0.051 6.76 2.65 10.3
4/6/2021 10:45:00 PM 10.74 51.332 0.051 6.75 2.61 10.33
4/6/2021 11:00:00 PM 10.63 51.134 0.051 6.75 2.71 10.35
4/6/2021 11:15:00 PM 10.53 50.954 0.051 6.75 2.56 10.38
4/6/2021 11:30:00 PM 10.44 50.792 0.051 6.75 2.65 10.4
4/6/2021 11:45:00 PM 10.36 50.648 0.051 6.74 2.6 10.42
4/7/2021 12:00:00 AM 10.28 50.504 0.051 6.74 2.55 10.44
4/7/2021 12:15:00 AM 10.21 50.378 0.051 6.75 2.61 10.48
4/7/2021 12:30:00 AM 10.13 50.234 0.051 6.75 4.09 10.5
4/7/2021 12:45:00 AM 10.05 50.09 0.051 6.75 6.05 10.52
4/7/2021 1:00:00 AM 9.97 49.946 0.051 6.75 2.71 10.54
4/7/2021 1:15:00 AM 9.89 49.802 0.051 6.74 2.74 10.56
4/7/2021 1:30:00 AM 9.83 49.694 0.051 6.74 2.68 10.58
4/7/2021 1:45:00 AM 9.75 49.55 0.051 6.75 3.06 10.6
4/7/2021 2:00:00 AM 9.66 49.388 0.051 6.75 2.99 10.62
4/7/2021 2:15:00 AM 9.58 49.244 0.051 6.74 3.04 10.64
4/7/2021 2:30:00 AM 9.5 49.1 0.051 6.74 2.55 10.65
4/7/2021 2:45:00 AM 9.41 48.938 0.052 6.74 2.72 10.68
4/7/2021 3:00:00 AM 9.33 48.794 0.052 6.74 2.57 10.69
4/7/2021 3:15:00 AM 9.25 48.65 0.052 6.75 2.6 10.72
4/7/2021 3:30:00 AM 9.18 48.524 0.052 6.75 2.64 10.74
4/7/2021 3:45:00 AM 9.12 48.416 0.052 6.74 2.65 10.76
4/7/2021 4:00:00 AM 9.07 48.326 0.052 6.75 2.62 10.78
4/7/2021 4:15:00 AM 9.01 48.218 0.052 6.74 2.58 10.8
4/7/2021 4:30:00 AM 8.96 48.128 0.052 6.75 2.64 10.82
4/7/2021 4:45:00 AM 8.91 48.038 0.052 6.75 2.49 10.83
4/7/2021 5:00:00 AM 8.86 47.948 0.052 6.76 2.64 10.84
4/7/2021 5:15:00 AM 8.82 47.876 0.052 6.75 2.64 10.86
4/7/2021 5:30:00 AM 8.78 47.804 0.052 6.76 2.58 10.87
4/7/2021 5:45:00 AM 8.74 47.732 0.052 6.76 2.59 10.89
4/7/2021 6:00:00 AM 8.7 47.66 0.052 6.77 2.56 10.9
4/7/2021 6:15:00 AM 8.65 47.57 0.052 6.77 2.54 10.91
4/7/2021 6:30:00 AM 8.61 47.498 0.052 6.76 2.6 10.93
4/7/2021 6:45:00 AM 8.57 47.426 0.052 6.76 2.55 10.94
4/7/2021 7:00:00 AM 8.53 47.354 0.052 6.76 2.53 10.96
4/7/2021 7:15:00 AM 8.5 47.3 0.052 6.77 2.62 10.99
4/7/2021 7:30:00 AM 8.47 47.246 0.052 6.77 2.53 11.03
4/7/2021 7:45:00 AM 8.45 47.21 0.052 6.78 2.51 11.07
4/7/2021 8:00:00 AM 8.44 47.192 0.051 6.79 2.56 11.14
4/7/2021 8:15:00 AM 8.44 47.192 0.052 6.82 2.39 11.23
4/7/2021 8:30:00 AM 8.46 47.228 0.051 6.85 2.44 11.32
4/7/2021 8:45:00 AM 8.48 47.264 0.051 6.87 2.43 11.38
4/7/2021 9:00:00 AM 8.51 47.318 0.051 6.9 2.38 11.44
4/7/2021 9:15:00 AM 8.58 47.444 0.051 6.92 2.35 11.48
4/7/2021 9:30:00 AM 8.67 47.606 0.051 6.95 2.32 11.51
4/7/2021 9:45:00 AM 8.77 47.786 0.051 6.97 2.35 11.53
4/7/2021 10:00:00 AM 8.9 48.02 0.051 7 2.33 11.54
4/7/2021 10:15:00 AM 9.05 48.29 0.051 7.02 2.32 11.54
4/7/2021 10:30:00 AM 9.22 48.596 0.051 7.04 2.37 11.53
4/7/2021 10:45:00 AM 9.42 48.956 0.051 7.07 2.38 11.52
4/7/2021 11:00:00 AM 9.63 49.334 0.05 7.08 2.29 11.49
4/7/2021 11:15:00 AM 9.85 49.73 0.05 7.11 2.26 11.45
4/7/2021 11:30:00 AM 10.1 50.18 0.05 7.12 2.25 11.41
4/7/2021 11:45:00 AM 10.36 50.648 0.05 7.14 2.35 11.37
4/7/2021 12:00:00 PM 10.64 51.152 0.05 7.15 2.29 11.32
4/7/2021 12:15:00 PM 10.95 51.71 0.05 7.16 2.33 11.27
4/7/2021 12:30:00 PM 11.26 52.268 0.05 7.17 2.18 11.21
4/7/2021 12:45:00 PM 11.62 52.916 0.05 7.19 2.24 11.15
4/7/2021 1:00:00 PM 11.83 53.294 0.05 7.19 2.21 11.08
4/7/2021 1:15:00 PM 11.96 53.528 0.05 7.19 2.29 11.02
4/7/2021 1:30:00 PM 12.1 53.78 0.05 7.19 2.27 10.95
4/7/2021 1:45:00 PM 12.28 54.104 0.05 7.2 2.3 10.91
4/7/2021 2:00:00 PM 12.39 54.302 0.05 7.2 2.46 10.86
4/7/2021 2:15:00 PM 12.62 54.716 0.05 7.2 2.45 10.81
4/7/2021 2:30:00 PM 12.64 54.752 0.05 7.19 2.24 10.76
4/7/2021 2:45:00 PM 12.83 55.094 0.05 7.2 2.31 10.71
4/7/2021 3:00:00 PM 12.89 55.202 0.05 7.19 2.26 10.65
4/7/2021 3:15:00 PM 13.01 55.418 0.05 7.2 2.38 10.6
4/7/2021 3:30:00 PM 13.13 55.634 0.05 7.2 2.3 10.57
4/7/2021 3:45:00 PM 13.15 55.67 0.05 7.18 2.42 10.51
4/7/2021 4:00:00 PM 13.23 55.814 0.05 7.19 2.22 10.49
4/7/2021 4:15:00 PM 13.4 56.12 0.05 7.21 2.26 10.49
4/7/2021 4:30:00 PM 13.65 56.57 0.05 7.23 2.26 10.47
4/7/2021 4:45:00 PM 13.76 56.768 0.05 7.22 2.22 10.43
4/7/2021 5:00:00 PM 13.78 56.804 0.05 7.19 2.39 10.37
4/7/2021 5:15:00 PM 13.8 56.84 0.05 7.19 2.4 10.35
4/7/2021 5:30:00 PM 13.8 56.84 0.05 7.17 2.42 10.31
4/7/2021 5:45:00 PM 13.8 56.84 0.05 7.15 2.38 10.28
4/7/2021 6:00:00 PM 13.79 56.822 0.05 7.14 2.37 10.26
4/7/2021 6:15:00 PM 13.77 56.786 0.05 7.14 2.38 10.23
4/7/2021 6:30:00 PM 13.73 56.714 0.05 7.11 2.5 10.2
4/7/2021 6:45:00 PM 13.65 56.57 0.05 7.09 2.61 10.16
4/7/2021 7:00:00 PM 13.57 56.426 0.05 7.06 2.78 10.12
4/7/2021 7:15:00 PM 13.49 56.282 0.05 7.04 2.64 10.06
4/7/2021 7:30:00 PM 13.4 56.12 0.05 7.01 2.59 10
4/7/2021 7:45:00 PM 13.3 55.94 0.05 6.96 2.52 9.95
4/7/2021 8:00:00 PM 13.2 55.76 0.051 6.93 2.41 9.9
4/7/2021 8:15:00 PM 13.08 55.544 0.051 6.91 2.51 9.87
4/7/2021 8:30:00 PM 12.97 55.346 0.051 6.88 2.63 9.85
4/7/2021 8:45:00 PM 12.85 55.13 0.051 6.87 2.49 9.85
4/7/2021 9:00:00 PM 12.74 54.932 0.051 6.84 2.62 9.85
4/7/2021 9:15:00 PM 12.63 54.734 0.051 6.82 2.62 9.86
4/7/2021 9:30:00 PM 12.52 54.536 0.051 6.81 2.69 9.88
4/7/2021 9:45:00 PM 12.41 54.338 0.051 6.81 2.84 9.9
4/7/2021 10:00:00 PM 12.3 54.14 0.051 6.8 2.97 9.91
4/7/2021 10:15:00 PM 12.18 53.924 0.052 6.79 3.07 9.94
4/7/2021 10:30:00 PM 12.05 53.69 0.052 6.77 2.95 9.96
4/7/2021 10:45:00 PM 11.93 53.474 0.052 6.76 2.92 10
4/7/2021 11:00:00 PM 11.8 53.24 0.052 6.75 2.8 10.03
4/7/2021 11:15:00 PM 11.68 53.024 0.052 6.76 2.75 10.06
4/7/2021 11:30:00 PM 11.57 52.826 0.052 6.76 3.9 10.09
4/7/2021 11:45:00 PM 11.45 52.61 0.052 6.76 8.6 10.11
4/8/2021 12:00:00 AM 11.34 52.412 0.052 6.76 13.41 10.14
4/8/2021 12:15:00 AM 11.25 52.25 0.052 6.76 10.86 10.17
4/8/2021 12:30:00 AM 11.15 52.07 0.052 6.75 7.09 10.19
4/8/2021 12:45:00 AM 11.05 51.89 0.052 6.76 4.67 10.21
4/8/2021 1:00:00 AM 10.95 51.71 0.052 6.75 3.77 10.24
4/8/2021 1:15:00 AM 10.85 51.53 0.052 6.75 3.32 10.27
4/8/2021 1:30:00 AM 10.76 51.368 0.052 6.77 3.18 10.29
4/8/2021 1:45:00 AM 10.67 51.206 0.052 6.75 3.04 10.32
4/8/2021 2:00:00 AM 10.58 51.044 0.052 6.76 2.97 10.34
4/8/2021 2:15:00 AM 10.48 50.864 0.052 6.76 3.14 10.37
4/8/2021 2:30:00 AM 10.38 50.684 0.052 6.77 2.97 10.39
4/8/2021 2:45:00 AM 10.29 50.522 0.052 6.76 2.97 10.42
4/8/2021 3:00:00 AM 10.2 50.36 0.052 6.77 2.92 10.43
4/8/2021 3:15:00 AM 10.12 50.216 0.052 6.75 2.82 10.45
4/8/2021 3:30:00 AM 10.03 50.054 0.052 6.75 2.87 10.49
4/8/2021 3:45:00 AM 9.95 49.91 0.052 6.76 2.83 10.5
4/8/2021 4:00:00 AM 9.86 49.748 0.052 6.75 2.89 10.53
4/8/2021 4:15:00 AM 9.78 49.604 0.052 6.76 2.79 10.56
4/8/2021 4:30:00 AM 9.7 49.46 0.052 6.77 2.82 10.58
4/8/2021 4:45:00 AM 9.62 49.316 0.052 6.75 2.81 10.6
4/8/2021 5:00:00 AM 9.54 49.172 0.052 6.76 2.83 10.62
4/8/2021 5:15:00 AM 9.46 49.028 0.052 6.76 2.83 10.64
4/8/2021 5:30:00 AM 9.38 48.884 0.052 6.75 2.76 10.67
4/8/2021 5:45:00 AM 9.3 48.74 0.052 6.76 2.71 10.69
4/8/2021 6:00:00 AM 9.22 48.596 0.052 6.77 2.79 10.71
4/8/2021 6:15:00 AM 9.14 48.452 0.052 6.76 2.74 10.73
4/8/2021 6:30:00 AM 9.06 48.308 0.052 6.76 2.71 10.76
4/8/2021 6:45:00 AM 8.99 48.182 0.052 6.75 2.72 10.78
4/8/2021 7:00:00 AM 8.92 48.056 0.052 6.77 2.71 10.82
4/8/2021 7:15:00 AM 8.85 47.93 0.052 6.78 2.91 10.87
4/8/2021 7:30:00 AM 8.79 47.822 0.052 6.8 2.65 10.94
4/8/2021 7:45:00 AM 8.74 47.732 0.052 6.82 2.67 11.02
4/8/2021 8:00:00 AM 8.71 47.678 0.052 6.82 2.63 11.1
4/8/2021 8:15:00 AM 8.68 47.624 0.052 6.84 2.55 11.19
4/8/2021 8:30:00 AM 8.68 47.624 0.052 6.86 2.62 11.25
4/8/2021 8:45:00 AM 8.7 47.66 0.052 6.9 2.51 11.32
4/8/2021 9:00:00 AM 8.75 47.75 0.052 6.93 2.42 11.37
4/8/2021 9:15:00 AM 8.82 47.876 0.052 6.94 2.45 11.42
4/8/2021 9:30:00 AM 8.91 48.038 0.052 6.97 2.5 11.45
4/8/2021 9:45:00 AM 9.03 48.254 0.051 7 2.72 11.47
4/8/2021 10:00:00 AM 9.19 48.542 0.051 7.02 2.49 11.48
4/8/2021 10:15:00 AM 9.37 48.866 0.051 7.05 2.53 11.48
4/8/2021 10:30:00 AM 9.57 49.226 0.051 7.08 2.51 11.47
4/8/2021 10:45:00 AM 9.79 49.622 0.051 7.1 2.39 11.46
4/8/2021 11:00:00 AM 10.02 50.036 0.051 7.12 2.5 11.43
4/8/2021 11:15:00 AM 10.27 50.486 0.051 7.15 2.42 11.4
4/8/2021 11:30:00 AM 10.53 50.954 0.051 7.17 2.45 11.36
4/8/2021 11:45:00 AM 10.82 51.476 0.051 7.18 2.33 11.31
4/8/2021 12:00:00 PM 11.11 51.998 0.051 7.19 2.34 11.25
4/8/2021 12:15:00 PM 11.41 52.538 0.051 7.21 2.36 11.19
4/8/2021 12:30:00 PM 11.72 53.096 0.051 7.21 2.38 11.14
4/8/2021 12:45:00 PM 12.03 53.654 0.051 7.23 2.49 11.07
4/8/2021 1:00:00 PM 12.34 54.212 0.051 7.23 2.42 11.01
4/8/2021 1:15:00 PM 12.63 54.734 0.051 7.26 2.35 10.95
4/8/2021 1:30:00 PM 12.92 55.256 0.051 7.27 2.37 10.88
4/8/2021 1:45:00 PM 13.2 55.76 0.05 7.27 2.3 10.81
4/8/2021 2:00:00 PM 13.48 56.264 0.051 7.28 2.38 10.75
4/8/2021 2:15:00 PM 13.73 56.714 0.05 7.29 2.32 10.68
4/8/2021 2:30:00 PM 13.98 57.164 0.05 7.3 2.26 10.62
4/8/2021 2:45:00 PM 14.22 57.596 0.05 7.3 2.19 10.55
4/8/2021 3:00:00 PM 14.43 57.974 0.05 7.31 2.34 10.49
4/8/2021 3:15:00 PM 14.63 58.334 0.05 7.31 2.3 10.43
4/8/2021 3:30:00 PM 14.79 58.622 0.05 7.31 2.31 10.38
4/8/2021 3:45:00 PM 14.94 58.892 0.05 7.32 2.39 10.33
4/8/2021 4:00:00 PM 15.07 59.126 0.05 7.31 2.28 10.27
4/8/2021 4:15:00 PM 15.19 59.342 0.05 7.31 2.24 10.22
4/8/2021 4:30:00 PM 15.28 59.504 0.05 7.3 2.31 10.18
4/8/2021 4:45:00 PM 15.34 59.612 0.05 7.29 2.36 10.14
4/8/2021 5:00:00 PM 15.39 59.702 0.05 7.29 2.26 10.1
4/8/2021 5:15:00 PM 15.4 59.72 0.05 7.27 2.27 10.06
4/8/2021 5:30:00 PM 15.39 59.702 0.05 7.25 2.38 10.02
4/8/2021 5:45:00 PM 15.37 59.666 0.05 7.23 2.38 9.99
4/8/2021 6:00:00 PM 15.31 59.558 0.05 7.22 2.45 9.95
4/8/2021 6:15:00 PM 15.24 59.432 0.05 7.19 2.39 9.91
4/8/2021 6:30:00 PM 15.14 59.252 0.05 7.16 2.45 9.87
4/8/2021 6:45:00 PM 15.01 59.018 0.051 7.13 2.47 9.82
4/8/2021 7:00:00 PM 14.89 58.802 0.051 7.09 2.42 9.76
4/8/2021 7:15:00 PM 14.78 58.604 0.051 7.06 2.37 9.71
4/8/2021 7:30:00 PM 14.66 58.388 0.051 7.04 2.46 9.66
4/8/2021 7:45:00 PM 14.52 58.136 0.051 7 2.67 9.61
4/8/2021 8:00:00 PM 14.37 57.866 0.051 6.95 2.42 9.57
4/8/2021 8:15:00 PM 14.22 57.596 0.051 6.93 2.45 9.55
4/8/2021 8:30:00 PM 14.07 57.326 0.052 6.92 2.63 9.55
4/8/2021 8:45:00 PM 13.93 57.074 0.052 6.91 2.63 9.55
4/8/2021 9:00:00 PM 13.79 56.822 0.052 6.9 2.61 9.56
4/8/2021 9:15:00 PM 13.65 56.57 0.052 6.88 2.64 9.58
4/8/2021 9:30:00 PM 13.51 56.318 0.052 6.87 2.59 9.6
4/8/2021 9:45:00 PM 13.38 56.084 0.052 6.86 2.55 9.62
4/8/2021 10:00:00 PM 13.25 55.85 0.052 6.87 2.58 9.65
4/8/2021 10:15:00 PM 13.12 55.616 0.052 6.86 2.72 9.68
4/8/2021 10:30:00 PM 13 55.4 0.052 6.87 2.72 9.71
4/8/2021 10:45:00 PM 12.88 55.184 0.052 6.85 2.63 9.74
4/8/2021 11:00:00 PM 12.76 54.968 0.052 6.85 2.68 9.77
4/8/2021 11:15:00 PM 12.63 54.734 0.052 6.85 2.65 9.8
4/8/2021 11:30:00 PM 12.52 54.536 0.053 6.85 2.66 9.83
4/8/2021 11:45:00 PM 12.41 54.338 0.053 6.85 2.62 9.85
4/9/2021 12:00:00 AM 12.32 54.176 0.053 6.86 2.6 9.88
4/9/2021 12:15:00 AM 12.23 54.014 0.053 6.86 2.52 9.9
4/9/2021 12:30:00 AM 12.14 53.852 0.053 6.85 2.66 9.93
4/9/2021 12:45:00 AM 12.06 53.708 0.053 6.85 2.61 9.95
4/9/2021 1:00:00 AM 11.99 53.582 0.053 6.85 2.63 9.97
4/9/2021 1:15:00 AM 11.91 53.438 0.053 6.86 2.65 9.99
4/9/2021 1:30:00 AM 11.84 53.312 0.053 6.85 2.68 10.01
4/9/2021 1:45:00 AM 11.76 53.168 0.053 6.85 2.73 10.03
4/9/2021 2:00:00 AM 11.7 53.06 0.053 6.87 2.77 10.05
4/9/2021 2:15:00 AM 11.63 52.934 0.053 6.85 2.71 10.07
4/9/2021 2:30:00 AM 11.57 52.826 0.053 6.86 2.62 10.09
4/9/2021 2:45:00 AM 11.52 52.736 0.053 6.85 2.66 10.1
4/9/2021 3:00:00 AM 11.46 52.628 0.053 6.86 2.72 10.12
4/9/2021 3:15:00 AM 11.41 52.538 0.053 6.86 2.78 10.13
4/9/2021 3:30:00 AM 11.36 52.448 0.053 6.86 2.74 10.15
4/9/2021 3:45:00 AM 11.31 52.358 0.053 6.86 2.78 10.16
4/9/2021 4:00:00 AM 11.27 52.286 0.053 6.87 2.66 10.17
4/9/2021 4:15:00 AM 11.22 52.196 0.053 6.86 2.75 10.19
4/9/2021 4:30:00 AM 11.18 52.124 0.053 6.86 2.67 10.19
4/9/2021 4:45:00 AM 11.13 52.034 0.053 6.86 2.73 10.21
4/9/2021 5:00:00 AM 11.09 51.962 0.053 6.85 2.66 10.22
4/9/2021 5:15:00 AM 11.05 51.89 0.053 6.87 2.67 10.23
4/9/2021 5:30:00 AM 11.01 51.818 0.053 6.85 2.59 10.24
4/9/2021 5:45:00 AM 10.97 51.746 0.053 6.86 2.68 10.25
4/9/2021 6:00:00 AM 10.93 51.674 0.053 6.86 2.58 10.26
4/9/2021 6:15:00 AM 10.9 51.62 0.053 6.87 2.63 10.28
4/9/2021 6:30:00 AM 10.86 51.548 0.053 6.87 2.62 10.28
4/9/2021 6:45:00 AM 10.82 51.476 0.053 6.86 2.59 10.3
4/9/2021 7:00:00 AM 10.79 51.422 0.053 6.87 2.55 10.31
4/9/2021 7:15:00 AM 10.75 51.35 0.053 6.88 2.51 10.32
4/9/2021 7:30:00 AM 10.72 51.296 0.053 6.87 2.57 10.36
4/9/2021 7:45:00 AM 10.69 51.242 0.053 6.86 2.63 10.39
4/9/2021 8:00:00 AM 10.66 51.188 0.053 6.88 2.58 10.42
4/9/2021 8:15:00 AM 10.64 51.152 0.053 6.89 2.5 10.46
4/9/2021 8:30:00 AM 10.62 51.116 0.053 6.9 2.46 10.51
4/9/2021 8:45:00 AM 10.61 51.098 0.053 6.92 2.48 10.57
4/9/2021 9:00:00 AM 10.59 51.062 0.053 6.93 2.46 10.61
4/9/2021 9:15:00 AM 10.59 51.062 0.053 6.94 2.43 10.66
4/9/2021 9:30:00 AM 10.59 51.062 0.052 6.96 2.4 10.75
4/9/2021 9:45:00 AM 10.61 51.098 0.052 6.97 2.37 10.82
4/9/2021 10:00:00 AM 10.62 51.116 0.052 7.02 2.36 10.86
4/9/2021 10:15:00 AM 10.63 51.134 0.052 7.03 2.36 10.9
4/9/2021 10:30:00 AM 10.66 51.188 0.052 7.04 2.4 10.95
4/9/2021 10:45:00 AM 10.69 51.242 0.052 7.07 2.4 10.99
4/9/2021 11:00:00 AM 10.71 51.278 0.052 7.07 2.35 11
4/9/2021 11:15:00 AM 10.75 51.35 0.052 7.11 2.37 11.03
4/9/2021 11:30:00 AM 10.77 51.386 0.052 7.12 2.37 11.04
4/9/2021 11:45:00 AM 10.79 51.422 0.052 7.13 2.32 11.04
4/9/2021 12:00:00 PM 10.81 51.458 0.052 7.12 2.31 11.04
4/9/2021 12:15:00 PM 10.83 51.494 0.052 7.14 2.33 11.05
4/9/2021 12:30:00 PM 10.87 51.566 0.051 7.16 2.34 11.06
4/9/2021 12:45:00 PM 10.92 51.656 0.051 7.17 2.27 11.08
4/9/2021 1:00:00 PM 10.96 51.728 0.051 7.19 2.35 11.08
4/9/2021 1:15:00 PM 10.99 51.782 0.051 7.19 2.39 11.08
4/9/2021 1:30:00 PM 11.02 51.836 0.051 7.2 2.42 11.08
4/9/2021 1:45:00 PM 11.06 51.908 0.051 7.2 2.36 11.07
4/9/2021 2:00:00 PM 11.11 51.998 0.051 7.22 2.51 11.08
4/9/2021 2:15:00 PM 11.18 52.124 0.051 7.23 2.28 11.08
4/9/2021 2:30:00 PM 11.22 52.196 0.051 7.24 2.34 11.08
4/9/2021 2:45:00 PM 11.27 52.286 0.051 7.24 2.38 11.07
4/9/2021 3:00:00 PM 11.3 52.34 0.051 7.24 2.27 11.06
4/9/2021 3:15:00 PM 11.35 52.43 0.051 7.25 2.23 11.05
4/9/2021 3:30:00 PM 11.38 52.484 0.051 7.25 2.27 11.03
4/9/2021 3:45:00 PM 11.41 52.538 0.051 7.25 2.32 11.02
4/9/2021 4:00:00 PM 11.42 52.556 0.051 7.24 2.28 10.98
4/9/2021 4:15:00 PM 11.43 52.574 0.051 7.23 2.36 10.96
4/9/2021 4:30:00 PM 11.44 52.592 0.051 7.22 2.26 10.93
4/9/2021 4:45:00 PM 11.47 52.646 0.051 7.22 2.23 10.91
4/9/2021 5:00:00 PM 11.49 52.682 0.051 7.21 2.29 10.91
4/9/2021 5:15:00 PM 11.52 52.736 0.051 7.22 2.25 10.9
4/9/2021 5:30:00 PM 11.56 52.808 0.051 7.22 2.25 10.89
4/9/2021 5:45:00 PM 11.59 52.862 0.051 7.21 2.29 10.88
4/9/2021 6:00:00 PM 11.6 52.88 0.051 7.21 2.27 10.85
4/9/2021 6:15:00 PM 11.59 52.862 0.051 7.19 2.25 10.81
4/9/2021 6:30:00 PM 11.58 52.844 0.051 7.15 2.27 10.75
4/9/2021 6:45:00 PM 11.55 52.79 0.051 7.13 2.26 10.68
4/9/2021 7:00:00 PM 11.52 52.736 0.051 7.09 2.33 10.59
4/9/2021 7:15:00 PM 11.49 52.682 0.051 7.06 2.32 10.51
4/9/2021 7:30:00 PM 11.46 52.628 0.052 7.03 2.59 10.44
4/9/2021 7:45:00 PM 11.42 52.556 0.052 7 2.39 10.38
4/9/2021 8:00:00 PM 11.39 52.502 0.052 6.97 2.92 10.34
4/9/2021 8:15:00 PM 11.35 52.43 0.052 6.96 2.47 10.3
4/9/2021 8:30:00 PM 11.31 52.358 0.052 6.94 2.47 10.28
4/9/2021 8:45:00 PM 11.28 52.304 0.052 6.94 2.44 10.26
4/9/2021 9:00:00 PM 11.24 52.232 0.052 6.93 2.45 10.25
4/9/2021 9:15:00 PM 11.21 52.178 0.052 6.91 2.49 10.24
4/9/2021 9:30:00 PM 11.17 52.106 0.052 6.91 2.49 10.25
4/9/2021 9:45:00 PM 11.14 52.052 0.053 6.91 2.6 10.25
4/9/2021 10:00:00 PM 11.11 51.998 0.053 6.9 2.48 10.25
4/9/2021 10:15:00 PM 11.08 51.944 0.053 6.9 2.52 10.26
4/9/2021 10:30:00 PM 11.05 51.89 0.053 6.88 2.54 10.26
4/9/2021 10:45:00 PM 11.02 51.836 0.053 6.88 2.48 10.26
4/9/2021 11:00:00 PM 10.99 51.782 0.053 6.89 2.51 10.27
4/9/2021 11:15:00 PM 10.96 51.728 0.053 6.88 2.43 10.28
4/9/2021 11:30:00 PM 10.93 51.674 0.053 6.88 2.42 10.28
4/9/2021 11:45:00 PM 10.91 51.638 0.053 6.88 2.45 10.29
4/10/2021 12:00:00 AM 10.88 51.584 0.053 6.89 2.51 10.3
4/10/2021 12:15:00 AM 10.85 51.53 0.053 6.88 2.46 10.3
4/10/2021 12:30:00 AM 10.83 51.494 0.053 6.88 2.46 10.31
4/10/2021 12:45:00 AM 10.8 51.44 0.053 6.87 2.38 10.32
4/10/2021 1:00:00 AM 10.78 51.404 0.053 6.88 2.37 10.33
4/10/2021 1:15:00 AM 10.75 51.35 0.053 6.88 2.54 10.33
4/10/2021 1:30:00 AM 10.73 51.314 0.053 6.89 2.41 10.34
4/10/2021 1:45:00 AM 10.71 51.278 0.053 6.88 2.49 10.34
4/10/2021 2:00:00 AM 10.68 51.224 0.053 6.89 2.41 10.35
4/10/2021 2:15:00 AM 10.66 51.188 0.053 6.88 2.44 10.36
4/10/2021 2:30:00 AM 10.64 51.152 0.053 6.87 2.48 10.36
4/10/2021 2:45:00 AM 10.62 51.116 0.053 6.88 2.37 10.37
4/10/2021 3:00:00 AM 10.59 51.062 0.053 6.87 2.52 10.37
4/10/2021 3:15:00 AM 10.57 51.026 0.053 6.87 2.41 10.38
4/10/2021 3:30:00 AM 10.55 50.99 0.053 6.88 2.53 10.38
4/10/2021 3:45:00 AM 10.53 50.954 0.053 6.87 2.53 10.39
4/10/2021 4:00:00 AM 10.51 50.918 0.053 6.88 2.54 10.39
4/10/2021 4:15:00 AM 10.49 50.882 0.054 6.88 2.46 10.39
4/10/2021 4:30:00 AM 10.47 50.846 0.054 6.87 2.47 10.4
4/10/2021 4:45:00 AM 10.45 50.81 0.054 6.86 2.55 10.4
4/10/2021 5:00:00 AM 10.43 50.774 0.054 6.86 2.43 10.4
4/10/2021 5:15:00 AM 10.41 50.738 0.054 6.88 2.44 10.41
4/10/2021 5:30:00 AM 10.4 50.72 0.054 6.87 2.44 10.41
4/10/2021 5:45:00 AM 10.38 50.684 0.054 6.87 2.42 10.41
4/10/2021 6:00:00 AM 10.37 50.666 0.054 6.88 2.47 10.43
4/10/2021 6:15:00 AM 10.35 50.63 0.054 6.87 2.42 10.42
4/10/2021 6:30:00 AM 10.33 50.594 0.054 6.87 2.41 10.43
4/10/2021 6:45:00 AM 10.32 50.576 0.054 6.88 2.48 10.44
4/10/2021 7:00:00 AM 10.31 50.558 0.054 6.87 2.47 10.46
4/10/2021 7:15:00 AM 10.3 50.54 0.054 6.88 2.41 10.48
4/10/2021 7:30:00 AM 10.3 50.54 0.054 6.88 2.41 10.51
4/10/2021 7:45:00 AM 10.3 50.54 0.054 6.89 2.46 10.56
4/10/2021 8:00:00 AM 10.31 50.558 0.054 6.93 2.44 10.64
4/10/2021 8:15:00 AM 10.33 50.594 0.053 6.94 2.39 10.71
4/10/2021 8:30:00 AM 10.35 50.63 0.053 6.96 2.43 10.8
4/10/2021 8:45:00 AM 10.39 50.702 0.053 7 2.34 10.87
4/10/2021 9:00:00 AM 10.44 50.792 0.053 7.02 2.42 10.94
4/10/2021 9:15:00 AM 10.51 50.918 0.053 7.06 2.37 10.99
4/10/2021 9:30:00 AM 10.56 51.008 0.053 7.08 2.32 11.04
4/10/2021 9:45:00 AM 10.64 51.152 0.053 7.11 2.3 11.07
4/10/2021 10:00:00 AM 10.78 51.404 0.053 7.15 2.34 11.1
4/10/2021 10:15:00 AM 10.97 51.746 0.053 7.19 2.29 11.11
4/10/2021 10:30:00 AM 11.12 52.016 0.052 7.21 2.43 11.12
4/10/2021 10:45:00 AM 11.27 52.286 0.052 7.23 2.32 11.11
4/10/2021 11:00:00 AM 11.48 52.664 0.052 7.26 2.24 11.09
4/10/2021 11:15:00 AM 11.71 53.078 0.052 7.28 2.42 11.07
4/10/2021 11:30:00 AM 11.95 53.51 0.052 7.3 2.39 11.03
4/10/2021 11:45:00 AM 12.22 53.996 0.052 7.31 2.4 10.99
4/10/2021 12:00:00 PM 12.49 54.482 0.052 7.33 2.23 10.95
4/10/2021 12:15:00 PM 12.76 54.968 0.052 7.34 2.32 10.9
4/10/2021 12:30:00 PM 13.04 55.472 0.052 7.36 2.25 10.86
4/10/2021 12:45:00 PM 13.31 55.958 0.052 7.37 2.32 10.8
4/10/2021 1:00:00 PM 13.57 56.426 0.052 7.38 2.3 10.75
4/10/2021 1:15:00 PM 13.83 56.894 0.052 7.39 2.27 10.7
4/10/2021 1:30:00 PM 14.05 57.29 0.052 7.39 2.47 10.65
4/10/2021 1:45:00 PM 14.25 57.65 0.052 7.4 2.42 10.6
4/10/2021 2:00:00 PM 14.45 58.01 0.052 7.41 2.46 10.55
4/10/2021 2:15:00 PM 14.64 58.352 0.052 7.42 2.37 10.5
4/10/2021 2:30:00 PM 14.82 58.676 0.051 7.43 2.29 10.45
4/10/2021 2:45:00 PM 15.01 59.018 0.051 7.43 2.48 10.4
4/10/2021 3:00:00 PM 15.19 59.342 0.052 7.44 2.32 10.35
4/10/2021 3:15:00 PM 15.31 59.558 0.052 7.43 2.36 10.31
4/10/2021 3:30:00 PM 15.39 59.702 0.051 7.43 2.32 10.26
4/10/2021 3:45:00 PM 15.47 59.846 0.051 7.43 2.32 10.22
4/10/2021 4:00:00 PM 15.57 60.026 0.051 7.44 2.24 10.19
4/10/2021 4:15:00 PM 15.66 60.188 0.051 7.44 2.86 10.15
4/10/2021 4:30:00 PM 15.73 60.314 0.051 7.42 2.59 10.11
4/10/2021 4:45:00 PM 15.75 60.35 0.051 7.41 2.41 10.07
4/10/2021 5:00:00 PM 15.76 60.368 0.051 7.39 2.46 10.04
4/10/2021 5:15:00 PM 15.73 60.314 0.051 7.37 2.4 9.99
4/10/2021 5:30:00 PM 15.69 60.242 0.051 7.35 2.4 9.96
4/10/2021 5:45:00 PM 15.65 60.17 0.051 7.34 2.33 9.93
4/10/2021 6:00:00 PM 15.59 60.062 0.051 7.31 2.41 9.9
4/10/2021 6:15:00 PM 15.53 59.954 0.051 7.29 2.46 9.86
4/10/2021 6:30:00 PM 15.47 59.846 0.051 7.26 2.37 9.82
4/10/2021 6:45:00 PM 15.39 59.702 0.051 7.23 2.37 9.77
4/10/2021 7:00:00 PM 15.3 59.54 0.052 7.19 2.3 9.71
4/10/2021 7:15:00 PM 15.19 59.342 0.052 7.15 2.49 9.64
4/10/2021 7:30:00 PM 15.08 59.144 0.052 7.11 2.38 9.58
4/10/2021 7:45:00 PM 14.95 58.91 0.052 7.09 2.31 9.51
4/10/2021 8:00:00 PM 14.82 58.676 0.052 7.04 2.34 9.45
4/10/2021 8:15:00 PM 14.7 58.46 0.052 7 2.45 9.41
4/10/2021 8:30:00 PM 14.58 58.244 0.053 6.98 2.52 9.38
4/10/2021 8:45:00 PM 14.46 58.028 0.053 6.97 2.52 9.36
4/10/2021 9:00:00 PM 14.34 57.812 0.053 6.95 2.66 9.36
4/10/2021 9:15:00 PM 14.24 57.632 0.053 6.94 2.76 9.37
4/10/2021 9:30:00 PM 14.13 57.434 0.053 6.93 2.54 9.37
4/10/2021 9:45:00 PM 14.03 57.254 0.053 6.93 2.62 9.39
4/10/2021 10:00:00 PM 13.94 57.092 0.053 6.91 2.6 9.41
4/10/2021 10:15:00 PM 13.85 56.93 0.054 6.91 2.57 9.42
4/10/2021 10:30:00 PM 13.76 56.768 0.053 6.91 2.58 9.44
4/10/2021 10:45:00 PM 13.67 56.606 0.054 6.91 2.49 9.46
4/10/2021 11:00:00 PM 13.59 56.462 0.054 6.91 2.62 9.48
4/10/2021 11:15:00 PM 13.51 56.318 0.054 6.91 2.55 9.5
4/10/2021 11:30:00 PM 13.43 56.174 0.054 6.9 2.61 9.51
4/10/2021 11:45:00 PM 13.36 56.048 0.054 6.91 2.7 9.53
4/11/2021 12:00:00 AM 13.28 55.904 0.054 6.9 2.58 9.55
4/11/2021 12:15:00 AM 13.21 55.778 0.054 6.91 2.56 9.57
4/11/2021 12:30:00 AM 13.15 55.67 0.054 6.9 2.52 9.58
4/11/2021 12:45:00 AM 13.09 55.562 0.054 6.9 2.6 9.59
4/11/2021 1:00:00 AM 13.03 55.454 0.054 6.91 2.58 9.61
4/11/2021 1:15:00 AM 12.97 55.346 0.054 6.9 2.5 9.62
4/11/2021 1:30:00 AM 12.91 55.238 0.054 6.88 2.59 9.63
4/11/2021 1:45:00 AM 12.86 55.148 0.054 6.9 2.57 9.65
4/11/2021 2:00:00 AM 12.81 55.058 0.054 6.91 2.56 9.66
4/11/2021 2:15:00 AM 12.76 54.968 0.054 6.9 2.52 9.66
4/11/2021 2:30:00 AM 12.71 54.878 0.054 6.91 2.66 9.67
4/11/2021 2:45:00 AM 12.66 54.788 0.054 6.91 2.56 9.68
4/11/2021 3:00:00 AM 12.62 54.716 0.054 6.9 2.56 9.69
4/11/2021 3:15:00 AM 12.57 54.626 0.054 6.9 2.56 9.69
4/11/2021 3:30:00 AM 12.52 54.536 0.054 6.89 2.67 9.71
4/11/2021 3:45:00 AM 12.48 54.464 0.054 6.89 2.64 9.71
4/11/2021 4:00:00 AM 12.44 54.392 0.055 6.91 2.6 9.72
4/11/2021 4:15:00 AM 12.4 54.32 0.055 6.9 2.54 9.72
4/11/2021 4:30:00 AM 12.36 54.248 0.054 6.89 2.74 9.73
4/11/2021 4:45:00 AM 12.33 54.194 0.057 6.89 2.76 9.73
4/11/2021 5:00:00 AM 12.29 54.122 0.056 6.89 2.85 9.74
4/11/2021 5:15:00 AM 12.26 54.068 0.059 6.9 3.4 9.75
4/11/2021 5:30:00 AM 12.23 54.014 0.055 6.89 3.01 9.75
4/11/2021 5:45:00 AM 12.19 53.942 0.055 6.89 2.96 9.75
4/11/2021 6:00:00 AM 12.16 53.888 0.055 6.89 2.89 9.76
4/11/2021 6:15:00 AM 12.12 53.816 0.056 6.88 3.33 9.77
4/11/2021 6:30:00 AM 12.09 53.762 0.055 6.88 3.14 9.77
4/11/2021 6:45:00 AM 12.06 53.708 0.055 6.87 3.07 9.79
4/11/2021 7:00:00 AM 12.03 53.654 0.054 6.87 3.01 9.8
4/11/2021 7:15:00 AM 12 53.6 0.054 6.88 3.22 9.81
4/11/2021 7:30:00 AM 11.98 53.564 0.054 6.87 3.24 9.83
4/11/2021 7:45:00 AM 11.95 53.51 0.055 6.88 3.55 9.86
4/11/2021 8:00:00 AM 11.93 53.474 0.055 6.88 3.64 9.89
4/11/2021 8:15:00 AM 11.9 53.42 0.054 6.89 3.64 9.93
4/11/2021 8:30:00 AM 11.88 53.384 0.054 6.9 3.35 9.96
4/11/2021 8:45:00 AM 11.86 53.348 0.054 6.92 3.5 10.02
4/11/2021 9:00:00 AM 11.85 53.33 0.056 6.93 3.63 10.06
4/11/2021 9:15:00 AM 11.84 53.312 0.055 6.95 3.82 10.12
4/11/2021 9:30:00 AM 11.83 53.294 0.054 6.96 4.07 10.18
4/11/2021 9:45:00 AM 11.83 53.294 0.054 6.99 4.11 10.24
4/11/2021 10:00:00 AM 11.83 53.294 0.054 7.01 4.27 10.3
4/11/2021 10:15:00 AM 11.85 53.33 0.055 7.02 4.19 10.37
4/11/2021 10:30:00 AM 11.88 53.384 0.055 7.06 4.45 10.42
4/11/2021 10:45:00 AM 11.91 53.438 0.055 7.09 4.22 10.47
4/11/2021 11:00:00 AM 11.96 53.528 0.055 7.11 4.81 10.5
4/11/2021 11:15:00 AM 12.02 53.636 0.055 7.13 4.57 10.52
4/11/2021 11:30:00 AM 12.11 53.798 0.055 7.16 4.96 10.56
4/11/2021 11:45:00 AM 12.2 53.96 0.055 7.19 4.79 10.58
4/11/2021 12:00:00 PM 12.3 54.14 0.056 7.22 4.95 10.59
4/11/2021 12:15:00 PM 12.46 54.428 0.056 7.25 4.94 10.6
4/11/2021 12:30:00 PM 12.62 54.716 0.056 7.26 4.7 10.59
4/11/2021 12:45:00 PM 12.74 54.932 0.056 7.28 4.91 10.56
4/11/2021 1:00:00 PM 12.84 55.112 0.057 7.3 5.21 10.56
4/11/2021 1:15:00 PM 12.93 55.274 0.057 7.3 5.24 10.54
4/11/2021 1:30:00 PM 13.12 55.616 0.057 7.33 5.67 10.51
4/11/2021 1:45:00 PM 13.27 55.886 0.058 7.33 6.49 10.46
4/11/2021 2:00:00 PM 13.31 55.958 0.058 7.32 6.04 10.39
4/11/2021 2:15:00 PM 13.31 55.958 0.058 7.26 5.67 10.26
4/11/2021 2:30:00 PM 13.32 55.976 0.058 7.24 5.79 10.2
4/11/2021 2:45:00 PM 13.34 56.012 0.058 7.24 6.02 10.19
4/11/2021 3:00:00 PM 13.3 55.94 0.058 7.19 5.63 10.11
4/11/2021 3:15:00 PM 13.24 55.832 0.058 7.17 5.54 10.07
4/11/2021 3:30:00 PM 13.2 55.76 0.058 7.15 5.22 10.08
4/11/2021 3:45:00 PM 13.17 55.706 0.058 7.16 5.36 10.09
4/11/2021 4:00:00 PM 13.17 55.706 0.058 7.16 5.28 10.13
4/11/2021 4:15:00 PM 13.24 55.832 0.058 7.19 5.12 10.17
4/11/2021 4:30:00 PM 13.31 55.958 0.058 7.2 4.94 10.2
4/11/2021 4:45:00 PM 13.36 56.048 0.058 7.22 4.75 10.22
4/11/2021 5:00:00 PM 13.38 56.084 0.058 7.22 4.8 10.22
4/11/2021 5:15:00 PM 13.39 56.102 0.058 7.22 4.69 10.21
4/11/2021 5:30:00 PM 13.44 56.192 0.057 7.24 4.55 10.22
4/11/2021 5:45:00 PM 13.5 56.3 0.057 7.23 4.47 10.22
4/11/2021 6:00:00 PM 13.53 56.354 0.057 7.24 4.63 10.2
4/11/2021 6:15:00 PM 13.52 56.336 0.057 7.23 4.37 10.18
4/11/2021 6:30:00 PM 13.51 56.318 0.057 7.22 4.14 10.17
4/11/2021 6:45:00 PM 13.45 56.21 0.057 7.2 4.13 10.12
4/11/2021 7:00:00 PM 13.39 56.102 0.057 7.17 3.96 10.05
4/11/2021 7:15:00 PM 13.33 55.994 0.057 7.14 3.97 9.98
4/11/2021 7:30:00 PM 13.27 55.886 0.057 7.1 3.83 9.9
4/11/2021 7:45:00 PM 13.2 55.76 0.057 7.05 4.09 9.83
4/11/2021 8:00:00 PM 13.12 55.616 0.057 7.02 3.87 9.78
4/11/2021 8:15:00 PM 13.05 55.49 0.058 6.99 3.97 9.74
4/11/2021 8:30:00 PM 12.97 55.346 0.059 6.98 4.21 9.71
4/11/2021 8:45:00 PM 12.9 55.22 0.059 6.97 4.29 9.7
4/11/2021 9:00:00 PM 12.83 55.094 0.058 6.95 4.5 9.67
4/11/2021 9:15:00 PM 12.76 54.968 0.058 6.93 4.24 9.67
4/11/2021 9:30:00 PM 12.69 54.842 0.058 6.93 4.16 9.67
4/11/2021 9:45:00 PM 12.63 54.734 0.058 6.92 4.35 9.7
4/11/2021 10:00:00 PM 12.56 54.608 0.058 6.91 4 9.71
4/11/2021 10:15:00 PM 12.49 54.482 0.058 6.9 4.14 9.73
4/11/2021 10:30:00 PM 12.42 54.356 0.058 6.9 4.07 9.74
4/11/2021 10:45:00 PM 12.35 54.23 0.059 6.9 3.92 9.76
4/11/2021 11:00:00 PM 12.28 54.104 0.059 6.89 3.98 9.78
4/11/2021 11:15:00 PM 12.22 53.996 0.059 6.88 3.9 9.8
4/11/2021 11:30:00 PM 12.15 53.87 0.059 6.9 4.25 9.81
4/11/2021 11:45:00 PM 12.09 53.762 0.059 6.89 4.48 9.83
4/12/2021 12:00:00 AM 12.03 53.654 0.059 6.88 4.21 9.85
4/12/2021 12:15:00 AM 11.97 53.546 0.059 6.96 4.26 9.87
4/12/2021 12:30:00 AM 11.9 53.42 0.059 6.87 4.44 9.88
4/12/2021 12:45:00 AM 11.84 53.312 0.059 6.87 4.44 9.9
4/12/2021 1:00:00 AM 11.78 53.204 0.059 6.87 4.6 9.91
4/12/2021 1:15:00 AM 11.73 53.114 0.059 6.87 4.65 9.93
4/12/2021 1:30:00 AM 11.67 53.006 0.06 6.88 4.44 9.95
4/12/2021 1:45:00 AM 11.62 52.916 0.06 6.89 4.48 9.95
4/12/2021 2:00:00 AM 11.56 52.808 0.06 6.87 4.38 9.97
4/12/2021 2:15:00 AM 11.51 52.718 0.06 6.88 4.82 9.99
4/12/2021 2:30:00 AM 11.44 52.592 0.06 6.88 4.61 10
4/12/2021 2:45:00 AM 11.39 52.502 0.061 6.87 4.63 10.01
4/12/2021 3:00:00 AM 11.34 52.412 0.061 6.88 4.6 10.03
4/12/2021 3:15:00 AM 11.3 52.34 0.061 6.87 4.57 10.04
4/12/2021 3:30:00 AM 11.25 52.25 0.061 6.88 4.39 10.05
4/12/2021 3:45:00 AM 11.21 52.178 0.061 6.89 4.49 10.05
4/12/2021 4:00:00 AM 11.17 52.106 0.061 6.9 4.18 10.07
4/12/2021 4:15:00 AM 11.12 52.016 0.062 6.89 4.26 10.08
4/12/2021 4:30:00 AM 11.08 51.944 0.061 6.89 4.27 10.09
4/12/2021 4:45:00 AM 11.04 51.872 0.062 6.9 4.34 10.1
4/12/2021 5:00:00 AM 11 51.8 0.062 6.9 12.13 10.11
4/12/2021 5:15:00 AM 10.96 51.728 0.062 6.9 9.65 10.12
4/12/2021 5:30:00 AM 10.91 51.638 0.062 6.9 12.58 10.14
4/12/2021 5:45:00 AM 10.87 51.566 0.062 6.9 3.87 10.15
4/12/2021 6:00:00 AM 10.82 51.476 0.062 6.89 14.99 10.16
4/12/2021 6:15:00 AM 10.78 51.404 0.062 6.89 4.09 10.18
4/12/2021 6:30:00 AM 10.74 51.332 0.062 6.89 3.73 10.19
4/12/2021 6:45:00 AM 10.7 51.26 0.062 6.89 3.61 10.2
4/12/2021 7:00:00 AM 10.67 51.206 0.062 6.9 3.62 10.22
4/12/2021 7:15:00 AM 10.64 51.152 0.061 6.9 3.63 10.25
4/12/2021 7:30:00 AM 10.6 51.08 0.061 6.9 3.45 10.27
4/12/2021 7:45:00 AM 10.57 51.026 0.061 6.91 3.61 10.31
4/12/2021 8:00:00 AM 10.55 50.99 0.061 6.92 3.44 10.35
4/12/2021 8:15:00 AM 10.53 50.954 0.061 6.93 3.47 10.41
4/12/2021 8:30:00 AM 10.51 50.918 0.061 6.95 3.39 10.46
4/12/2021 8:45:00 AM 10.5 50.9 0.061 6.97 3.37 10.51
4/12/2021 9:00:00 AM 10.48 50.864 0.061 6.98 3.13 10.57
4/12/2021 9:15:00 AM 10.48 50.864 0.061 7 3.08 10.63
4/12/2021 9:30:00 AM 10.48 50.864 0.06 7.02 3.07 10.69
4/12/2021 9:45:00 AM 10.48 50.864 0.06 7.02 2.99 10.74
4/12/2021 10:00:00 AM 10.49 50.882 0.06 7.04 3.04 10.79
4/12/2021 10:15:00 AM 10.49 50.882 0.06 7.05 2.99 10.81
4/12/2021 10:30:00 AM 10.49 50.882 0.06 7.08 3.03 10.82
4/12/2021 10:45:00 AM 10.53 50.954 0.06 7.09 2.94 10.87
4/12/2021 11:00:00 AM 10.61 51.098 0.06 7.12 2.77 10.93
4/12/2021 11:15:00 AM 10.71 51.278 0.06 7.16 2.91 10.97
4/12/2021 11:30:00 AM 10.78 51.404 0.06 7.18 2.88 10.98
4/12/2021 11:45:00 AM 10.8 51.44 0.06 7.19 2.86 10.98
4/12/2021 12:00:00 PM 10.79 51.422 0.059 7.18 2.77 10.92
4/12/2021 12:15:00 PM 10.81 51.458 0.06 7.18 2.8 10.89
4/12/2021 12:30:00 PM 10.87 51.566 0.059 7.18 2.94 10.89
4/12/2021 12:45:00 PM 10.95 51.71 0.059 7.21 2.91 10.92
4/12/2021 1:00:00 PM 11 51.8 0.059 7.21 2.87 10.93
4/12/2021 1:15:00 PM 10.99 51.782 0.059 7.22 2.78 10.89
4/12/2021 1:30:00 PM 10.98 51.764 0.059 7.2 2.77 10.87
4/12/2021 1:45:00 PM 10.99 51.782 0.059 7.2 172.62 10.89
4/12/2021 2:00:00 PM 11.06 51.908 0.059 7.21 2.7 10.91
4/12/2021 2:15:00 PM 11.12 52.016 0.059 7.22 2.65 10.93
4/12/2021 2:30:00 PM 11.16 52.088 0.058 7.24 2.76 10.93
4/12/2021 2:45:00 PM 11.18 52.124 0.059 7.25 2.8 10.92
4/12/2021 3:00:00 PM 11.2 52.16 0.058 7.25 2.73 10.91
4/12/2021 3:15:00 PM 11.22 52.196 0.058 7.26 2.71 10.9
4/12/2021 3:30:00 PM 11.22 52.196 0.058 7.25 2.67 10.87
4/12/2021 3:45:00 PM 11.22 52.196 0.058 7.24 2.9 10.85
4/12/2021 4:00:00 PM 11.24 52.232 0.058 7.25 2.69 10.84
4/12/2021 4:15:00 PM 11.27 52.286 0.058 7.25 2.69 10.85
4/12/2021 4:30:00 PM 11.32 52.376 0.058 7.25 2.67 10.86
4/12/2021 4:45:00 PM 11.42 52.556 0.058 7.28 2.67 10.86
4/12/2021 5:00:00 PM 11.49 52.682 0.058 7.29 2.7 10.86
4/12/2021 5:15:00 PM 11.4 52.52 0.058 7.25 2.71 10.84
4/12/2021 5:30:00 PM 11.39 52.502 0.058 7.25 2.76 10.81
4/12/2021 5:45:00 PM 11.39 52.502 0.058 7.24 2.77 10.79
4/12/2021 6:00:00 PM 11.39 52.502 0.058 7.22 2.73 10.76
4/12/2021 6:15:00 PM 11.37 52.466 0.058 7.19 2.68 10.65
4/12/2021 6:30:00 PM 11.35 52.43 0.058 7.15 2.83 10.57
4/12/2021 6:45:00 PM 11.31 52.358 0.058 7.13 2.64 10.53
4/12/2021 7:00:00 PM 11.28 52.304 0.059 7.11 2.84 10.53
4/12/2021 7:15:00 PM 11.24 52.232 0.058 7.09 2.74 10.53
4/12/2021 7:30:00 PM 11.2 52.16 0.058 7.09 2.73 10.51
4/12/2021 7:45:00 PM 11.15 52.07 0.058 7.06 2.67 10.46
4/12/2021 8:00:00 PM 11.1 51.98 0.058 7.05 2.73 10.4
4/12/2021 8:15:00 PM 11.05 51.89 0.059 7.02 2.65 10.35
4/12/2021 8:30:00 PM 11 51.8 0.059 7 81.81 10.32
4/12/2021 8:45:00 PM 10.96 51.728 0.059 6.96 3.21 10.3
4/12/2021 9:00:00 PM 10.91 51.638 0.059 6.95 2.94 10.29
4/12/2021 9:15:00 PM 10.87 51.566 0.059 6.93 2.84 10.29
4/12/2021 9:30:00 PM 10.82 51.476 0.059 6.93 2.9 10.29
4/12/2021 9:45:00 PM 10.78 51.404 0.059 6.91 3.02 10.29
4/12/2021 10:00:00 PM 10.73 51.314 0.059 6.92 2.88 10.3
4/12/2021 10:15:00 PM 10.69 51.242 0.059 6.92 2.97 10.31
4/12/2021 10:30:00 PM 10.65 51.17 0.059 6.92 2.85 10.32
4/12/2021 10:45:00 PM 10.6 51.08 0.059 6.91 2.91 10.33
4/12/2021 11:00:00 PM 10.55 50.99 0.059 6.9 2.84 10.34
4/12/2021 11:15:00 PM 10.51 50.918 0.059 6.9 2.82 10.35
4/12/2021 11:30:00 PM 10.46 50.828 0.059 6.89 2.85 10.36
4/12/2021 11:45:00 PM 10.42 50.756 0.059 6.9 2.86 10.38
4/13/2021 12:00:00 AM 10.37 50.666 0.059 6.89 2.8 10.38
4/13/2021 12:15:00 AM 10.33 50.594 0.059 6.89 2.8 10.4
4/13/2021 12:30:00 AM 10.28 50.504 0.059 6.88 3.01 10.4
4/13/2021 12:45:00 AM 10.23 50.414 0.059 6.88 2.88 10.42
4/13/2021 1:00:00 AM 10.19 50.342 0.059 6.88 2.95 10.45
4/13/2021 1:15:00 AM 10.15 50.27 0.059 6.89 2.8 10.46
4/13/2021 1:30:00 AM 10.11 50.198 0.059 6.88 2.83 10.47
4/13/2021 1:45:00 AM 10.07 50.126 0.059 6.87 2.81 10.47
4/13/2021 2:00:00 AM 10.02 50.036 0.059 6.88 2.84 10.49
4/13/2021 2:15:00 AM 9.96 49.928 0.059 6.87 2.99 10.5
4/13/2021 2:30:00 AM 9.91 49.838 0.059 6.87 2.84 10.51
4/13/2021 2:45:00 AM 9.87 49.766 0.059 6.87 2.96 10.52
4/13/2021 3:00:00 AM 9.83 49.694 0.059 6.87 3 10.54
4/13/2021 3:15:00 AM 9.78 49.604 0.059 6.88 2.77 10.55
4/13/2021 3:30:00 AM 9.74 49.532 0.058 6.85 2.85 10.56
4/13/2021 3:45:00 AM 9.71 49.478 0.059 6.86 2.85 10.58
4/13/2021 4:00:00 AM 9.68 49.424 0.058 6.86 2.94 10.59
4/13/2021 4:15:00 AM 9.64 49.352 0.059 6.88 2.75 10.6
4/13/2021 4:30:00 AM 9.61 49.298 0.059 6.87 2.81 10.61
4/13/2021 4:45:00 AM 9.59 49.262 0.059 6.88 2.73 10.61
4/13/2021 5:00:00 AM 9.57 49.226 0.058 6.87 2.75 10.63
4/13/2021 5:15:00 AM 9.55 49.19 0.058 6.88 2.8 10.64
4/13/2021 5:30:00 AM 9.51 49.118 0.059 6.88 2.79 10.65
4/13/2021 5:45:00 AM 9.48 49.064 0.058 6.88 2.87 10.66
4/13/2021 6:00:00 AM 9.45 49.01 0.058 6.88 2.81 10.66
4/13/2021 6:15:00 AM 9.43 48.974 0.058 6.88 2.89 10.68
4/13/2021 6:30:00 AM 9.4 48.92 0.058 6.88 2.86 10.69
4/13/2021 6:45:00 AM 9.38 48.884 0.058 6.88 2.67 10.7
4/13/2021 7:00:00 AM 9.37 48.866 0.058 6.88 2.86 10.72
4/13/2021 7:15:00 AM 9.35 48.83 0.058 6.89 2.7 10.76
4/13/2021 7:30:00 AM 9.34 48.812 0.058 6.89 2.73 10.8
4/13/2021 7:45:00 AM 9.35 48.83 0.058 6.92 2.7 10.91
4/13/2021 8:00:00 AM 9.38 48.884 0.058 6.95 2.64 11.01
4/13/2021 8:15:00 AM 9.41 48.938 0.058 6.98 2.68 11.08
4/13/2021 8:30:00 AM 9.42 48.956 0.058 6.99 2.56 11.13
4/13/2021 8:45:00 AM 9.43 48.974 0.057 7.02 2.6 11.16
4/13/2021 9:00:00 AM 9.46 49.028 0.057 7.03 2.47 11.21
4/13/2021 9:15:00 AM 9.55 49.19 0.057 7.06 2.49 11.25
4/13/2021 9:30:00 AM 9.7 49.46 0.057 7.1 2.45 11.29
4/13/2021 9:45:00 AM 9.8 49.64 0.057 7.12 2.56 11.31
4/13/2021 10:00:00 AM 9.92 49.856 0.057 7.15 2.56 11.32
4/13/2021 10:15:00 AM 10.09 50.162 0.057 7.16 2.51 11.31
4/13/2021 10:30:00 AM 10.08 50.144 0.057 7.15 2.58 11.31
4/13/2021 10:45:00 AM 10.13 50.234 0.056 7.17 2.43 11.29
4/13/2021 11:00:00 AM 10.2 50.36 0.056 7.18 2.48 11.29
4/13/2021 11:15:00 AM 10.24 50.432 0.056 7.19 2.42 11.27
4/13/2021 11:30:00 AM 10.33 50.594 0.056 7.21 2.41 11.26
4/13/2021 11:45:00 AM 10.47 50.846 0.056 7.24 2.41 11.26
4/13/2021 12:00:00 PM 10.58 51.044 0.056 7.25 2.43 11.25
4/13/2021 12:15:00 PM 10.68 51.224 0.056 7.26 2.41 11.24
4/13/2021 12:30:00 PM 10.84 51.512 0.056 7.29 2.47 11.22
4/13/2021 12:45:00 PM 10.93 51.674 0.056 7.28 2.51 11.18
4/13/2021 1:00:00 PM 10.95 51.71 0.056 7.26 2.36 11.13
4/13/2021 1:15:00 PM 11.08 51.944 0.056 7.28 2.38 11.11
4/13/2021 1:30:00 PM 11.14 52.052 0.055 7.27 2.43 11.08
4/13/2021 1:45:00 PM 11.15 52.07 0.056 7.25 2.38 11.04
4/13/2021 2:00:00 PM 11.18 52.124 0.055 7.24 2.39 11.01
4/13/2021 2:15:00 PM 11.35 52.43 0.055 7.29 2.39 11.01
4/13/2021 2:30:00 PM 11.45 52.61 0.055 7.28 2.45 10.99
4/13/2021 2:45:00 PM 11.43 52.574 0.055 7.24 2.37 10.92
4/13/2021 3:00:00 PM 11.51 52.718 0.055 7.25 2.29 10.92
4/13/2021 3:15:00 PM 11.84 53.312 0.055 7.31 2.46 10.92
4/13/2021 3:30:00 PM 11.94 53.492 0.055 7.29 2.58 10.89
4/13/2021 3:45:00 PM 11.95 53.51 0.055 7.28 2.62 10.86
4/13/2021 4:00:00 PM 11.98 53.564 0.055 7.28 2.38 10.85
4/13/2021 4:15:00 PM 12.01 53.618 0.055 7.28 2.4 10.81
4/13/2021 4:30:00 PM 12.19 53.942 0.055 7.31 2.35 10.78
4/13/2021 4:45:00 PM 12.38 54.284 0.055 7.32 2.47 10.74
4/13/2021 5:00:00 PM 12.42 54.356 0.055 7.28 2.43 10.71
4/13/2021 5:15:00 PM 12.42 54.356 0.055 7.27 2.46 10.68
4/13/2021 5:30:00 PM 12.42 54.356 0.055 7.26 2.45 10.65
4/13/2021 5:45:00 PM 12.42 54.356 0.055 7.25 2.48 10.61
4/13/2021 6:00:00 PM 12.47 54.446 0.055 7.24 2.42 10.59
4/13/2021 6:15:00 PM 12.47 54.446 0.055 7.23 2.76 10.56
4/13/2021 6:30:00 PM 12.47 54.446 0.055 7.21 2.44 10.53
4/13/2021 6:45:00 PM 12.42 54.356 0.055 7.19 2.45 10.5
4/13/2021 7:00:00 PM 12.35 54.23 0.055 7.16 2.69 10.48
4/13/2021 7:15:00 PM 12.28 54.104 0.055 7.14 2.65 10.45
4/13/2021 7:30:00 PM 12.19 53.942 0.055 7.1 2.45 10.38
4/13/2021 7:45:00 PM 12.11 53.798 0.055 7.07 2.51 10.31
4/13/2021 8:00:00 PM 12.02 53.636 0.055 7.04 2.68 10.25
4/13/2021 8:15:00 PM 11.91 53.438 0.055 6.99 2.68 10.21
4/13/2021 8:30:00 PM 11.8 53.24 0.055 6.97 3746.98 10.19
4/13/2021 8:45:00 PM 11.7 53.06 0.055 6.93 2.66 10.17
4/13/2021 9:00:00 PM 11.61 52.898 0.056 6.92 2.66 10.17
4/13/2021 9:15:00 PM 11.51 52.718 0.056 6.91 2.84 10.17
4/13/2021 9:30:00 PM 11.4 52.52 0.056 6.9 2.66 10.18
4/13/2021 9:45:00 PM 11.31 52.358 0.056 6.88 2.84 10.19
4/13/2021 10:00:00 PM 11.21 52.178 0.056 6.87 2.73 10.21
4/13/2021 10:15:00 PM 11.12 52.016 0.056 6.88 2.78 10.23
4/13/2021 10:30:00 PM 11.02 51.836 0.056 6.87 2.72 10.25
4/13/2021 10:45:00 PM 10.92 51.656 0.056 6.88 2.74 10.27
4/13/2021 11:00:00 PM 10.82 51.476 0.056 6.87 2.72 10.3
4/13/2021 11:15:00 PM 10.71 51.278 0.056 6.86 2.64 10.32
4/13/2021 11:30:00 PM 10.61 51.098 0.056 6.85 2.73 10.34
4/13/2021 11:45:00 PM 10.51 50.918 0.056 6.86 2.87 10.37
4/14/2021 12:00:00 AM 10.41 50.738 0.056 6.86 2.68 10.4
4/14/2021 12:15:00 AM 10.32 50.576 0.056 6.84 2.8 10.43
4/14/2021 12:30:00 AM 10.22 50.396 0.056 6.85 2.87 10.46
4/14/2021 12:45:00 AM 10.13 50.234 0.056 6.85 2.82 10.47
4/14/2021 1:00:00 AM 10.04 50.072 0.056 6.84 2.8 10.51
4/14/2021 1:15:00 AM 9.95 49.91 0.056 6.84 2.74 10.52
4/14/2021 1:30:00 AM 9.87 49.766 0.056 6.85 2.7 10.54
4/14/2021 1:45:00 AM 9.8 49.64 0.056 6.85 2.69 10.57
4/14/2021 2:00:00 AM 9.74 49.532 0.056 6.85 2.85 10.59
4/14/2021 2:15:00 AM 9.68 49.424 0.056 6.84 2.72 10.61
4/14/2021 2:30:00 AM 9.61 49.298 0.056 6.84 2.75 10.63
4/14/2021 2:45:00 AM 9.56 49.208 0.056 6.85 2.72 10.64
4/14/2021 3:00:00 AM 9.5 49.1 0.056 6.85 2.63 10.66
4/14/2021 3:15:00 AM 9.44 48.992 0.056 6.85 2.72 10.68
4/14/2021 3:30:00 AM 9.37 48.866 0.056 6.85 2.72 10.69
4/14/2021 3:45:00 AM 9.3 48.74 0.056 6.85 2.68 10.71
4/14/2021 4:00:00 AM 9.23 48.614 0.056 6.85 2.65 10.73
4/14/2021 4:15:00 AM 9.16 48.488 0.056 6.85 2.74 10.75
4/14/2021 4:30:00 AM 9.1 48.38 0.056 6.84 2.81 10.77
4/14/2021 4:45:00 AM 9.03 48.254 0.056 6.84 2.74 10.78
4/14/2021 5:00:00 AM 8.96 48.128 0.056 6.86 2.64 10.8
4/14/2021 5:15:00 AM 8.91 48.038 0.056 6.85 2.72 10.82
4/14/2021 5:30:00 AM 8.84 47.912 0.056 6.83 2.73 10.84
4/14/2021 5:45:00 AM 8.78 47.804 0.056 6.84 2.63 10.85
4/14/2021 6:00:00 AM 8.72 47.696 0.056 6.84 2.61 10.87
4/14/2021 6:15:00 AM 8.66 47.588 0.056 6.83 2.68 10.88
4/14/2021 6:30:00 AM 8.61 47.498 0.056 6.84 2.76 10.91
4/14/2021 6:45:00 AM 8.56 47.408 0.056 6.85 2.67 10.93
4/14/2021 7:00:00 AM 8.51 47.318 0.056 6.84 2.62 10.97
4/14/2021 7:15:00 AM 8.47 47.246 0.056 6.86 2.68 11.04
4/14/2021 7:30:00 AM 8.45 47.21 0.055 6.87 2.6 11.12
4/14/2021 7:45:00 AM 8.43 47.174 0.056 6.89 2.43 11.19
4/14/2021 8:00:00 AM 8.41 47.138 0.055 6.92 2.57 11.26
4/14/2021 8:15:00 AM 8.42 47.156 0.055 6.93 2.37 11.32
4/14/2021 8:30:00 AM 8.44 47.192 0.055 6.97 2.46 11.38
4/14/2021 8:45:00 AM 8.48 47.264 0.055 6.98 2.37 11.44
4/14/2021 9:00:00 AM 8.53 47.354 0.055 7.01 2.44 11.47
4/14/2021 9:15:00 AM 8.59 47.462 0.055 7.04 2.42 11.5
4/14/2021 9:30:00 AM 8.61 47.498 0.055 7.04 2.32 11.52
4/14/2021 9:45:00 AM 8.69 47.642 0.054 7.06 2.29 11.54
4/14/2021 10:00:00 AM 8.77 47.786 0.054 7.08 2.37 11.56
4/14/2021 10:15:00 AM 8.85 47.93 0.054 7.11 2.21 11.57
4/14/2021 10:30:00 AM 8.98 48.164 0.054 7.13 2.25 11.58
4/14/2021 10:45:00 AM 9.1 48.38 0.054 7.14 2.3 11.57
4/14/2021 11:00:00 AM 9.24 48.632 0.054 7.16 2.26 11.56
4/14/2021 11:15:00 AM 9.38 48.884 0.054 7.19 2.25 11.54
4/14/2021 11:30:00 AM 9.69 49.442 0.054 7.22 2.31 11.51
4/14/2021 11:45:00 AM 9.81 49.658 0.054 7.22 2.5 11.47
4/14/2021 12:00:00 PM 9.95 49.91 0.054 7.23 2.45 11.42
4/14/2021 12:15:00 PM 10.27 50.486 0.054 7.26 2.41 11.37
4/14/2021 12:30:00 PM 10.59 51.062 0.054 7.25 2.49 11.31
4/14/2021 12:45:00 PM 10.85 51.53 0.053 7.27 2.37 11.25
4/14/2021 1:00:00 PM 11.16 52.088 0.053 7.28 2.73 11.18
4/14/2021 1:15:00 PM 11.4 52.52 0.053 7.27 2.3 11.11
4/14/2021 1:30:00 PM 11.58 52.844 0.053 7.27 2.24 11.06
4/14/2021 1:45:00 PM 11.84 53.312 0.053 7.29 2.31 11
4/14/2021 2:00:00 PM 12.03 53.654 0.053 7.28 2.36 10.94
4/14/2021 2:15:00 PM 12.12 53.816 0.053 7.28 2.24 10.89
4/14/2021 2:30:00 PM 12.46 54.428 0.053 7.32 2.24 10.84
4/14/2021 2:45:00 PM 12.71 54.878 0.053 7.33 2.27 10.77
4/14/2021 3:00:00 PM 12.91 55.238 0.053 7.32 2.4 10.7
4/14/2021 3:15:00 PM 13.18 55.724 0.053 7.35 2.27 10.65
4/14/2021 3:30:00 PM 13.33 55.994 0.053 7.33 2.43 10.59
4/14/2021 3:45:00 PM 13.38 56.084 0.053 7.32 2.31 10.51
4/14/2021 4:00:00 PM 13.54 56.372 0.053 7.33 2.28 10.46
4/14/2021 4:15:00 PM 13.75 56.75 0.053 7.33 2.36 10.44
4/14/2021 4:30:00 PM 13.9 57.02 0.053 7.33 2.51 10.38
4/14/2021 4:45:00 PM 13.92 57.056 0.053 7.32 2.32 10.35
4/14/2021 5:00:00 PM 13.88 56.984 0.053 7.29 2.45 10.3
4/14/2021 5:15:00 PM 13.85 56.93 0.053 7.28 2.39 10.27
4/14/2021 5:30:00 PM 13.81 56.858 0.053 7.27 2.41 10.26
4/14/2021 5:45:00 PM 13.75 56.75 0.053 7.25 2.72 10.23
4/14/2021 6:00:00 PM 13.62 56.516 0.053 7.22 2.43 10.21
4/14/2021 6:15:00 PM 13.54 56.372 0.053 7.2 2.45 10.2
4/14/2021 6:30:00 PM 13.47 56.246 0.053 7.2 2.53 10.2
4/14/2021 6:45:00 PM 13.35 56.03 0.053 7.17 2.78 10.17
4/14/2021 7:00:00 PM 13.22 55.796 0.053 7.14 2.62 10.14
4/14/2021 7:15:00 PM 13.06 55.508 0.053 7.11 2.42 10.11
4/14/2021 7:30:00 PM 12.9 55.22 0.053 7.08 2.57 10.08
4/14/2021 7:45:00 PM 12.74 54.932 0.053 7.04 2.53 10.05
4/14/2021 8:00:00 PM 12.59 54.662 0.053 7.02 2.56 10.02
4/14/2021 8:15:00 PM 12.42 54.356 0.053 6.98 2.78 10
4/14/2021 8:30:00 PM 12.24 54.032 0.054 6.95 2.97 9.99
4/14/2021 8:45:00 PM 12.06 53.708 0.054 6.93 2.7 9.99
4/14/2021 9:00:00 PM 11.88 53.384 0.054 6.91 2.68 10.01
4/14/2021 9:15:00 PM 11.71 53.078 0.054 6.9 2.81 10.04
4/14/2021 9:30:00 PM 11.56 52.808 0.054 6.88 2.78 10.06
4/14/2021 9:45:00 PM 11.4 52.52 0.054 6.88 2.78 10.09
4/14/2021 10:00:00 PM 11.26 52.268 0.054 6.87 2.71 10.12
4/14/2021 10:15:00 PM 11.11 51.998 0.054 6.87 2.76 10.15
4/14/2021 10:30:00 PM 10.98 51.764 0.054 6.85 2.68 10.18
4/14/2021 10:45:00 PM 10.87 51.566 0.054 6.86 2.76 10.21
4/14/2021 11:00:00 PM 10.76 51.368 0.054 6.87 2.7 10.24
4/14/2021 11:15:00 PM 10.66 51.188 0.054 6.87 2.73 10.27
4/14/2021 11:30:00 PM 10.57 51.026 0.054 6.86 2.84 10.3
4/14/2021 11:45:00 PM 10.48 50.864 0.054 6.87 2.72 10.32
4/15/2021 12:00:00 AM 10.4 50.72 0.054 6.87 2.7 10.35
4/15/2021 12:15:00 AM 10.32 50.576 0.054 6.86 2.74 10.36
4/15/2021 12:30:00 AM 10.25 50.45 0.054 6.87 2.7 10.39
4/15/2021 12:45:00 AM 10.18 50.324 0.055 6.88 2.77 10.4
4/15/2021 1:00:00 AM 10.11 50.198 0.055 6.86 2.74 10.43
4/15/2021 1:15:00 AM 10.04 50.072 0.055 6.87 2.69 10.44
4/15/2021 1:30:00 AM 9.97 49.946 0.055 6.86 2.75 10.45
4/15/2021 1:45:00 AM 9.9 49.82 0.054 6.86 2.65 10.47
4/15/2021 2:00:00 AM 9.84 49.712 0.054 6.86 2.67 10.49
4/15/2021 2:15:00 AM 9.76 49.568 0.054 6.85 2.77 10.51
4/15/2021 2:30:00 AM 9.69 49.442 0.054 6.86 2.6 10.53
4/15/2021 2:45:00 AM 9.61 49.298 0.054 6.87 2.54 10.54
4/15/2021 3:00:00 AM 9.54 49.172 0.055 6.86 2.59 10.56
4/15/2021 3:15:00 AM 9.48 49.064 0.054 6.86 2.89 10.58
4/15/2021 3:30:00 AM 9.41 48.938 0.054 6.86 2.72 10.6
4/15/2021 3:45:00 AM 9.34 48.812 0.055 6.85 2.66 10.61
4/15/2021 4:00:00 AM 9.29 48.722 0.054 6.86 2.59 10.63
4/15/2021 4:15:00 AM 9.23 48.614 0.055 6.86 2.67 10.64
4/15/2021 4:30:00 AM 9.18 48.524 0.054 6.86 2.75 10.66
4/15/2021 4:45:00 AM 9.12 48.416 0.054 6.87 2.62 10.67
4/15/2021 5:00:00 AM 9.07 48.326 0.054 6.86 2.57 10.69
4/15/2021 5:15:00 AM 9.02 48.236 0.054 6.86 2.63 10.69
4/15/2021 5:30:00 AM 8.98 48.164 0.054 6.86 2.55 10.71
4/15/2021 5:45:00 AM 8.94 48.092 0.054 6.86 2.7 10.72
4/15/2021 6:00:00 AM 8.9 48.02 0.054 6.85 2.72 10.73
4/15/2021 6:15:00 AM 8.85 47.93 0.054 6.87 2.64 10.75
4/15/2021 6:30:00 AM 8.81 47.858 0.054 6.88 2.6 10.76
4/15/2021 6:45:00 AM 8.77 47.786 0.054 6.87 2.61 10.77
4/15/2021 7:00:00 AM 8.73 47.714 0.054 6.88 2.56 10.79
4/15/2021 7:15:00 AM 8.69 47.642 0.054 6.88 2.55 10.82
4/15/2021 7:30:00 AM 8.65 47.57 0.054 6.89 2.46 10.85
4/15/2021 7:45:00 AM 8.61 47.498 0.054 6.89 2.43 10.88
4/15/2021 8:00:00 AM 8.58 47.444 0.054 6.91 2.42 10.93
4/15/2021 8:15:00 AM 8.55 47.39 0.054 6.91 2.49 10.97
4/15/2021 8:30:00 AM 8.52 47.336 0.054 6.92 2.33 11.01
4/15/2021 8:45:00 AM 8.49 47.282 0.054 6.93 2.39 11.06
4/15/2021 9:00:00 AM 8.47 47.246 0.054 6.95 2.41 11.12
4/15/2021 9:15:00 AM 8.45 47.21 0.054 6.97 2.32 11.17
4/15/2021 9:30:00 AM 8.45 47.21 0.054 6.98 2.32 11.25
4/15/2021 9:45:00 AM 8.46 47.228 0.053 7.01 2.26 11.32
4/15/2021 10:00:00 AM 8.55 47.39 0.053 7.06 2.25 11.38
4/15/2021 10:15:00 AM 8.64 47.552 0.053 7.08 2.16 11.44
4/15/2021 10:30:00 AM 8.71 47.678 0.053 7.09 2.3 11.47
4/15/2021 10:45:00 AM 8.82 47.876 0.053 7.13 2.25 11.48
4/15/2021 11:00:00 AM 8.87 47.966 0.053 7.13 2.21 11.46
4/15/2021 11:15:00 AM 9.02 48.236 0.054 7.45 2 11.72
4/15/2021 11:30:00 AM 9.02 48.236 0.051 7.37 4.31 11.68
4/15/2021 11:45:00 AM -99999.99 -179968 -99999.99 -99999.99 -99999.99 -99999.99
4/15/2021 12:00:00 PM -99999.99 -179968 -99999.99 -99999.99 -99999.99 -99999.99
4/15/2021 12:15:00 PM -99999.99 -179968 -99999.99 -99999.99 -99999.99 -99999.99
4/15/2021 12:30:00 PM -99999.99 -179968 -99999.99 -99999.99 -99999.99 -99999.99
4/15/2021 12:45:00 PM -99999.99 -179968 -99999.99 -99999.99 -99999.99 -99999.99
4/15/2021 1:00:00 PM -99999.99 -179968 -99999.99 -99999.99 -99999.99 -99999.99
4/15/2021 1:15:00 PM -99999.99 -179968 -99999.99 -99999.99 -99999.99 -99999.99
4/15/2021 1:30:00 PM -99999.99 -179968 -99999.99 -99999.99 -99999.99 -99999.99
4/15/2021 1:45:00 PM -99999.99 -179968 -99999.99 -99999.99 -99999.99 -99999.99
4/15/2021 2:00:00 PM -99999.99 -179968 -99999.99 -99999.99 -99999.99 -99999.99
4/15/2021 2:15:00 PM -99999.99 -179968 -99999.99 -99999.99 -99999.99 -99999.99
4/15/2021 2:30:00 PM -99999.99 -179968 -99999.99 -99999.99 -99999.99 -99999.99
4/15/2021 2:45:00 PM -99999.99 -179968 -99999.99 -99999.99 -99999.99 -99999.99
4/15/2021 3:00:00 PM -99999.99 -179968 -99999.99 -99999.99 -99999.99 -99999.99
4/15/2021 3:15:00 PM -99999.99 -179968 -99999.99 -99999.99 -99999.99 -99999.99
4/15/2021 3:30:00 PM -99999.99 -179968 -99999.99 -99999.99 -99999.99 -99999.99
4/15/2021 3:45:00 PM -99999.99 -179968 -99999.99 -99999.99 -99999.99 -99999.99
4/15/2021 4:00:00 PM -99999.99 -179968 -99999.99 -99999.99 -99999.99 -99999.99
4/15/2021 4:15:00 PM -99999.99 -179968 -99999.99 -99999.99 -99999.99 -99999.99
4/15/2021 4:30:00 PM -99999.99 -179968 -99999.99 -99999.99 -99999.99 -99999.99
4/15/2021 4:45:00 PM -99999.99 -179968 -99999.99 -99999.99 -99999.99 -99999.99
4/15/2021 5:00:00 PM -99999.99 -179968 -99999.99 -99999.99 -99999.99 -99999.99
4/15/2021 5:15:00 PM -99999.99 -179968 -99999.99 -99999.99 -99999.99 -99999.99
4/15/2021 5:30:00 PM -99999.99 -179968 -99999.99 -99999.99 -99999.99 -99999.99
4/15/2021 5:45:00 PM -99999.99 -179968 -99999.99 -99999.99 -99999.99 -99999.99
4/15/2021 6:00:00 PM -99999.99 -179968 -99999.99 -99999.99 -99999.99 -99999.99
4/15/2021 6:15:00 PM -99999.99 -179968 -99999.99 -99999.99 -99999.99 -99999.99
4/15/2021 6:30:00 PM -99999.99 -179968 -99999.99 -99999.99 -99999.99 -99999.99
4/15/2021 6:45:00 PM -99999.99 -179968 -99999.99 -99999.99 -99999.99 -99999.99
4/15/2021 7:00:00 PM -99999.99 -179968 -99999.99 -99999.99 -99999.99 -99999.99
4/15/2021 7:15:00 PM -99999.99 -179968 -99999.99 -99999.99 -99999.99 -99999.99
4/15/2021 7:30:00 PM -99999.99 -179968 -99999.99 -99999.99 -99999.99 -99999.99
4/15/2021 7:45:00 PM -99999.99 -179968 -99999.99 -99999.99 -99999.99 -99999.99
4/15/2021 8:00:00 PM -99999.99 -179968 -99999.99 -99999.99 -99999.99 -99999.99
4/15/2021 8:15:00 PM -99999.99 -179968 -99999.99 -99999.99 -99999.99 -99999.99
4/15/2021 8:30:00 PM -99999.99 -179968 -99999.99 -99999.99 -99999.99 -99999.99
4/15/2021 8:45:00 PM -99999.99 -179968 -99999.99 -99999.99 -99999.99 -99999.99
4/15/2021 9:00:00 PM -99999.99 -179968 -99999.99 -99999.99 -99999.99 -99999.99
4/15/2021 9:15:00 PM -99999.99 -179968 -99999.99 -99999.99 -99999.99 -99999.99
4/15/2021 9:30:00 PM -99999.99 -179968 -99999.99 -99999.99 -99999.99 -99999.99
4/15/2021 9:45:00 PM -99999.99 -179968 -99999.99 -99999.99 -99999.99 -99999.99
4/15/2021 10:00:00 PM -99999.99 -179968 -99999.99 -99999.99 -99999.99 -99999.99
4/15/2021 10:15:00 PM -99999.99 -179968 -99999.99 -99999.99 -99999.99 -99999.99
4/15/2021 10:30:00 PM -99999.99 -179968 -99999.99 -99999.99 -99999.99 -99999.99
4/15/2021 10:45:00 PM -99999.99 -179968 -99999.99 -99999.99 -99999.99 -99999.99
4/15/2021 11:00:00 PM -99999.99 -179968 -99999.99 -99999.99 -99999.99 -99999.99
4/15/2021 11:15:00 PM -99999.99 -179968 -99999.99 -99999.99 -99999.99 -99999.99
4/15/2021 11:30:00 PM -99999.99 -179968 -99999.99 -99999.99 -99999.99 -99999.99
4/15/2021 11:45:00 PM -99999.99 -179968 -99999.99 -99999.99 -99999.99 -99999.99
4/16/2021 12:00:00 AM -99999.99 -179968 -99999.99 -99999.99 -99999.99 -99999.99
4/16/2021 12:15:00 AM -99999.99 -179968 -99999.99 -99999.99 -99999.99 -99999.99
4/16/2021 12:30:00 AM -99999.99 -179968 -99999.99 -99999.99 -99999.99 -99999.99
4/16/2021 12:45:00 AM -99999.99 -179968 -99999.99 -99999.99 -99999.99 -99999.99
4/16/2021 1:00:00 AM -99999.99 -179968 -99999.99 -99999.99 -99999.99 -99999.99
4/16/2021 1:15:00 AM -99999.99 -179968 -99999.99 -99999.99 -99999.99 -99999.99
4/16/2021 1:30:00 AM -99999.99 -179968 -99999.99 -99999.99 -99999.99 -99999.99
4/16/2021 1:45:00 AM -99999.99 -179968 -99999.99 -99999.99 -99999.99 -99999.99
4/16/2021 2:00:00 AM -99999.99 -179968 -99999.99 -99999.99 -99999.99 -99999.99
4/16/2021 2:15:00 AM -99999.99 -179968 -99999.99 -99999.99 -99999.99 -99999.99
4/16/2021 2:30:00 AM -99999.99 -179968 -99999.99 -99999.99 -99999.99 -99999.99
4/16/2021 2:45:00 AM -99999.99 -179968 -99999.99 -99999.99 -99999.99 -99999.99
4/16/2021 3:00:00 AM -99999.99 -179968 -99999.99 -99999.99 -99999.99 -99999.99
4/16/2021 3:15:00 AM -99999.99 -179968 -99999.99 -99999.99 -99999.99 -99999.99
4/16/2021 3:30:00 AM -99999.99 -179968 -99999.99 -99999.99 -99999.99 -99999.99
4/16/2021 3:45:00 AM -99999.99 -179968 -99999.99 -99999.99 -99999.99 -99999.99
4/16/2021 4:00:00 AM -99999.99 -179968 -99999.99 -99999.99 -99999.99 -99999.99
4/16/2021 4:15:00 AM -99999.99 -179968 -99999.99 -99999.99 -99999.99 -99999.99
4/16/2021 4:30:00 AM -99999.99 -179968 -99999.99 -99999.99 -99999.99 -99999.99
4/16/2021 4:45:00 AM -99999.99 -179968 -99999.99 -99999.99 -99999.99 -99999.99
4/16/2021 5:00:00 AM -99999.99 -179968 -99999.99 -99999.99 -99999.99 -99999.99
4/16/2021 5:15:00 AM -99999.99 -179968 -99999.99 -99999.99 -99999.99 -99999.99
4/16/2021 5:30:00 AM -99999.99 -179968 -99999.99 -99999.99 -99999.99 -99999.99
4/16/2021 5:45:00 AM -99999.99 -179968 -99999.99 -99999.99 -99999.99 -99999.99
4/16/2021 6:00:00 AM -99999.99 -179968 -99999.99 -99999.99 -99999.99 -99999.99
4/16/2021 6:15:00 AM -99999.99 -179968 -99999.99 -99999.99 -99999.99 -99999.99
4/16/2021 6:30:00 AM -99999.99 -179968 -99999.99 -99999.99 -99999.99 -99999.99
4/16/2021 6:45:00 AM -99999.99 -179968 -99999.99 -99999.99 -99999.99 -99999.99
4/16/2021 7:00:00 AM -99999.99 -179968 -99999.99 -99999.99 -99999.99 -99999.99
4/16/2021 7:15:00 AM -99999.99 -179968 -99999.99 -99999.99 -99999.99 -99999.99
4/16/2021 7:30:00 AM -99999.99 -179968 -99999.99 -99999.99 -99999.99 -99999.99
4/16/2021 7:45:00 AM -99999.99 -179968 -99999.99 -99999.99 -99999.99 -99999.99
4/16/2021 8:00:00 AM -99999.99 -179968 -99999.99 -99999.99 -99999.99 -99999.99
4/16/2021 8:15:00 AM -99999.99 -179968 -99999.99 -99999.99 -99999.99 -99999.99
4/16/2021 8:30:00 AM -99999.99 -179968 -99999.99 -99999.99 -99999.99 -99999.99
4/16/2021 8:45:00 AM -99999.99 -179968 -99999.99 -99999.99 -99999.99 -99999.99
4/16/2021 9:00:00 AM -99999.99 -179968 -99999.99 -99999.99 -99999.99 -99999.99
4/16/2021 9:15:00 AM -99999.99 -179968 -99999.99 -99999.99 -99999.99 -99999.99
4/1